<?xml version="1.0" encoding="UTF-8" standalone="no" ?>
<gpx xmlns="http://www.topografix.com/GPX/1/1" xmlns:xsi="http://www.w3.org/2001/XMLSchema-instance" xsi:schemaLocation="http://www.topografix.com/GPX/1/1 http://www.topografix.com/GPX/1/1/gpx.xsd" version="1.1" creator="VisuGPX - https://www.visugpx.com">
  <metadata>
    <name>2026-05-31 - Vtt dans l'Ouest Parisien </name>
    <desc><![CDATA[Parcours intéressant qui permet au départ de Bois-Colombes d\'aller explorer au mieux les zones \"vertes\" de l\'Ouest Parisien (Bois de Boulogne, Parc de Saint Cloud, Bois de Fausses-Reposes, Forêt de Meudon, Forêt de La Malmaison et pour finir les chemins de halage en bords de Seine. 
Inévitablement on a beaucoup de zones urbaines ....]]></desc>
  </metadata>
  <trk>
    <name><![CDATA[2026-05-31 - Vtt dans l'Ouest parisien-24240965]]></name>
    <trkseg>
      <trkpt lat="48.91719" lon="2.27449">
        <ele>32</ele>
        <time>2026-06-01T08:44:34Z</time>
      </trkpt>
      <trkpt lat="48.91669" lon="2.27388">
        <ele>34</ele>
        <time>2026-06-01T08:44:49Z</time>
      </trkpt>
      <trkpt lat="48.91668" lon="2.27378">
        <ele>34</ele>
        <time>2026-06-01T08:44:51Z</time>
      </trkpt>
      <trkpt lat="48.9169" lon="2.2731">
        <ele>35</ele>
        <time>2026-06-01T08:45:02Z</time>
      </trkpt>
      <trkpt lat="48.91689" lon="2.27301">
        <ele>35</ele>
        <time>2026-06-01T08:45:04Z</time>
      </trkpt>
      <trkpt lat="48.91682" lon="2.27289">
        <ele>36</ele>
        <time>2026-06-01T08:45:06Z</time>
      </trkpt>
      <trkpt lat="48.91653" lon="2.2726">
        <ele>36</ele>
        <time>2026-06-01T08:45:14Z</time>
      </trkpt>
      <trkpt lat="48.91593" lon="2.27182">
        <ele>39</ele>
        <time>2026-06-01T08:45:33Z</time>
      </trkpt>
      <trkpt lat="48.91582" lon="2.27173">
        <ele>40</ele>
        <time>2026-06-01T08:45:35Z</time>
      </trkpt>
      <trkpt lat="48.91549" lon="2.27136">
        <ele>39</ele>
        <time>2026-06-01T08:45:45Z</time>
      </trkpt>
      <trkpt lat="48.91511" lon="2.27084">
        <ele>38</ele>
        <time>2026-06-01T08:45:57Z</time>
      </trkpt>
      <trkpt lat="48.91495" lon="2.27056">
        <ele>39</ele>
        <time>2026-06-01T08:46:03Z</time>
      </trkpt>
      <trkpt lat="48.91486" lon="2.27048">
        <ele>39</ele>
        <time>2026-06-01T08:46:05Z</time>
      </trkpt>
      <trkpt lat="48.91481" lon="2.27048">
        <ele>39</ele>
        <time>2026-06-01T08:46:06Z</time>
      </trkpt>
      <trkpt lat="48.91473" lon="2.27054">
        <ele>39</ele>
        <time>2026-06-01T08:46:08Z</time>
      </trkpt>
      <trkpt lat="48.9132" lon="2.27264">
        <ele>38</ele>
        <time>2026-06-01T08:46:56Z</time>
      </trkpt>
      <trkpt lat="48.91316" lon="2.27266">
        <ele>38</ele>
        <time>2026-06-01T08:46:57Z</time>
      </trkpt>
      <trkpt lat="48.91308" lon="2.27264">
        <ele>38</ele>
        <time>2026-06-01T08:46:59Z</time>
      </trkpt>
      <trkpt lat="48.9127" lon="2.27231">
        <ele>40</ele>
        <time>2026-06-01T08:47:10Z</time>
      </trkpt>
      <trkpt lat="48.91179" lon="2.27223">
        <ele>40</ele>
        <time>2026-06-01T08:47:31Z</time>
      </trkpt>
      <trkpt lat="48.9117" lon="2.27231">
        <ele>40</ele>
        <time>2026-06-01T08:47:33Z</time>
      </trkpt>
      <trkpt lat="48.91155" lon="2.27268">
        <ele>39</ele>
        <time>2026-06-01T08:47:40Z</time>
      </trkpt>
      <trkpt lat="48.91146" lon="2.27271">
        <ele>39</ele>
        <time>2026-06-01T08:47:42Z</time>
      </trkpt>
      <trkpt lat="48.91126" lon="2.27272">
        <ele>40</ele>
        <time>2026-06-01T08:47:47Z</time>
      </trkpt>
      <trkpt lat="48.91122" lon="2.27276">
        <ele>40</ele>
        <time>2026-06-01T08:47:48Z</time>
      </trkpt>
      <trkpt lat="48.91104" lon="2.27322">
        <ele>40</ele>
        <time>2026-06-01T08:47:56Z</time>
      </trkpt>
      <trkpt lat="48.91077" lon="2.27374">
        <ele>40</ele>
        <time>2026-06-01T08:48:06Z</time>
      </trkpt>
      <trkpt lat="48.91035" lon="2.27467">
        <ele>40</ele>
        <time>2026-06-01T08:48:24Z</time>
      </trkpt>
      <trkpt lat="48.91029" lon="2.27473">
        <ele>41</ele>
        <time>2026-06-01T08:48:25Z</time>
      </trkpt>
      <trkpt lat="48.91027" lon="2.27472">
        <ele>41</ele>
        <time>2026-06-01T08:48:26Z</time>
      </trkpt>
      <trkpt lat="48.91008" lon="2.27439">
        <ele>43</ele>
        <time>2026-06-01T08:48:33Z</time>
      </trkpt>
      <trkpt lat="48.91001" lon="2.27439">
        <ele>43</ele>
        <time>2026-06-01T08:48:34Z</time>
      </trkpt>
      <trkpt lat="48.90935" lon="2.27577">
        <ele>40</ele>
        <time>2026-06-01T08:49:00Z</time>
      </trkpt>
      <trkpt lat="48.9093" lon="2.27578">
        <ele>41</ele>
        <time>2026-06-01T08:49:02Z</time>
      </trkpt>
      <trkpt lat="48.90924" lon="2.27574">
        <ele>41</ele>
        <time>2026-06-01T08:49:03Z</time>
      </trkpt>
      <trkpt lat="48.90923" lon="2.27548">
        <ele>41</ele>
        <time>2026-06-01T08:49:07Z</time>
      </trkpt>
      <trkpt lat="48.90916" lon="2.27496">
        <ele>42</ele>
        <time>2026-06-01T08:49:15Z</time>
      </trkpt>
      <trkpt lat="48.90911" lon="2.27487">
        <ele>42</ele>
        <time>2026-06-01T08:49:17Z</time>
      </trkpt>
      <trkpt lat="48.90904" lon="2.27487">
        <ele>42</ele>
        <time>2026-06-01T08:49:19Z</time>
      </trkpt>
      <trkpt lat="48.90799" lon="2.2759">
        <ele>40</ele>
        <time>2026-06-01T08:49:48Z</time>
      </trkpt>
      <trkpt lat="48.90741" lon="2.27609">
        <ele>40</ele>
        <time>2026-06-01T08:50:02Z</time>
      </trkpt>
      <trkpt lat="48.90707" lon="2.27613">
        <ele>41</ele>
        <time>2026-06-01T08:50:10Z</time>
      </trkpt>
      <trkpt lat="48.90679" lon="2.27612">
        <ele>42</ele>
        <time>2026-06-01T08:50:16Z</time>
      </trkpt>
      <trkpt lat="48.90669" lon="2.27614">
        <ele>42</ele>
        <time>2026-06-01T08:50:19Z</time>
      </trkpt>
      <trkpt lat="48.90637" lon="2.27639">
        <ele>43</ele>
        <time>2026-06-01T08:50:27Z</time>
      </trkpt>
      <trkpt lat="48.90576" lon="2.27706">
        <ele>45</ele>
        <time>2026-06-01T08:50:44Z</time>
      </trkpt>
      <trkpt lat="48.90572" lon="2.27707">
        <ele>45</ele>
        <time>2026-06-01T08:50:45Z</time>
      </trkpt>
      <trkpt lat="48.90566" lon="2.27704">
        <ele>45</ele>
        <time>2026-06-01T08:50:47Z</time>
      </trkpt>
      <trkpt lat="48.90437" lon="2.27356">
        <ele>45</ele>
        <time>2026-06-01T08:51:48Z</time>
      </trkpt>
      <trkpt lat="48.90432" lon="2.27344">
        <ele>46</ele>
        <time>2026-06-01T08:51:50Z</time>
      </trkpt>
      <trkpt lat="48.90423" lon="2.27337">
        <ele>46</ele>
        <time>2026-06-01T08:51:53Z</time>
      </trkpt>
      <trkpt lat="48.90417" lon="2.27336">
        <ele>46</ele>
        <time>2026-06-01T08:51:54Z</time>
      </trkpt>
      <trkpt lat="48.90408" lon="2.27341">
        <ele>46</ele>
        <time>2026-06-01T08:51:56Z</time>
      </trkpt>
      <trkpt lat="48.90331" lon="2.27414">
        <ele>46</ele>
        <time>2026-06-01T08:52:18Z</time>
      </trkpt>
      <trkpt lat="48.90312" lon="2.27426">
        <ele>47</ele>
        <time>2026-06-01T08:52:22Z</time>
      </trkpt>
      <trkpt lat="48.90286" lon="2.27454">
        <ele>47</ele>
        <time>2026-06-01T08:52:30Z</time>
      </trkpt>
      <trkpt lat="48.90278" lon="2.27456">
        <ele>48</ele>
        <time>2026-06-01T08:52:32Z</time>
      </trkpt>
      <trkpt lat="48.90259" lon="2.27451">
        <ele>49</ele>
        <time>2026-06-01T08:52:36Z</time>
      </trkpt>
      <trkpt lat="48.90225" lon="2.2738">
        <ele>48</ele>
        <time>2026-06-01T08:52:50Z</time>
      </trkpt>
      <trkpt lat="48.90217" lon="2.27373">
        <ele>47</ele>
        <time>2026-06-01T08:52:52Z</time>
      </trkpt>
      <trkpt lat="48.90208" lon="2.27377">
        <ele>46</ele>
        <time>2026-06-01T08:52:54Z</time>
      </trkpt>
      <trkpt lat="48.90106" lon="2.2748">
        <ele>34</ele>
        <time>2026-06-01T08:53:23Z</time>
      </trkpt>
      <trkpt lat="48.90102" lon="2.2748">
        <ele>33</ele>
        <time>2026-06-01T08:53:24Z</time>
      </trkpt>
      <trkpt lat="48.90098" lon="2.27477">
        <ele>33</ele>
        <time>2026-06-01T08:53:25Z</time>
      </trkpt>
      <trkpt lat="48.90094" lon="2.27468">
        <ele>33</ele>
        <time>2026-06-01T08:53:26Z</time>
      </trkpt>
      <trkpt lat="48.90008" lon="2.27263">
        <ele>36</ele>
        <time>2026-06-01T08:54:04Z</time>
      </trkpt>
      <trkpt lat="48.89996" lon="2.27245">
        <ele>34</ele>
        <time>2026-06-01T08:54:08Z</time>
      </trkpt>
      <trkpt lat="48.89996" lon="2.27233">
        <ele>34</ele>
        <time>2026-06-01T08:54:09Z</time>
      </trkpt>
      <trkpt lat="48.89978" lon="2.27212">
        <ele>36</ele>
        <time>2026-06-01T08:54:15Z</time>
      </trkpt>
      <trkpt lat="48.89961" lon="2.27173">
        <ele>35</ele>
        <time>2026-06-01T08:54:22Z</time>
      </trkpt>
      <trkpt lat="48.89871" lon="2.26926">
        <ele>34</ele>
        <time>2026-06-01T08:55:05Z</time>
      </trkpt>
      <trkpt lat="48.89868" lon="2.26895">
        <ele>35</ele>
        <time>2026-06-01T08:55:10Z</time>
      </trkpt>
      <trkpt lat="48.89863" lon="2.26875">
        <ele>35</ele>
        <time>2026-06-01T08:55:13Z</time>
      </trkpt>
      <trkpt lat="48.8984" lon="2.26824">
        <ele>35</ele>
        <time>2026-06-01T08:55:23Z</time>
      </trkpt>
      <trkpt lat="48.89776" lon="2.26661">
        <ele>35</ele>
        <time>2026-06-01T08:55:52Z</time>
      </trkpt>
      <trkpt lat="48.89736" lon="2.26551">
        <ele>38</ele>
        <time>2026-06-01T08:56:11Z</time>
      </trkpt>
      <trkpt lat="48.89711" lon="2.26498">
        <ele>39</ele>
        <time>2026-06-01T08:56:21Z</time>
      </trkpt>
      <trkpt lat="48.89703" lon="2.26491">
        <ele>38</ele>
        <time>2026-06-01T08:56:23Z</time>
      </trkpt>
      <trkpt lat="48.89697" lon="2.26481">
        <ele>38</ele>
        <time>2026-06-01T08:56:26Z</time>
      </trkpt>
      <trkpt lat="48.8968" lon="2.26487">
        <ele>36</ele>
        <time>2026-06-01T08:56:30Z</time>
      </trkpt>
      <trkpt lat="48.89665" lon="2.26482">
        <ele>35</ele>
        <time>2026-06-01T08:56:33Z</time>
      </trkpt>
      <trkpt lat="48.89658" lon="2.26484">
        <ele>34</ele>
        <time>2026-06-01T08:56:35Z</time>
      </trkpt>
      <trkpt lat="48.89579" lon="2.26563">
        <ele>34</ele>
        <time>2026-06-01T08:56:57Z</time>
      </trkpt>
      <trkpt lat="48.89565" lon="2.2658">
        <ele>34</ele>
        <time>2026-06-01T08:57:01Z</time>
      </trkpt>
      <trkpt lat="48.89548" lon="2.26593">
        <ele>35</ele>
        <time>2026-06-01T08:57:06Z</time>
      </trkpt>
      <trkpt lat="48.89546" lon="2.266">
        <ele>36</ele>
        <time>2026-06-01T08:57:07Z</time>
      </trkpt>
      <trkpt lat="48.89554" lon="2.26622">
        <ele>36</ele>
        <time>2026-06-01T08:57:11Z</time>
      </trkpt>
      <trkpt lat="48.89557" lon="2.26623">
        <ele>36</ele>
        <time>2026-06-01T08:57:11Z</time>
      </trkpt>
      <trkpt lat="48.89558" lon="2.26621">
        <ele>36</ele>
        <time>2026-06-01T08:57:12Z</time>
      </trkpt>
      <trkpt lat="48.89524" lon="2.26536">
        <ele>34</ele>
        <time>2026-06-01T08:57:27Z</time>
      </trkpt>
      <trkpt lat="48.8952" lon="2.26536">
        <ele>34</ele>
        <time>2026-06-01T08:57:28Z</time>
      </trkpt>
      <trkpt lat="48.8952" lon="2.26539">
        <ele>34</ele>
        <time>2026-06-01T08:57:28Z</time>
      </trkpt>
      <trkpt lat="48.89529" lon="2.26558">
        <ele>34</ele>
        <time>2026-06-01T08:57:32Z</time>
      </trkpt>
      <trkpt lat="48.89525" lon="2.26562">
        <ele>35</ele>
        <time>2026-06-01T08:57:33Z</time>
      </trkpt>
      <trkpt lat="48.89509" lon="2.26529">
        <ele>34</ele>
        <time>2026-06-01T08:57:39Z</time>
      </trkpt>
      <trkpt lat="48.89503" lon="2.26524">
        <ele>34</ele>
        <time>2026-06-01T08:57:41Z</time>
      </trkpt>
      <trkpt lat="48.89477" lon="2.26469">
        <ele>31</ele>
        <time>2026-06-01T08:57:51Z</time>
      </trkpt>
      <trkpt lat="48.89411" lon="2.26354">
        <ele>30</ele>
        <time>2026-06-01T08:58:15Z</time>
      </trkpt>
      <trkpt lat="48.89391" lon="2.26325">
        <ele>29</ele>
        <time>2026-06-01T08:58:21Z</time>
      </trkpt>
      <trkpt lat="48.89382" lon="2.26318">
        <ele>29</ele>
        <time>2026-06-01T08:58:24Z</time>
      </trkpt>
      <trkpt lat="48.89341" lon="2.2627">
        <ele>27</ele>
        <time>2026-06-01T08:58:36Z</time>
      </trkpt>
      <trkpt lat="48.8929" lon="2.26225">
        <ele>25</ele>
        <time>2026-06-01T08:58:50Z</time>
      </trkpt>
      <trkpt lat="48.89282" lon="2.26211">
        <ele>24</ele>
        <time>2026-06-01T08:58:52Z</time>
      </trkpt>
      <trkpt lat="48.89275" lon="2.26205">
        <ele>22</ele>
        <time>2026-06-01T08:58:54Z</time>
      </trkpt>
      <trkpt lat="48.89265" lon="2.26201">
        <ele>21</ele>
        <time>2026-06-01T08:58:57Z</time>
      </trkpt>
      <trkpt lat="48.89257" lon="2.26202">
        <ele>20</ele>
        <time>2026-06-01T08:58:59Z</time>
      </trkpt>
      <trkpt lat="48.89238" lon="2.26223">
        <ele>23</ele>
        <time>2026-06-01T08:59:04Z</time>
      </trkpt>
      <trkpt lat="48.89197" lon="2.2629">
        <ele>29</ele>
        <time>2026-06-01T08:59:18Z</time>
      </trkpt>
      <trkpt lat="48.89187" lon="2.2628">
        <ele>28</ele>
        <time>2026-06-01T08:59:21Z</time>
      </trkpt>
      <trkpt lat="48.89174" lon="2.26257">
        <ele>28</ele>
        <time>2026-06-01T08:59:26Z</time>
      </trkpt>
      <trkpt lat="48.89163" lon="2.26227">
        <ele>27</ele>
        <time>2026-06-01T08:59:31Z</time>
      </trkpt>
      <trkpt lat="48.89126" lon="2.26144">
        <ele>23</ele>
        <time>2026-06-01T08:59:46Z</time>
      </trkpt>
      <trkpt lat="48.89084" lon="2.26052">
        <ele>20</ele>
        <time>2026-06-01T09:00:03Z</time>
      </trkpt>
      <trkpt lat="48.89066" lon="2.26018">
        <ele>19</ele>
        <time>2026-06-01T09:00:10Z</time>
      </trkpt>
      <trkpt lat="48.89062" lon="2.2602">
        <ele>20</ele>
        <time>2026-06-01T09:00:11Z</time>
      </trkpt>
      <trkpt lat="48.8907" lon="2.26031">
        <ele>20</ele>
        <time>2026-06-01T09:00:14Z</time>
      </trkpt>
      <trkpt lat="48.8907" lon="2.26036">
        <ele>20</ele>
        <time>2026-06-01T09:00:14Z</time>
      </trkpt>
      <trkpt lat="48.89037" lon="2.26078">
        <ele>27</ele>
        <time>2026-06-01T09:00:24Z</time>
      </trkpt>
      <trkpt lat="48.89024" lon="2.26056">
        <ele>26</ele>
        <time>2026-06-01T09:00:29Z</time>
      </trkpt>
      <trkpt lat="48.89019" lon="2.26052">
        <ele>26</ele>
        <time>2026-06-01T09:00:30Z</time>
      </trkpt>
      <trkpt lat="48.89008" lon="2.2605">
        <ele>27</ele>
        <time>2026-06-01T09:00:33Z</time>
      </trkpt>
      <trkpt lat="48.89007" lon="2.26059">
        <ele>28</ele>
        <time>2026-06-01T09:00:34Z</time>
      </trkpt>
      <trkpt lat="48.89016" lon="2.26079">
        <ele>28</ele>
        <time>2026-06-01T09:00:38Z</time>
      </trkpt>
      <trkpt lat="48.89018" lon="2.2609">
        <ele>29</ele>
        <time>2026-06-01T09:00:40Z</time>
      </trkpt>
      <trkpt lat="48.89013" lon="2.26114">
        <ele>30</ele>
        <time>2026-06-01T09:00:44Z</time>
      </trkpt>
      <trkpt lat="48.89006" lon="2.2613">
        <ele>31</ele>
        <time>2026-06-01T09:00:47Z</time>
      </trkpt>
      <trkpt lat="48.88976" lon="2.26175">
        <ele>34</ele>
        <time>2026-06-01T09:00:56Z</time>
      </trkpt>
      <trkpt lat="48.88927" lon="2.26261">
        <ele>36</ele>
        <time>2026-06-01T09:01:14Z</time>
      </trkpt>
      <trkpt lat="48.88917" lon="2.26285">
        <ele>36</ele>
        <time>2026-06-01T09:01:18Z</time>
      </trkpt>
      <trkpt lat="48.88904" lon="2.26299">
        <ele>36</ele>
        <time>2026-06-01T09:01:22Z</time>
      </trkpt>
      <trkpt lat="48.88896" lon="2.2632">
        <ele>36</ele>
        <time>2026-06-01T09:01:26Z</time>
      </trkpt>
      <trkpt lat="48.8883" lon="2.26443">
        <ele>37</ele>
        <time>2026-06-01T09:01:50Z</time>
      </trkpt>
      <trkpt lat="48.88821" lon="2.26452">
        <ele>37</ele>
        <time>2026-06-01T09:01:53Z</time>
      </trkpt>
      <trkpt lat="48.8881" lon="2.26444">
        <ele>37</ele>
        <time>2026-06-01T09:01:55Z</time>
      </trkpt>
      <trkpt lat="48.88795" lon="2.26423">
        <ele>38</ele>
        <time>2026-06-01T09:02:00Z</time>
      </trkpt>
      <trkpt lat="48.8877" lon="2.26378">
        <ele>38</ele>
        <time>2026-06-01T09:02:09Z</time>
      </trkpt>
      <trkpt lat="48.88762" lon="2.26369">
        <ele>38</ele>
        <time>2026-06-01T09:02:12Z</time>
      </trkpt>
      <trkpt lat="48.88721" lon="2.26306">
        <ele>40</ele>
        <time>2026-06-01T09:02:25Z</time>
      </trkpt>
      <trkpt lat="48.88675" lon="2.26227">
        <ele>40</ele>
        <time>2026-06-01T09:02:41Z</time>
      </trkpt>
      <trkpt lat="48.88631" lon="2.26142">
        <ele>39</ele>
        <time>2026-06-01T09:02:58Z</time>
      </trkpt>
      <trkpt lat="48.88602" lon="2.26115">
        <ele>40</ele>
        <time>2026-06-01T09:03:06Z</time>
      </trkpt>
      <trkpt lat="48.88564" lon="2.26096">
        <ele>41</ele>
        <time>2026-06-01T09:03:15Z</time>
      </trkpt>
      <trkpt lat="48.88525" lon="2.2607">
        <ele>43</ele>
        <time>2026-06-01T09:03:25Z</time>
      </trkpt>
      <trkpt lat="48.88498" lon="2.26056">
        <ele>43</ele>
        <time>2026-06-01T09:03:32Z</time>
      </trkpt>
      <trkpt lat="48.88456" lon="2.26038">
        <ele>44</ele>
        <time>2026-06-01T09:03:42Z</time>
      </trkpt>
      <trkpt lat="48.88418" lon="2.26025">
        <ele>44</ele>
        <time>2026-06-01T09:03:51Z</time>
      </trkpt>
      <trkpt lat="48.88258" lon="2.25945">
        <ele>40</ele>
        <time>2026-06-01T09:04:30Z</time>
      </trkpt>
      <trkpt lat="48.8822" lon="2.25928">
        <ele>40</ele>
        <time>2026-06-01T09:04:40Z</time>
      </trkpt>
      <trkpt lat="48.88176" lon="2.25912">
        <ele>42</ele>
        <time>2026-06-01T09:04:50Z</time>
      </trkpt>
      <trkpt lat="48.88066" lon="2.2585">
        <ele>43</ele>
        <time>2026-06-01T09:05:18Z</time>
      </trkpt>
      <trkpt lat="48.88039" lon="2.25837">
        <ele>41</ele>
        <time>2026-06-01T09:05:24Z</time>
      </trkpt>
      <trkpt lat="48.88034" lon="2.25837">
        <ele>41</ele>
        <time>2026-06-01T09:05:25Z</time>
      </trkpt>
      <trkpt lat="48.88027" lon="2.25842">
        <ele>40</ele>
        <time>2026-06-01T09:05:27Z</time>
      </trkpt>
      <trkpt lat="48.88019" lon="2.25862">
        <ele>40</ele>
        <time>2026-06-01T09:05:31Z</time>
      </trkpt>
      <trkpt lat="48.88002" lon="2.25876">
        <ele>40</ele>
        <time>2026-06-01T09:05:35Z</time>
      </trkpt>
      <trkpt lat="48.88001" lon="2.25899">
        <ele>40</ele>
        <time>2026-06-01T09:05:39Z</time>
      </trkpt>
      <trkpt lat="48.8797" lon="2.25977">
        <ele>40</ele>
        <time>2026-06-01T09:05:53Z</time>
      </trkpt>
      <trkpt lat="48.87962" lon="2.26026">
        <ele>39</ele>
        <time>2026-06-01T09:06:01Z</time>
      </trkpt>
      <trkpt lat="48.87959" lon="2.2603">
        <ele>39</ele>
        <time>2026-06-01T09:06:02Z</time>
      </trkpt>
      <trkpt lat="48.87956" lon="2.2603">
        <ele>39</ele>
        <time>2026-06-01T09:06:02Z</time>
      </trkpt>
      <trkpt lat="48.87932" lon="2.25949">
        <ele>39</ele>
        <time>2026-06-01T09:06:16Z</time>
      </trkpt>
      <trkpt lat="48.87922" lon="2.25924">
        <ele>38</ele>
        <time>2026-06-01T09:06:20Z</time>
      </trkpt>
      <trkpt lat="48.87914" lon="2.25913">
        <ele>38</ele>
        <time>2026-06-01T09:06:23Z</time>
      </trkpt>
      <trkpt lat="48.87905" lon="2.25885">
        <ele>38</ele>
        <time>2026-06-01T09:06:28Z</time>
      </trkpt>
      <trkpt lat="48.87864" lon="2.25825">
        <ele>37</ele>
        <time>2026-06-01T09:06:41Z</time>
      </trkpt>
      <trkpt lat="48.87851" lon="2.25812">
        <ele>38</ele>
        <time>2026-06-01T09:06:45Z</time>
      </trkpt>
      <trkpt lat="48.87831" lon="2.258">
        <ele>38</ele>
        <time>2026-06-01T09:06:50Z</time>
      </trkpt>
      <trkpt lat="48.87767" lon="2.25775">
        <ele>42</ele>
        <time>2026-06-01T09:07:05Z</time>
      </trkpt>
      <trkpt lat="48.87696" lon="2.25735">
        <ele>41</ele>
        <time>2026-06-01T09:07:23Z</time>
      </trkpt>
      <trkpt lat="48.87634" lon="2.25685">
        <ele>38</ele>
        <time>2026-06-01T09:07:39Z</time>
      </trkpt>
      <trkpt lat="48.876" lon="2.25663">
        <ele>38</ele>
        <time>2026-06-01T09:07:48Z</time>
      </trkpt>
      <trkpt lat="48.87568" lon="2.25651">
        <ele>39</ele>
        <time>2026-06-01T09:07:56Z</time>
      </trkpt>
      <trkpt lat="48.87531" lon="2.25643">
        <ele>39</ele>
        <time>2026-06-01T09:08:04Z</time>
      </trkpt>
      <trkpt lat="48.87476" lon="2.25624">
        <ele>40</ele>
        <time>2026-06-01T09:08:17Z</time>
      </trkpt>
      <trkpt lat="48.87433" lon="2.25604">
        <ele>39</ele>
        <time>2026-06-01T09:08:28Z</time>
      </trkpt>
      <trkpt lat="48.87429" lon="2.256">
        <ele>39</ele>
        <time>2026-06-01T09:08:29Z</time>
      </trkpt>
      <trkpt lat="48.8742" lon="2.25584">
        <ele>39</ele>
        <time>2026-06-01T09:08:32Z</time>
      </trkpt>
      <trkpt lat="48.87415" lon="2.25563">
        <ele>39</ele>
        <time>2026-06-01T09:08:36Z</time>
      </trkpt>
      <trkpt lat="48.87416" lon="2.25545">
        <ele>39</ele>
        <time>2026-06-01T09:08:38Z</time>
      </trkpt>
      <trkpt lat="48.87422" lon="2.25521">
        <ele>39</ele>
        <time>2026-06-01T09:08:42Z</time>
      </trkpt>
      <trkpt lat="48.87421" lon="2.2551">
        <ele>39</ele>
        <time>2026-06-01T09:08:44Z</time>
      </trkpt>
      <trkpt lat="48.87419" lon="2.25506">
        <ele>39</ele>
        <time>2026-06-01T09:08:45Z</time>
      </trkpt>
      <trkpt lat="48.87411" lon="2.25501">
        <ele>39</ele>
        <time>2026-06-01T09:08:47Z</time>
      </trkpt>
      <trkpt lat="48.87387" lon="2.25491">
        <ele>38</ele>
        <time>2026-06-01T09:08:53Z</time>
      </trkpt>
      <trkpt lat="48.87377" lon="2.25478">
        <ele>38</ele>
        <time>2026-06-01T09:08:56Z</time>
      </trkpt>
      <trkpt lat="48.87361" lon="2.2541">
        <ele>38</ele>
        <time>2026-06-01T09:09:07Z</time>
      </trkpt>
      <trkpt lat="48.87353" lon="2.25338">
        <ele>38</ele>
        <time>2026-06-01T09:09:18Z</time>
      </trkpt>
      <trkpt lat="48.87354" lon="2.25259">
        <ele>38</ele>
        <time>2026-06-01T09:09:30Z</time>
      </trkpt>
      <trkpt lat="48.8736" lon="2.25188">
        <ele>39</ele>
        <time>2026-06-01T09:09:41Z</time>
      </trkpt>
      <trkpt lat="48.87378" lon="2.25114">
        <ele>38</ele>
        <time>2026-06-01T09:09:53Z</time>
      </trkpt>
      <trkpt lat="48.87384" lon="2.25102">
        <ele>38</ele>
        <time>2026-06-01T09:09:56Z</time>
      </trkpt>
      <trkpt lat="48.87388" lon="2.25069">
        <ele>38</ele>
        <time>2026-06-01T09:10:01Z</time>
      </trkpt>
      <trkpt lat="48.87387" lon="2.25022">
        <ele>37</ele>
        <time>2026-06-01T09:10:08Z</time>
      </trkpt>
      <trkpt lat="48.87392" lon="2.24988">
        <ele>37</ele>
        <time>2026-06-01T09:10:13Z</time>
      </trkpt>
      <trkpt lat="48.87397" lon="2.24971">
        <ele>36</ele>
        <time>2026-06-01T09:10:16Z</time>
      </trkpt>
      <trkpt lat="48.87405" lon="2.24959">
        <ele>36</ele>
        <time>2026-06-01T09:10:19Z</time>
      </trkpt>
      <trkpt lat="48.87423" lon="2.24906">
        <ele>34</ele>
        <time>2026-06-01T09:10:28Z</time>
      </trkpt>
      <trkpt lat="48.87431" lon="2.24892">
        <ele>34</ele>
        <time>2026-06-01T09:10:31Z</time>
      </trkpt>
      <trkpt lat="48.87438" lon="2.24889">
        <ele>34</ele>
        <time>2026-06-01T09:10:33Z</time>
      </trkpt>
      <trkpt lat="48.87441" lon="2.24882">
        <ele>34</ele>
        <time>2026-06-01T09:10:34Z</time>
      </trkpt>
      <trkpt lat="48.87425" lon="2.24841">
        <ele>32</ele>
        <time>2026-06-01T09:10:41Z</time>
      </trkpt>
      <trkpt lat="48.87414" lon="2.24828">
        <ele>31</ele>
        <time>2026-06-01T09:10:44Z</time>
      </trkpt>
      <trkpt lat="48.87397" lon="2.24779">
        <ele>28</ele>
        <time>2026-06-01T09:10:53Z</time>
      </trkpt>
      <trkpt lat="48.87403" lon="2.24746">
        <ele>27</ele>
        <time>2026-06-01T09:10:58Z</time>
      </trkpt>
      <trkpt lat="48.87397" lon="2.24656">
        <ele>29</ele>
        <time>2026-06-01T09:11:12Z</time>
      </trkpt>
      <trkpt lat="48.87402" lon="2.24635">
        <ele>30</ele>
        <time>2026-06-01T09:11:16Z</time>
      </trkpt>
      <trkpt lat="48.87406" lon="2.24581">
        <ele>31</ele>
        <time>2026-06-01T09:11:24Z</time>
      </trkpt>
      <trkpt lat="48.87406" lon="2.24565">
        <ele>30</ele>
        <time>2026-06-01T09:11:26Z</time>
      </trkpt>
      <trkpt lat="48.87401" lon="2.24546">
        <ele>30</ele>
        <time>2026-06-01T09:11:29Z</time>
      </trkpt>
      <trkpt lat="48.87386" lon="2.24523">
        <ele>29</ele>
        <time>2026-06-01T09:11:34Z</time>
      </trkpt>
      <trkpt lat="48.87318" lon="2.24439">
        <ele>30</ele>
        <time>2026-06-01T09:11:55Z</time>
      </trkpt>
      <trkpt lat="48.87223" lon="2.24315">
        <ele>28</ele>
        <time>2026-06-01T09:12:24Z</time>
      </trkpt>
      <trkpt lat="48.87072" lon="2.24096">
        <ele>31</ele>
        <time>2026-06-01T09:13:13Z</time>
      </trkpt>
      <trkpt lat="48.86939" lon="2.23914">
        <ele>30</ele>
        <time>2026-06-01T09:13:55Z</time>
      </trkpt>
      <trkpt lat="48.86923" lon="2.23897">
        <ele>29</ele>
        <time>2026-06-01T09:13:59Z</time>
      </trkpt>
      <trkpt lat="48.86905" lon="2.23893">
        <ele>29</ele>
        <time>2026-06-01T09:14:04Z</time>
      </trkpt>
      <trkpt lat="48.86877" lon="2.23899">
        <ele>29</ele>
        <time>2026-06-01T09:14:10Z</time>
      </trkpt>
      <trkpt lat="48.86841" lon="2.23901">
        <ele>29</ele>
        <time>2026-06-01T09:14:19Z</time>
      </trkpt>
      <trkpt lat="48.86806" lon="2.2392">
        <ele>30</ele>
        <time>2026-06-01T09:14:27Z</time>
      </trkpt>
      <trkpt lat="48.86789" lon="2.23926">
        <ele>30</ele>
        <time>2026-06-01T09:14:31Z</time>
      </trkpt>
      <trkpt lat="48.86758" lon="2.23988">
        <ele>28</ele>
        <time>2026-06-01T09:14:43Z</time>
      </trkpt>
      <trkpt lat="48.8673" lon="2.24028">
        <ele>28</ele>
        <time>2026-06-01T09:14:52Z</time>
      </trkpt>
      <trkpt lat="48.86713" lon="2.24039">
        <ele>29</ele>
        <time>2026-06-01T09:14:57Z</time>
      </trkpt>
      <trkpt lat="48.86704" lon="2.2404">
        <ele>29</ele>
        <time>2026-06-01T09:14:59Z</time>
      </trkpt>
      <trkpt lat="48.86697" lon="2.24046">
        <ele>30</ele>
        <time>2026-06-01T09:15:01Z</time>
      </trkpt>
      <trkpt lat="48.86685" lon="2.24041">
        <ele>30</ele>
        <time>2026-06-01T09:15:03Z</time>
      </trkpt>
      <trkpt lat="48.86679" lon="2.24028">
        <ele>30</ele>
        <time>2026-06-01T09:15:06Z</time>
      </trkpt>
      <trkpt lat="48.86683" lon="2.23997">
        <ele>31</ele>
        <time>2026-06-01T09:15:11Z</time>
      </trkpt>
      <trkpt lat="48.86675" lon="2.2397">
        <ele>32</ele>
        <time>2026-06-01T09:15:15Z</time>
      </trkpt>
      <trkpt lat="48.86673" lon="2.23874">
        <ele>33</ele>
        <time>2026-06-01T09:15:30Z</time>
      </trkpt>
      <trkpt lat="48.86661" lon="2.23815">
        <ele>34</ele>
        <time>2026-06-01T09:15:39Z</time>
      </trkpt>
      <trkpt lat="48.86658" lon="2.2378">
        <ele>35</ele>
        <time>2026-06-01T09:15:45Z</time>
      </trkpt>
      <trkpt lat="48.86641" lon="2.23732">
        <ele>35</ele>
        <time>2026-06-01T09:15:53Z</time>
      </trkpt>
      <trkpt lat="48.8664" lon="2.23721">
        <ele>35</ele>
        <time>2026-06-01T09:15:55Z</time>
      </trkpt>
      <trkpt lat="48.86635" lon="2.23711">
        <ele>35</ele>
        <time>2026-06-01T09:15:57Z</time>
      </trkpt>
      <trkpt lat="48.8663" lon="2.23691">
        <ele>34</ele>
        <time>2026-06-01T09:16:00Z</time>
      </trkpt>
      <trkpt lat="48.86623" lon="2.23676">
        <ele>34</ele>
        <time>2026-06-01T09:16:03Z</time>
      </trkpt>
      <trkpt lat="48.86622" lon="2.23664">
        <ele>33</ele>
        <time>2026-06-01T09:16:05Z</time>
      </trkpt>
      <trkpt lat="48.86602" lon="2.23614">
        <ele>32</ele>
        <time>2026-06-01T09:16:14Z</time>
      </trkpt>
      <trkpt lat="48.86558" lon="2.23534">
        <ele>32</ele>
        <time>2026-06-01T09:16:30Z</time>
      </trkpt>
      <trkpt lat="48.86428" lon="2.23354">
        <ele>32</ele>
        <time>2026-06-01T09:17:11Z</time>
      </trkpt>
      <trkpt lat="48.86426" lon="2.2335">
        <ele>32</ele>
        <time>2026-06-01T09:17:12Z</time>
      </trkpt>
      <trkpt lat="48.86426" lon="2.23337">
        <ele>32</ele>
        <time>2026-06-01T09:17:14Z</time>
      </trkpt>
      <trkpt lat="48.86405" lon="2.23305">
        <ele>34</ele>
        <time>2026-06-01T09:17:21Z</time>
      </trkpt>
      <trkpt lat="48.86403" lon="2.23287">
        <ele>34</ele>
        <time>2026-06-01T09:17:23Z</time>
      </trkpt>
      <trkpt lat="48.86375" lon="2.23194">
        <ele>33</ele>
        <time>2026-06-01T09:17:39Z</time>
      </trkpt>
      <trkpt lat="48.86348" lon="2.23151">
        <ele>32</ele>
        <time>2026-06-01T09:17:48Z</time>
      </trkpt>
      <trkpt lat="48.8632" lon="2.23119">
        <ele>32</ele>
        <time>2026-06-01T09:17:57Z</time>
      </trkpt>
      <trkpt lat="48.86302" lon="2.2309">
        <ele>32</ele>
        <time>2026-06-01T09:18:03Z</time>
      </trkpt>
      <trkpt lat="48.86292" lon="2.23063">
        <ele>32</ele>
        <time>2026-06-01T09:18:07Z</time>
      </trkpt>
      <trkpt lat="48.86292" lon="2.23033">
        <ele>32</ele>
        <time>2026-06-01T09:18:12Z</time>
      </trkpt>
      <trkpt lat="48.86288" lon="2.23022">
        <ele>32</ele>
        <time>2026-06-01T09:18:14Z</time>
      </trkpt>
      <trkpt lat="48.86266" lon="2.22998">
        <ele>31</ele>
        <time>2026-06-01T09:18:20Z</time>
      </trkpt>
      <trkpt lat="48.86237" lon="2.22976">
        <ele>31</ele>
        <time>2026-06-01T09:18:28Z</time>
      </trkpt>
      <trkpt lat="48.86228" lon="2.22966">
        <ele>31</ele>
        <time>2026-06-01T09:18:30Z</time>
      </trkpt>
      <trkpt lat="48.86227" lon="2.22958">
        <ele>31</ele>
        <time>2026-06-01T09:18:32Z</time>
      </trkpt>
      <trkpt lat="48.86233" lon="2.22932">
        <ele>31</ele>
        <time>2026-06-01T09:18:36Z</time>
      </trkpt>
      <trkpt lat="48.86232" lon="2.22925">
        <ele>31</ele>
        <time>2026-06-01T09:18:37Z</time>
      </trkpt>
      <trkpt lat="48.86227" lon="2.2292">
        <ele>31</ele>
        <time>2026-06-01T09:18:38Z</time>
      </trkpt>
      <trkpt lat="48.86197" lon="2.22905">
        <ele>31</ele>
        <time>2026-06-01T09:18:46Z</time>
      </trkpt>
      <trkpt lat="48.86194" lon="2.22901">
        <ele>31</ele>
        <time>2026-06-01T09:18:47Z</time>
      </trkpt>
      <trkpt lat="48.86194" lon="2.22886">
        <ele>30</ele>
        <time>2026-06-01T09:18:49Z</time>
      </trkpt>
      <trkpt lat="48.86202" lon="2.22863">
        <ele>29</ele>
        <time>2026-06-01T09:18:53Z</time>
      </trkpt>
      <trkpt lat="48.86199" lon="2.22851">
        <ele>29</ele>
        <time>2026-06-01T09:18:55Z</time>
      </trkpt>
      <trkpt lat="48.86177" lon="2.22838">
        <ele>29</ele>
        <time>2026-06-01T09:19:01Z</time>
      </trkpt>
      <trkpt lat="48.8616" lon="2.22823">
        <ele>30</ele>
        <time>2026-06-01T09:19:05Z</time>
      </trkpt>
      <trkpt lat="48.86152" lon="2.22821">
        <ele>30</ele>
        <time>2026-06-01T09:19:07Z</time>
      </trkpt>
      <trkpt lat="48.86132" lon="2.22805">
        <ele>31</ele>
        <time>2026-06-01T09:19:12Z</time>
      </trkpt>
      <trkpt lat="48.86108" lon="2.228">
        <ele>31</ele>
        <time>2026-06-01T09:19:18Z</time>
      </trkpt>
      <trkpt lat="48.8609" lon="2.22793">
        <ele>31</ele>
        <time>2026-06-01T09:19:22Z</time>
      </trkpt>
      <trkpt lat="48.86059" lon="2.22773">
        <ele>30</ele>
        <time>2026-06-01T09:19:30Z</time>
      </trkpt>
      <trkpt lat="48.86055" lon="2.22765">
        <ele>30</ele>
        <time>2026-06-01T09:19:32Z</time>
      </trkpt>
      <trkpt lat="48.86048" lon="2.2276">
        <ele>30</ele>
        <time>2026-06-01T09:19:33Z</time>
      </trkpt>
      <trkpt lat="48.85992" lon="2.22736">
        <ele>31</ele>
        <time>2026-06-01T09:19:47Z</time>
      </trkpt>
      <trkpt lat="48.85915" lon="2.22694">
        <ele>30</ele>
        <time>2026-06-01T09:20:06Z</time>
      </trkpt>
      <trkpt lat="48.85874" lon="2.22678">
        <ele>29</ele>
        <time>2026-06-01T09:20:16Z</time>
      </trkpt>
      <trkpt lat="48.85792" lon="2.22632">
        <ele>27</ele>
        <time>2026-06-01T09:20:36Z</time>
      </trkpt>
      <trkpt lat="48.85701" lon="2.22593">
        <ele>29</ele>
        <time>2026-06-01T09:20:59Z</time>
      </trkpt>
      <trkpt lat="48.8567" lon="2.22582">
        <ele>30</ele>
        <time>2026-06-01T09:21:06Z</time>
      </trkpt>
      <trkpt lat="48.85649" lon="2.2257">
        <ele>30</ele>
        <time>2026-06-01T09:21:11Z</time>
      </trkpt>
      <trkpt lat="48.85551" lon="2.22542">
        <ele>27</ele>
        <time>2026-06-01T09:21:35Z</time>
      </trkpt>
      <trkpt lat="48.85499" lon="2.22536">
        <ele>27</ele>
        <time>2026-06-01T09:21:47Z</time>
      </trkpt>
      <trkpt lat="48.85447" lon="2.22534">
        <ele>28</ele>
        <time>2026-06-01T09:21:59Z</time>
      </trkpt>
      <trkpt lat="48.85429" lon="2.22535">
        <ele>29</ele>
        <time>2026-06-01T09:22:03Z</time>
      </trkpt>
      <trkpt lat="48.85414" lon="2.2254">
        <ele>29</ele>
        <time>2026-06-01T09:22:07Z</time>
      </trkpt>
      <trkpt lat="48.85395" lon="2.22541">
        <ele>29</ele>
        <time>2026-06-01T09:22:11Z</time>
      </trkpt>
      <trkpt lat="48.85371" lon="2.22559">
        <ele>30</ele>
        <time>2026-06-01T09:22:17Z</time>
      </trkpt>
      <trkpt lat="48.85339" lon="2.22594">
        <ele>31</ele>
        <time>2026-06-01T09:22:27Z</time>
      </trkpt>
      <trkpt lat="48.85326" lon="2.22614">
        <ele>31</ele>
        <time>2026-06-01T09:22:31Z</time>
      </trkpt>
      <trkpt lat="48.8532" lon="2.22618">
        <ele>31</ele>
        <time>2026-06-01T09:22:32Z</time>
      </trkpt>
      <trkpt lat="48.8528" lon="2.22617">
        <ele>30</ele>
        <time>2026-06-01T09:22:42Z</time>
      </trkpt>
      <trkpt lat="48.85209" lon="2.22622">
        <ele>29</ele>
        <time>2026-06-01T09:22:58Z</time>
      </trkpt>
      <trkpt lat="48.85172" lon="2.22629">
        <ele>30</ele>
        <time>2026-06-01T09:23:07Z</time>
      </trkpt>
      <trkpt lat="48.84913" lon="2.22713">
        <ele>30</ele>
        <time>2026-06-01T09:24:09Z</time>
      </trkpt>
      <trkpt lat="48.84875" lon="2.2272">
        <ele>30</ele>
        <time>2026-06-01T09:24:18Z</time>
      </trkpt>
      <trkpt lat="48.84856" lon="2.22716">
        <ele>29</ele>
        <time>2026-06-01T09:24:22Z</time>
      </trkpt>
      <trkpt lat="48.84844" lon="2.22716">
        <ele>29</ele>
        <time>2026-06-01T09:24:25Z</time>
      </trkpt>
      <trkpt lat="48.84829" lon="2.22722">
        <ele>28</ele>
        <time>2026-06-01T09:24:29Z</time>
      </trkpt>
      <trkpt lat="48.84799" lon="2.22723">
        <ele>29</ele>
        <time>2026-06-01T09:24:36Z</time>
      </trkpt>
      <trkpt lat="48.84792" lon="2.22721">
        <ele>29</ele>
        <time>2026-06-01T09:24:37Z</time>
      </trkpt>
      <trkpt lat="48.84784" lon="2.22724">
        <ele>29</ele>
        <time>2026-06-01T09:24:39Z</time>
      </trkpt>
      <trkpt lat="48.84746" lon="2.22719">
        <ele>29</ele>
        <time>2026-06-01T09:24:48Z</time>
      </trkpt>
      <trkpt lat="48.84741" lon="2.22721">
        <ele>29</ele>
        <time>2026-06-01T09:24:49Z</time>
      </trkpt>
      <trkpt lat="48.8472" lon="2.22719">
        <ele>30</ele>
        <time>2026-06-01T09:24:54Z</time>
      </trkpt>
      <trkpt lat="48.84684" lon="2.2271">
        <ele>31</ele>
        <time>2026-06-01T09:25:03Z</time>
      </trkpt>
      <trkpt lat="48.84526" lon="2.22654">
        <ele>27</ele>
        <time>2026-06-01T09:25:41Z</time>
      </trkpt>
      <trkpt lat="48.84359" lon="2.22589">
        <ele>30</ele>
        <time>2026-06-01T09:26:21Z</time>
      </trkpt>
      <trkpt lat="48.84333" lon="2.22586">
        <ele>30</ele>
        <time>2026-06-01T09:26:27Z</time>
      </trkpt>
      <trkpt lat="48.8428" lon="2.22575">
        <ele>31</ele>
        <time>2026-06-01T09:26:40Z</time>
      </trkpt>
      <trkpt lat="48.84241" lon="2.22563">
        <ele>31</ele>
        <time>2026-06-01T09:26:49Z</time>
      </trkpt>
      <trkpt lat="48.84148" lon="2.22519">
        <ele>28</ele>
        <time>2026-06-01T09:27:12Z</time>
      </trkpt>
      <trkpt lat="48.8414" lon="2.22511">
        <ele>28</ele>
        <time>2026-06-01T09:27:14Z</time>
      </trkpt>
      <trkpt lat="48.8414" lon="2.22502">
        <ele>27</ele>
        <time>2026-06-01T09:27:15Z</time>
      </trkpt>
      <trkpt lat="48.84136" lon="2.22488">
        <ele>26</ele>
        <time>2026-06-01T09:27:18Z</time>
      </trkpt>
      <trkpt lat="48.84136" lon="2.22474">
        <ele>25</ele>
        <time>2026-06-01T09:27:20Z</time>
      </trkpt>
      <trkpt lat="48.84149" lon="2.22277">
        <ele>28</ele>
        <time>2026-06-01T09:27:50Z</time>
      </trkpt>
      <trkpt lat="48.84154" lon="2.22258">
        <ele>30</ele>
        <time>2026-06-01T09:27:53Z</time>
      </trkpt>
      <trkpt lat="48.84171" lon="2.22216">
        <ele>36</ele>
        <time>2026-06-01T09:28:01Z</time>
      </trkpt>
      <trkpt lat="48.84171" lon="2.22208">
        <ele>37</ele>
        <time>2026-06-01T09:28:02Z</time>
      </trkpt>
      <trkpt lat="48.84168" lon="2.22205">
        <ele>37</ele>
        <time>2026-06-01T09:28:03Z</time>
      </trkpt>
      <trkpt lat="48.84147" lon="2.22191">
        <ele>38</ele>
        <time>2026-06-01T09:28:08Z</time>
      </trkpt>
      <trkpt lat="48.84143" lon="2.22202">
        <ele>37</ele>
        <time>2026-06-01T09:28:10Z</time>
      </trkpt>
      <trkpt lat="48.84133" lon="2.22204">
        <ele>36</ele>
        <time>2026-06-01T09:28:13Z</time>
      </trkpt>
      <trkpt lat="48.84121" lon="2.22197">
        <ele>37</ele>
        <time>2026-06-01T09:28:16Z</time>
      </trkpt>
      <trkpt lat="48.84105" lon="2.22192">
        <ele>37</ele>
        <time>2026-06-01T09:28:19Z</time>
      </trkpt>
      <trkpt lat="48.84058" lon="2.22181">
        <ele>36</ele>
        <time>2026-06-01T09:28:31Z</time>
      </trkpt>
      <trkpt lat="48.84056" lon="2.22166">
        <ele>37</ele>
        <time>2026-06-01T09:28:33Z</time>
      </trkpt>
      <trkpt lat="48.84059" lon="2.22152">
        <ele>39</ele>
        <time>2026-06-01T09:28:35Z</time>
      </trkpt>
      <trkpt lat="48.84057" lon="2.22141">
        <ele>39</ele>
        <time>2026-06-01T09:28:37Z</time>
      </trkpt>
      <trkpt lat="48.84035" lon="2.2214">
        <ele>38</ele>
        <time>2026-06-01T09:28:42Z</time>
      </trkpt>
      <trkpt lat="48.84014" lon="2.22132">
        <ele>38</ele>
        <time>2026-06-01T09:28:47Z</time>
      </trkpt>
      <trkpt lat="48.83988" lon="2.22127">
        <ele>37</ele>
        <time>2026-06-01T09:28:53Z</time>
      </trkpt>
      <trkpt lat="48.83946" lon="2.22113">
        <ele>36</ele>
        <time>2026-06-01T09:29:03Z</time>
      </trkpt>
      <trkpt lat="48.83894" lon="2.22102">
        <ele>34</ele>
        <time>2026-06-01T09:29:16Z</time>
      </trkpt>
      <trkpt lat="48.83783" lon="2.22071">
        <ele>32</ele>
        <time>2026-06-01T09:29:42Z</time>
      </trkpt>
      <trkpt lat="48.83729" lon="2.2206">
        <ele>30</ele>
        <time>2026-06-01T09:29:55Z</time>
      </trkpt>
      <trkpt lat="48.83703" lon="2.22051">
        <ele>30</ele>
        <time>2026-06-01T09:30:01Z</time>
      </trkpt>
      <trkpt lat="48.83679" lon="2.22052">
        <ele>30</ele>
        <time>2026-06-01T09:30:06Z</time>
      </trkpt>
      <trkpt lat="48.83658" lon="2.22056">
        <ele>30</ele>
        <time>2026-06-01T09:30:11Z</time>
      </trkpt>
      <trkpt lat="48.83646" lon="2.22054">
        <ele>30</ele>
        <time>2026-06-01T09:30:14Z</time>
      </trkpt>
      <trkpt lat="48.83608" lon="2.22023">
        <ele>32</ele>
        <time>2026-06-01T09:30:24Z</time>
      </trkpt>
      <trkpt lat="48.83583" lon="2.2201">
        <ele>34</ele>
        <time>2026-06-01T09:30:30Z</time>
      </trkpt>
      <trkpt lat="48.83576" lon="2.22003">
        <ele>34</ele>
        <time>2026-06-01T09:30:32Z</time>
      </trkpt>
      <trkpt lat="48.83572" lon="2.21993">
        <ele>34</ele>
        <time>2026-06-01T09:30:34Z</time>
      </trkpt>
      <trkpt lat="48.83571" lon="2.21972">
        <ele>36</ele>
        <time>2026-06-01T09:30:37Z</time>
      </trkpt>
      <trkpt lat="48.83574" lon="2.2195">
        <ele>38</ele>
        <time>2026-06-01T09:30:41Z</time>
      </trkpt>
      <trkpt lat="48.83586" lon="2.21899">
        <ele>43</ele>
        <time>2026-06-01T09:30:49Z</time>
      </trkpt>
      <trkpt lat="48.83592" lon="2.21862">
        <ele>47</ele>
        <time>2026-06-01T09:30:55Z</time>
      </trkpt>
      <trkpt lat="48.83591" lon="2.21854">
        <ele>48</ele>
        <time>2026-06-01T09:30:56Z</time>
      </trkpt>
      <trkpt lat="48.83585" lon="2.21846">
        <ele>49</ele>
        <time>2026-06-01T09:30:58Z</time>
      </trkpt>
      <trkpt lat="48.8356" lon="2.21856">
        <ele>50</ele>
        <time>2026-06-01T09:31:04Z</time>
      </trkpt>
      <trkpt lat="48.83525" lon="2.21878">
        <ele>49</ele>
        <time>2026-06-01T09:31:13Z</time>
      </trkpt>
      <trkpt lat="48.83479" lon="2.21899">
        <ele>49</ele>
        <time>2026-06-01T09:31:24Z</time>
      </trkpt>
      <trkpt lat="48.83457" lon="2.21914">
        <ele>48</ele>
        <time>2026-06-01T09:31:30Z</time>
      </trkpt>
      <trkpt lat="48.83445" lon="2.21917">
        <ele>49</ele>
        <time>2026-06-01T09:31:33Z</time>
      </trkpt>
      <trkpt lat="48.83439" lon="2.21913">
        <ele>50</ele>
        <time>2026-06-01T09:31:34Z</time>
      </trkpt>
      <trkpt lat="48.83438" lon="2.21907">
        <ele>51</ele>
        <time>2026-06-01T09:31:35Z</time>
      </trkpt>
      <trkpt lat="48.8347" lon="2.21882">
        <ele>52</ele>
        <time>2026-06-01T09:31:44Z</time>
      </trkpt>
      <trkpt lat="48.83501" lon="2.21849">
        <ele>55</ele>
        <time>2026-06-01T09:31:52Z</time>
      </trkpt>
      <trkpt lat="48.83511" lon="2.21807">
        <ele>60</ele>
        <time>2026-06-01T09:31:59Z</time>
      </trkpt>
      <trkpt lat="48.83547" lon="2.21683">
        <ele>67</ele>
        <time>2026-06-01T09:32:20Z</time>
      </trkpt>
      <trkpt lat="48.83571" lon="2.21614">
        <ele>72</ele>
        <time>2026-06-01T09:32:32Z</time>
      </trkpt>
      <trkpt lat="48.83605" lon="2.21496">
        <ele>77</ele>
        <time>2026-06-01T09:32:52Z</time>
      </trkpt>
      <trkpt lat="48.83608" lon="2.21476">
        <ele>78</ele>
        <time>2026-06-01T09:32:55Z</time>
      </trkpt>
      <trkpt lat="48.83607" lon="2.21448">
        <ele>80</ele>
        <time>2026-06-01T09:32:59Z</time>
      </trkpt>
      <trkpt lat="48.83618" lon="2.21388">
        <ele>82</ele>
        <time>2026-06-01T09:33:09Z</time>
      </trkpt>
      <trkpt lat="48.83624" lon="2.21378">
        <ele>82</ele>
        <time>2026-06-01T09:33:11Z</time>
      </trkpt>
      <trkpt lat="48.83643" lon="2.21366">
        <ele>81</ele>
        <time>2026-06-01T09:33:16Z</time>
      </trkpt>
      <trkpt lat="48.83654" lon="2.21337">
        <ele>81</ele>
        <time>2026-06-01T09:33:21Z</time>
      </trkpt>
      <trkpt lat="48.83664" lon="2.21322">
        <ele>81</ele>
        <time>2026-06-01T09:33:24Z</time>
      </trkpt>
      <trkpt lat="48.83674" lon="2.21314">
        <ele>81</ele>
        <time>2026-06-01T09:33:27Z</time>
      </trkpt>
      <trkpt lat="48.83679" lon="2.21306">
        <ele>81</ele>
        <time>2026-06-01T09:33:29Z</time>
      </trkpt>
      <trkpt lat="48.83683" lon="2.21299">
        <ele>82</ele>
        <time>2026-06-01T09:33:30Z</time>
      </trkpt>
      <trkpt lat="48.83685" lon="2.21286">
        <ele>82</ele>
        <time>2026-06-01T09:33:32Z</time>
      </trkpt>
      <trkpt lat="48.83688" lon="2.21285">
        <ele>82</ele>
        <time>2026-06-01T09:33:33Z</time>
      </trkpt>
      <trkpt lat="48.83689" lon="2.21287">
        <ele>82</ele>
        <time>2026-06-01T09:33:33Z</time>
      </trkpt>
      <trkpt lat="48.83686" lon="2.21297">
        <ele>82</ele>
        <time>2026-06-01T09:33:35Z</time>
      </trkpt>
      <trkpt lat="48.83677" lon="2.21307">
        <ele>81</ele>
        <time>2026-06-01T09:33:38Z</time>
      </trkpt>
      <trkpt lat="48.8367" lon="2.21307">
        <ele>82</ele>
        <time>2026-06-01T09:33:39Z</time>
      </trkpt>
      <trkpt lat="48.83657" lon="2.21292">
        <ele>83</ele>
        <time>2026-06-01T09:33:43Z</time>
      </trkpt>
      <trkpt lat="48.83662" lon="2.2128">
        <ele>84</ele>
        <time>2026-06-01T09:33:45Z</time>
      </trkpt>
      <trkpt lat="48.83662" lon="2.21278">
        <ele>84</ele>
        <time>2026-06-01T09:33:45Z</time>
      </trkpt>
      <trkpt lat="48.83659" lon="2.21278">
        <ele>84</ele>
        <time>2026-06-01T09:33:46Z</time>
      </trkpt>
      <trkpt lat="48.83652" lon="2.21294">
        <ele>84</ele>
        <time>2026-06-01T09:33:49Z</time>
      </trkpt>
      <trkpt lat="48.83637" lon="2.21311">
        <ele>84</ele>
        <time>2026-06-01T09:33:53Z</time>
      </trkpt>
      <trkpt lat="48.83541" lon="2.21441">
        <ele>87</ele>
        <time>2026-06-01T09:34:24Z</time>
      </trkpt>
      <trkpt lat="48.83539" lon="2.21451">
        <ele>87</ele>
        <time>2026-06-01T09:34:25Z</time>
      </trkpt>
      <trkpt lat="48.83543" lon="2.21454">
        <ele>86</ele>
        <time>2026-06-01T09:34:26Z</time>
      </trkpt>
      <trkpt lat="48.83584" lon="2.21454">
        <ele>82</ele>
        <time>2026-06-01T09:34:36Z</time>
      </trkpt>
      <trkpt lat="48.83593" lon="2.21463">
        <ele>80</ele>
        <time>2026-06-01T09:34:38Z</time>
      </trkpt>
      <trkpt lat="48.83594" lon="2.21476">
        <ele>80</ele>
        <time>2026-06-01T09:34:40Z</time>
      </trkpt>
      <trkpt lat="48.83543" lon="2.21546">
        <ele>81</ele>
        <time>2026-06-01T09:34:56Z</time>
      </trkpt>
      <trkpt lat="48.83533" lon="2.21552">
        <ele>81</ele>
        <time>2026-06-01T09:34:59Z</time>
      </trkpt>
      <trkpt lat="48.83523" lon="2.21549">
        <ele>82</ele>
        <time>2026-06-01T09:35:01Z</time>
      </trkpt>
      <trkpt lat="48.83516" lon="2.21469">
        <ele>88</ele>
        <time>2026-06-01T09:35:14Z</time>
      </trkpt>
      <trkpt lat="48.83519" lon="2.21461">
        <ele>88</ele>
        <time>2026-06-01T09:35:15Z</time>
      </trkpt>
      <trkpt lat="48.83534" lon="2.21435">
        <ele>88</ele>
        <time>2026-06-01T09:35:20Z</time>
      </trkpt>
      <trkpt lat="48.83597" lon="2.2135">
        <ele>87</ele>
        <time>2026-06-01T09:35:40Z</time>
      </trkpt>
      <trkpt lat="48.83618" lon="2.21318">
        <ele>86</ele>
        <time>2026-06-01T09:35:47Z</time>
      </trkpt>
      <trkpt lat="48.83673" lon="2.21247">
        <ele>85</ele>
        <time>2026-06-01T09:36:04Z</time>
      </trkpt>
      <trkpt lat="48.83679" lon="2.21231">
        <ele>85</ele>
        <time>2026-06-01T09:36:07Z</time>
      </trkpt>
      <trkpt lat="48.83677" lon="2.21164">
        <ele>86</ele>
        <time>2026-06-01T09:36:17Z</time>
      </trkpt>
      <trkpt lat="48.8368" lon="2.21142">
        <ele>86</ele>
        <time>2026-06-01T09:36:20Z</time>
      </trkpt>
      <trkpt lat="48.83697" lon="2.21084">
        <ele>87</ele>
        <time>2026-06-01T09:36:30Z</time>
      </trkpt>
      <trkpt lat="48.83703" lon="2.2108">
        <ele>87</ele>
        <time>2026-06-01T09:36:32Z</time>
      </trkpt>
      <trkpt lat="48.83712" lon="2.2108">
        <ele>87</ele>
        <time>2026-06-01T09:36:34Z</time>
      </trkpt>
      <trkpt lat="48.83718" lon="2.21052">
        <ele>87</ele>
        <time>2026-06-01T09:36:38Z</time>
      </trkpt>
      <trkpt lat="48.83704" lon="2.20806">
        <ele>97</ele>
        <time>2026-06-01T09:37:16Z</time>
      </trkpt>
      <trkpt lat="48.83707" lon="2.20802">
        <ele>97</ele>
        <time>2026-06-01T09:37:17Z</time>
      </trkpt>
      <trkpt lat="48.83723" lon="2.20799">
        <ele>97</ele>
        <time>2026-06-01T09:37:21Z</time>
      </trkpt>
      <trkpt lat="48.83732" lon="2.20789">
        <ele>97</ele>
        <time>2026-06-01T09:37:24Z</time>
      </trkpt>
      <trkpt lat="48.83742" lon="2.20764">
        <ele>97</ele>
        <time>2026-06-01T09:37:28Z</time>
      </trkpt>
      <trkpt lat="48.83744" lon="2.2075">
        <ele>97</ele>
        <time>2026-06-01T09:37:30Z</time>
      </trkpt>
      <trkpt lat="48.83741" lon="2.20719">
        <ele>97</ele>
        <time>2026-06-01T09:37:35Z</time>
      </trkpt>
      <trkpt lat="48.83729" lon="2.20688">
        <ele>96</ele>
        <time>2026-06-01T09:37:41Z</time>
      </trkpt>
      <trkpt lat="48.83723" lon="2.20662">
        <ele>96</ele>
        <time>2026-06-01T09:37:45Z</time>
      </trkpt>
      <trkpt lat="48.83711" lon="2.20488">
        <ele>98</ele>
        <time>2026-06-01T09:38:12Z</time>
      </trkpt>
      <trkpt lat="48.83704" lon="2.20452">
        <ele>98</ele>
        <time>2026-06-01T09:38:18Z</time>
      </trkpt>
      <trkpt lat="48.83697" lon="2.20377">
        <ele>98</ele>
        <time>2026-06-01T09:38:29Z</time>
      </trkpt>
      <trkpt lat="48.83694" lon="2.2038">
        <ele>99</ele>
        <time>2026-06-01T09:38:30Z</time>
      </trkpt>
      <trkpt lat="48.83701" lon="2.20451">
        <ele>98</ele>
        <time>2026-06-01T09:38:41Z</time>
      </trkpt>
      <trkpt lat="48.83698" lon="2.20461">
        <ele>99</ele>
        <time>2026-06-01T09:38:43Z</time>
      </trkpt>
      <trkpt lat="48.83681" lon="2.20445">
        <ele>100</ele>
        <time>2026-06-01T09:38:47Z</time>
      </trkpt>
      <trkpt lat="48.83679" lon="2.20437">
        <ele>100</ele>
        <time>2026-06-01T09:38:49Z</time>
      </trkpt>
      <trkpt lat="48.83662" lon="2.20218">
        <ele>101</ele>
        <time>2026-06-01T09:39:23Z</time>
      </trkpt>
      <trkpt lat="48.83657" lon="2.20085">
        <ele>102</ele>
        <time>2026-06-01T09:39:43Z</time>
      </trkpt>
      <trkpt lat="48.83641" lon="2.19893">
        <ele>106</ele>
        <time>2026-06-01T09:40:13Z</time>
      </trkpt>
      <trkpt lat="48.83641" lon="2.19855">
        <ele>107</ele>
        <time>2026-06-01T09:40:19Z</time>
      </trkpt>
      <trkpt lat="48.83606" lon="2.19423">
        <ele>118</ele>
        <time>2026-06-01T09:41:26Z</time>
      </trkpt>
      <trkpt lat="48.83591" lon="2.19156">
        <ele>126</ele>
        <time>2026-06-01T09:42:07Z</time>
      </trkpt>
      <trkpt lat="48.83585" lon="2.19128">
        <ele>126</ele>
        <time>2026-06-01T09:42:11Z</time>
      </trkpt>
      <trkpt lat="48.83582" lon="2.19049">
        <ele>127</ele>
        <time>2026-06-01T09:42:23Z</time>
      </trkpt>
      <trkpt lat="48.8357" lon="2.18898">
        <ele>129</ele>
        <time>2026-06-01T09:42:47Z</time>
      </trkpt>
      <trkpt lat="48.83564" lon="2.18894">
        <ele>129</ele>
        <time>2026-06-01T09:42:48Z</time>
      </trkpt>
      <trkpt lat="48.83557" lon="2.18791">
        <ele>127</ele>
        <time>2026-06-01T09:43:04Z</time>
      </trkpt>
      <trkpt lat="48.8354" lon="2.18751">
        <ele>125</ele>
        <time>2026-06-01T09:43:12Z</time>
      </trkpt>
      <trkpt lat="48.83519" lon="2.18723">
        <ele>125</ele>
        <time>2026-06-01T09:43:18Z</time>
      </trkpt>
      <trkpt lat="48.83492" lon="2.18706">
        <ele>126</ele>
        <time>2026-06-01T09:43:25Z</time>
      </trkpt>
      <trkpt lat="48.83467" lon="2.18681">
        <ele>126</ele>
        <time>2026-06-01T09:43:32Z</time>
      </trkpt>
      <trkpt lat="48.83447" lon="2.18656">
        <ele>127</ele>
        <time>2026-06-01T09:43:38Z</time>
      </trkpt>
      <trkpt lat="48.83418" lon="2.18601">
        <ele>129</ele>
        <time>2026-06-01T09:43:49Z</time>
      </trkpt>
      <trkpt lat="48.83401" lon="2.18547">
        <ele>129</ele>
        <time>2026-06-01T09:43:58Z</time>
      </trkpt>
      <trkpt lat="48.83377" lon="2.18407">
        <ele>129</ele>
        <time>2026-06-01T09:44:20Z</time>
      </trkpt>
      <trkpt lat="48.83349" lon="2.18297">
        <ele>135</ele>
        <time>2026-06-01T09:44:38Z</time>
      </trkpt>
      <trkpt lat="48.83332" lon="2.18267">
        <ele>138</ele>
        <time>2026-06-01T09:44:45Z</time>
      </trkpt>
      <trkpt lat="48.83305" lon="2.18227">
        <ele>140</ele>
        <time>2026-06-01T09:44:53Z</time>
      </trkpt>
      <trkpt lat="48.83266" lon="2.18179">
        <ele>140</ele>
        <time>2026-06-01T09:45:05Z</time>
      </trkpt>
      <trkpt lat="48.8321" lon="2.18117">
        <ele>146</ele>
        <time>2026-06-01T09:45:21Z</time>
      </trkpt>
      <trkpt lat="48.83195" lon="2.18096">
        <ele>147</ele>
        <time>2026-06-01T09:45:26Z</time>
      </trkpt>
      <trkpt lat="48.83165" lon="2.18038">
        <ele>150</ele>
        <time>2026-06-01T09:45:37Z</time>
      </trkpt>
      <trkpt lat="48.83147" lon="2.17986">
        <ele>148</ele>
        <time>2026-06-01T09:45:46Z</time>
      </trkpt>
      <trkpt lat="48.83137" lon="2.17968">
        <ele>147</ele>
        <time>2026-06-01T09:45:50Z</time>
      </trkpt>
      <trkpt lat="48.83093" lon="2.17858">
        <ele>141</ele>
        <time>2026-06-01T09:46:10Z</time>
      </trkpt>
      <trkpt lat="48.83064" lon="2.17794">
        <ele>140</ele>
        <time>2026-06-01T09:46:22Z</time>
      </trkpt>
      <trkpt lat="48.83059" lon="2.17773">
        <ele>140</ele>
        <time>2026-06-01T09:46:25Z</time>
      </trkpt>
      <trkpt lat="48.83043" lon="2.17752">
        <ele>140</ele>
        <time>2026-06-01T09:46:30Z</time>
      </trkpt>
      <trkpt lat="48.8302" lon="2.17696">
        <ele>141</ele>
        <time>2026-06-01T09:46:40Z</time>
      </trkpt>
      <trkpt lat="48.83015" lon="2.17678">
        <ele>141</ele>
        <time>2026-06-01T09:46:43Z</time>
      </trkpt>
      <trkpt lat="48.83014" lon="2.17648">
        <ele>142</ele>
        <time>2026-06-01T09:46:48Z</time>
      </trkpt>
      <trkpt lat="48.83012" lon="2.17493">
        <ele>142</ele>
        <time>2026-06-01T09:47:12Z</time>
      </trkpt>
      <trkpt lat="48.83009" lon="2.17464">
        <ele>143</ele>
        <time>2026-06-01T09:47:16Z</time>
      </trkpt>
      <trkpt lat="48.83013" lon="2.17454">
        <ele>143</ele>
        <time>2026-06-01T09:47:18Z</time>
      </trkpt>
      <trkpt lat="48.83006" lon="2.17451">
        <ele>143</ele>
        <time>2026-06-01T09:47:20Z</time>
      </trkpt>
      <trkpt lat="48.82997" lon="2.17437">
        <ele>144</ele>
        <time>2026-06-01T09:47:23Z</time>
      </trkpt>
      <trkpt lat="48.82983" lon="2.17433">
        <ele>145</ele>
        <time>2026-06-01T09:47:26Z</time>
      </trkpt>
      <trkpt lat="48.82968" lon="2.17438">
        <ele>147</ele>
        <time>2026-06-01T09:47:30Z</time>
      </trkpt>
      <trkpt lat="48.82796" lon="2.17506">
        <ele>161</ele>
        <time>2026-06-01T09:48:11Z</time>
      </trkpt>
      <trkpt lat="48.82776" lon="2.1751">
        <ele>163</ele>
        <time>2026-06-01T09:48:16Z</time>
      </trkpt>
      <trkpt lat="48.82767" lon="2.17521">
        <ele>164</ele>
        <time>2026-06-01T09:48:19Z</time>
      </trkpt>
      <trkpt lat="48.82748" lon="2.17524">
        <ele>165</ele>
        <time>2026-06-01T09:48:23Z</time>
      </trkpt>
      <trkpt lat="48.82731" lon="2.17532">
        <ele>164</ele>
        <time>2026-06-01T09:48:27Z</time>
      </trkpt>
      <trkpt lat="48.82721" lon="2.17529">
        <ele>163</ele>
        <time>2026-06-01T09:48:30Z</time>
      </trkpt>
      <trkpt lat="48.82707" lon="2.17534">
        <ele>162</ele>
        <time>2026-06-01T09:48:33Z</time>
      </trkpt>
      <trkpt lat="48.82698" lon="2.17534">
        <ele>161</ele>
        <time>2026-06-01T09:48:35Z</time>
      </trkpt>
      <trkpt lat="48.82691" lon="2.17541">
        <ele>160</ele>
        <time>2026-06-01T09:48:37Z</time>
      </trkpt>
      <trkpt lat="48.82686" lon="2.17542">
        <ele>159</ele>
        <time>2026-06-01T09:48:38Z</time>
      </trkpt>
      <trkpt lat="48.82656" lon="2.17515">
        <ele>161</ele>
        <time>2026-06-01T09:48:46Z</time>
      </trkpt>
      <trkpt lat="48.82654" lon="2.17516">
        <ele>161</ele>
        <time>2026-06-01T09:48:47Z</time>
      </trkpt>
      <trkpt lat="48.8264" lon="2.17545">
        <ele>159</ele>
        <time>2026-06-01T09:48:52Z</time>
      </trkpt>
      <trkpt lat="48.82637" lon="2.17548">
        <ele>158</ele>
        <time>2026-06-01T09:48:53Z</time>
      </trkpt>
      <trkpt lat="48.82627" lon="2.17548">
        <ele>159</ele>
        <time>2026-06-01T09:48:55Z</time>
      </trkpt>
      <trkpt lat="48.82483" lon="2.17739">
        <ele>166</ele>
        <time>2026-06-01T09:49:40Z</time>
      </trkpt>
      <trkpt lat="48.82422" lon="2.178">
        <ele>164</ele>
        <time>2026-06-01T09:49:57Z</time>
      </trkpt>
      <trkpt lat="48.82389" lon="2.17827">
        <ele>164</ele>
        <time>2026-06-01T09:50:06Z</time>
      </trkpt>
      <trkpt lat="48.82301" lon="2.17913">
        <ele>161</ele>
        <time>2026-06-01T09:50:30Z</time>
      </trkpt>
      <trkpt lat="48.8228" lon="2.17929">
        <ele>159</ele>
        <time>2026-06-01T09:50:36Z</time>
      </trkpt>
      <trkpt lat="48.82272" lon="2.17938">
        <ele>159</ele>
        <time>2026-06-01T09:50:38Z</time>
      </trkpt>
      <trkpt lat="48.82264" lon="2.17955">
        <ele>158</ele>
        <time>2026-06-01T09:50:41Z</time>
      </trkpt>
      <trkpt lat="48.82248" lon="2.17979">
        <ele>156</ele>
        <time>2026-06-01T09:50:47Z</time>
      </trkpt>
      <trkpt lat="48.82234" lon="2.18011">
        <ele>153</ele>
        <time>2026-06-01T09:50:53Z</time>
      </trkpt>
      <trkpt lat="48.82221" lon="2.18034">
        <ele>149</ele>
        <time>2026-06-01T09:50:57Z</time>
      </trkpt>
      <trkpt lat="48.82205" lon="2.18137">
        <ele>139</ele>
        <time>2026-06-01T09:51:13Z</time>
      </trkpt>
      <trkpt lat="48.82201" lon="2.18175">
        <ele>135</ele>
        <time>2026-06-01T09:51:19Z</time>
      </trkpt>
      <trkpt lat="48.82202" lon="2.1819">
        <ele>134</ele>
        <time>2026-06-01T09:51:22Z</time>
      </trkpt>
      <trkpt lat="48.82192" lon="2.18213">
        <ele>131</ele>
        <time>2026-06-01T09:51:26Z</time>
      </trkpt>
      <trkpt lat="48.82186" lon="2.18207">
        <ele>130</ele>
        <time>2026-06-01T09:51:28Z</time>
      </trkpt>
      <trkpt lat="48.82185" lon="2.18191">
        <ele>131</ele>
        <time>2026-06-01T09:51:30Z</time>
      </trkpt>
      <trkpt lat="48.82157" lon="2.18064">
        <ele>133</ele>
        <time>2026-06-01T09:51:51Z</time>
      </trkpt>
      <trkpt lat="48.82149" lon="2.18063">
        <ele>132</ele>
        <time>2026-06-01T09:51:53Z</time>
      </trkpt>
      <trkpt lat="48.82115" lon="2.18042">
        <ele>127</ele>
        <time>2026-06-01T09:52:01Z</time>
      </trkpt>
      <trkpt lat="48.821" lon="2.1804">
        <ele>125</ele>
        <time>2026-06-01T09:52:05Z</time>
      </trkpt>
      <trkpt lat="48.82091" lon="2.18042">
        <ele>123</ele>
        <time>2026-06-01T09:52:07Z</time>
      </trkpt>
      <trkpt lat="48.8208" lon="2.18036">
        <ele>122</ele>
        <time>2026-06-01T09:52:09Z</time>
      </trkpt>
      <trkpt lat="48.82056" lon="2.18045">
        <ele>121</ele>
        <time>2026-06-01T09:52:15Z</time>
      </trkpt>
      <trkpt lat="48.81998" lon="2.18048">
        <ele>121</ele>
        <time>2026-06-01T09:52:29Z</time>
      </trkpt>
      <trkpt lat="48.8198" lon="2.18052">
        <ele>124</ele>
        <time>2026-06-01T09:52:33Z</time>
      </trkpt>
      <trkpt lat="48.81974" lon="2.18056">
        <ele>125</ele>
        <time>2026-06-01T09:52:35Z</time>
      </trkpt>
      <trkpt lat="48.8197" lon="2.18066">
        <ele>126</ele>
        <time>2026-06-01T09:52:36Z</time>
      </trkpt>
      <trkpt lat="48.8197" lon="2.18076">
        <ele>126</ele>
        <time>2026-06-01T09:52:38Z</time>
      </trkpt>
      <trkpt lat="48.81979" lon="2.18092">
        <ele>126</ele>
        <time>2026-06-01T09:52:41Z</time>
      </trkpt>
      <trkpt lat="48.81998" lon="2.18147">
        <ele>125</ele>
        <time>2026-06-01T09:52:51Z</time>
      </trkpt>
      <trkpt lat="48.82017" lon="2.18213">
        <ele>125</ele>
        <time>2026-06-01T09:53:02Z</time>
      </trkpt>
      <trkpt lat="48.82019" lon="2.18268">
        <ele>125</ele>
        <time>2026-06-01T09:53:10Z</time>
      </trkpt>
      <trkpt lat="48.82007" lon="2.18333">
        <ele>128</ele>
        <time>2026-06-01T09:53:21Z</time>
      </trkpt>
      <trkpt lat="48.82005" lon="2.18362">
        <ele>129</ele>
        <time>2026-06-01T09:53:25Z</time>
      </trkpt>
      <trkpt lat="48.8201" lon="2.18383">
        <ele>128</ele>
        <time>2026-06-01T09:53:29Z</time>
      </trkpt>
      <trkpt lat="48.82025" lon="2.18421">
        <ele>128</ele>
        <time>2026-06-01T09:53:35Z</time>
      </trkpt>
      <trkpt lat="48.8204" lon="2.18451">
        <ele>127</ele>
        <time>2026-06-01T09:53:41Z</time>
      </trkpt>
      <trkpt lat="48.82041" lon="2.18461">
        <ele>127</ele>
        <time>2026-06-01T09:53:43Z</time>
      </trkpt>
      <trkpt lat="48.82037" lon="2.18476">
        <ele>127</ele>
        <time>2026-06-01T09:53:45Z</time>
      </trkpt>
      <trkpt lat="48.8203" lon="2.18493">
        <ele>128</ele>
        <time>2026-06-01T09:53:48Z</time>
      </trkpt>
      <trkpt lat="48.82025" lon="2.18497">
        <ele>129</ele>
        <time>2026-06-01T09:53:50Z</time>
      </trkpt>
      <trkpt lat="48.82007" lon="2.18503">
        <ele>131</ele>
        <time>2026-06-01T09:53:54Z</time>
      </trkpt>
      <trkpt lat="48.81871" lon="2.18567">
        <ele>150</ele>
        <time>2026-06-01T09:54:27Z</time>
      </trkpt>
      <trkpt lat="48.81852" lon="2.1857">
        <ele>152</ele>
        <time>2026-06-01T09:54:32Z</time>
      </trkpt>
      <trkpt lat="48.81834" lon="2.18576">
        <ele>154</ele>
        <time>2026-06-01T09:54:36Z</time>
      </trkpt>
      <trkpt lat="48.81803" lon="2.18593">
        <ele>156</ele>
        <time>2026-06-01T09:54:44Z</time>
      </trkpt>
      <trkpt lat="48.81781" lon="2.18601">
        <ele>157</ele>
        <time>2026-06-01T09:54:49Z</time>
      </trkpt>
      <trkpt lat="48.81767" lon="2.18601">
        <ele>158</ele>
        <time>2026-06-01T09:54:52Z</time>
      </trkpt>
      <trkpt lat="48.81727" lon="2.18591">
        <ele>158</ele>
        <time>2026-06-01T09:55:02Z</time>
      </trkpt>
      <trkpt lat="48.81703" lon="2.18576">
        <ele>158</ele>
        <time>2026-06-01T09:55:08Z</time>
      </trkpt>
      <trkpt lat="48.81696" lon="2.18569">
        <ele>158</ele>
        <time>2026-06-01T09:55:10Z</time>
      </trkpt>
      <trkpt lat="48.81692" lon="2.18542">
        <ele>159</ele>
        <time>2026-06-01T09:55:14Z</time>
      </trkpt>
      <trkpt lat="48.81682" lon="2.18517">
        <ele>160</ele>
        <time>2026-06-01T09:55:18Z</time>
      </trkpt>
      <trkpt lat="48.8168" lon="2.18506">
        <ele>161</ele>
        <time>2026-06-01T09:55:20Z</time>
      </trkpt>
      <trkpt lat="48.81671" lon="2.18495">
        <ele>161</ele>
        <time>2026-06-01T09:55:23Z</time>
      </trkpt>
      <trkpt lat="48.81663" lon="2.18479">
        <ele>161</ele>
        <time>2026-06-01T09:55:26Z</time>
      </trkpt>
      <trkpt lat="48.81654" lon="2.18478">
        <ele>161</ele>
        <time>2026-06-01T09:55:28Z</time>
      </trkpt>
      <trkpt lat="48.81649" lon="2.18465">
        <ele>161</ele>
        <time>2026-06-01T09:55:30Z</time>
      </trkpt>
      <trkpt lat="48.81636" lon="2.18447">
        <ele>161</ele>
        <time>2026-06-01T09:55:34Z</time>
      </trkpt>
      <trkpt lat="48.81626" lon="2.18412">
        <ele>162</ele>
        <time>2026-06-01T09:55:40Z</time>
      </trkpt>
      <trkpt lat="48.81609" lon="2.18389">
        <ele>163</ele>
        <time>2026-06-01T09:55:46Z</time>
      </trkpt>
      <trkpt lat="48.81587" lon="2.18343">
        <ele>165</ele>
        <time>2026-06-01T09:55:54Z</time>
      </trkpt>
      <trkpt lat="48.81577" lon="2.1833">
        <ele>165</ele>
        <time>2026-06-01T09:55:57Z</time>
      </trkpt>
      <trkpt lat="48.81574" lon="2.18308">
        <ele>166</ele>
        <time>2026-06-01T09:56:01Z</time>
      </trkpt>
      <trkpt lat="48.81567" lon="2.18289">
        <ele>166</ele>
        <time>2026-06-01T09:56:04Z</time>
      </trkpt>
      <trkpt lat="48.81545" lon="2.18269">
        <ele>164</ele>
        <time>2026-06-01T09:56:10Z</time>
      </trkpt>
      <trkpt lat="48.81532" lon="2.18241">
        <ele>165</ele>
        <time>2026-06-01T09:56:16Z</time>
      </trkpt>
      <trkpt lat="48.81518" lon="2.18229">
        <ele>164</ele>
        <time>2026-06-01T09:56:19Z</time>
      </trkpt>
      <trkpt lat="48.81498" lon="2.18197">
        <ele>165</ele>
        <time>2026-06-01T09:56:26Z</time>
      </trkpt>
      <trkpt lat="48.81495" lon="2.18171">
        <ele>167</ele>
        <time>2026-06-01T09:56:30Z</time>
      </trkpt>
      <trkpt lat="48.81489" lon="2.18159">
        <ele>166</ele>
        <time>2026-06-01T09:56:32Z</time>
      </trkpt>
      <trkpt lat="48.81479" lon="2.18121">
        <ele>164</ele>
        <time>2026-06-01T09:56:39Z</time>
      </trkpt>
      <trkpt lat="48.81476" lon="2.18115">
        <ele>164</ele>
        <time>2026-06-01T09:56:40Z</time>
      </trkpt>
      <trkpt lat="48.81468" lon="2.18109">
        <ele>162</ele>
        <time>2026-06-01T09:56:42Z</time>
      </trkpt>
      <trkpt lat="48.81466" lon="2.18102">
        <ele>162</ele>
        <time>2026-06-01T09:56:43Z</time>
      </trkpt>
      <trkpt lat="48.81471" lon="2.18077">
        <ele>163</ele>
        <time>2026-06-01T09:56:47Z</time>
      </trkpt>
      <trkpt lat="48.81483" lon="2.17979">
        <ele>161</ele>
        <time>2026-06-01T09:57:03Z</time>
      </trkpt>
      <trkpt lat="48.81483" lon="2.17945">
        <ele>160</ele>
        <time>2026-06-01T09:57:08Z</time>
      </trkpt>
      <trkpt lat="48.81489" lon="2.17883">
        <ele>161</ele>
        <time>2026-06-01T09:57:17Z</time>
      </trkpt>
      <trkpt lat="48.81481" lon="2.17855">
        <ele>160</ele>
        <time>2026-06-01T09:57:22Z</time>
      </trkpt>
      <trkpt lat="48.81459" lon="2.17812">
        <ele>161</ele>
        <time>2026-06-01T09:57:30Z</time>
      </trkpt>
      <trkpt lat="48.81408" lon="2.17686">
        <ele>162</ele>
        <time>2026-06-01T09:57:53Z</time>
      </trkpt>
      <trkpt lat="48.81336" lon="2.17643">
        <ele>166</ele>
        <time>2026-06-01T09:58:11Z</time>
      </trkpt>
      <trkpt lat="48.81315" lon="2.17633">
        <ele>166</ele>
        <time>2026-06-01T09:58:16Z</time>
      </trkpt>
      <trkpt lat="48.81303" lon="2.17623">
        <ele>167</ele>
        <time>2026-06-01T09:58:20Z</time>
      </trkpt>
      <trkpt lat="48.81293" lon="2.17608">
        <ele>168</ele>
        <time>2026-06-01T09:58:23Z</time>
      </trkpt>
      <trkpt lat="48.8128" lon="2.17596">
        <ele>170</ele>
        <time>2026-06-01T09:58:26Z</time>
      </trkpt>
      <trkpt lat="48.81263" lon="2.17593">
        <ele>170</ele>
        <time>2026-06-01T09:58:30Z</time>
      </trkpt>
      <trkpt lat="48.8124" lon="2.17595">
        <ele>170</ele>
        <time>2026-06-01T09:58:36Z</time>
      </trkpt>
      <trkpt lat="48.81213" lon="2.17593">
        <ele>171</ele>
        <time>2026-06-01T09:58:42Z</time>
      </trkpt>
      <trkpt lat="48.81198" lon="2.17598">
        <ele>172</ele>
        <time>2026-06-01T09:58:46Z</time>
      </trkpt>
      <trkpt lat="48.81189" lon="2.17606">
        <ele>172</ele>
        <time>2026-06-01T09:58:48Z</time>
      </trkpt>
      <trkpt lat="48.8118" lon="2.17635">
        <ele>172</ele>
        <time>2026-06-01T09:58:53Z</time>
      </trkpt>
      <trkpt lat="48.8117" lon="2.17655">
        <ele>173</ele>
        <time>2026-06-01T09:58:57Z</time>
      </trkpt>
      <trkpt lat="48.81169" lon="2.17663">
        <ele>173</ele>
        <time>2026-06-01T09:58:58Z</time>
      </trkpt>
      <trkpt lat="48.81131" lon="2.17655">
        <ele>171</ele>
        <time>2026-06-01T09:59:07Z</time>
      </trkpt>
      <trkpt lat="48.81098" lon="2.17638">
        <ele>169</ele>
        <time>2026-06-01T09:59:15Z</time>
      </trkpt>
      <trkpt lat="48.81078" lon="2.17663">
        <ele>166</ele>
        <time>2026-06-01T09:59:21Z</time>
      </trkpt>
      <trkpt lat="48.81039" lon="2.17722">
        <ele>154</ele>
        <time>2026-06-01T09:59:34Z</time>
      </trkpt>
      <trkpt lat="48.81028" lon="2.17735">
        <ele>151</ele>
        <time>2026-06-01T09:59:37Z</time>
      </trkpt>
      <trkpt lat="48.81023" lon="2.17738">
        <ele>150</ele>
        <time>2026-06-01T09:59:39Z</time>
      </trkpt>
      <trkpt lat="48.81014" lon="2.17731">
        <ele>150</ele>
        <time>2026-06-01T09:59:41Z</time>
      </trkpt>
      <trkpt lat="48.81009" lon="2.1773">
        <ele>149</ele>
        <time>2026-06-01T09:59:42Z</time>
      </trkpt>
      <trkpt lat="48.80994" lon="2.17743">
        <ele>147</ele>
        <time>2026-06-01T09:59:46Z</time>
      </trkpt>
      <trkpt lat="48.80947" lon="2.17814">
        <ele>137</ele>
        <time>2026-06-01T10:00:02Z</time>
      </trkpt>
      <trkpt lat="48.80949" lon="2.17827">
        <ele>136</ele>
        <time>2026-06-01T10:00:04Z</time>
      </trkpt>
      <trkpt lat="48.8111" lon="2.18235">
        <ele>112</ele>
        <time>2026-06-01T10:01:17Z</time>
      </trkpt>
      <trkpt lat="48.81149" lon="2.18316">
        <ele>110</ele>
        <time>2026-06-01T10:01:32Z</time>
      </trkpt>
      <trkpt lat="48.81157" lon="2.18337">
        <ele>110</ele>
        <time>2026-06-01T10:01:36Z</time>
      </trkpt>
      <trkpt lat="48.81221" lon="2.1845">
        <ele>118</ele>
        <time>2026-06-01T10:01:59Z</time>
      </trkpt>
      <trkpt lat="48.81242" lon="2.18498">
        <ele>121</ele>
        <time>2026-06-01T10:02:08Z</time>
      </trkpt>
      <trkpt lat="48.81255" lon="2.18541">
        <ele>122</ele>
        <time>2026-06-01T10:02:15Z</time>
      </trkpt>
      <trkpt lat="48.81261" lon="2.18582">
        <ele>123</ele>
        <time>2026-06-01T10:02:22Z</time>
      </trkpt>
      <trkpt lat="48.81274" lon="2.18632">
        <ele>122</ele>
        <time>2026-06-01T10:02:30Z</time>
      </trkpt>
      <trkpt lat="48.81272" lon="2.1865">
        <ele>121</ele>
        <time>2026-06-01T10:02:33Z</time>
      </trkpt>
      <trkpt lat="48.81267" lon="2.18661">
        <ele>120</ele>
        <time>2026-06-01T10:02:35Z</time>
      </trkpt>
      <trkpt lat="48.81171" lon="2.18822">
        <ele>108</ele>
        <time>2026-06-01T10:03:08Z</time>
      </trkpt>
      <trkpt lat="48.81173" lon="2.18829">
        <ele>108</ele>
        <time>2026-06-01T10:03:09Z</time>
      </trkpt>
      <trkpt lat="48.81199" lon="2.18862">
        <ele>107</ele>
        <time>2026-06-01T10:03:17Z</time>
      </trkpt>
      <trkpt lat="48.81205" lon="2.18875">
        <ele>106</ele>
        <time>2026-06-01T10:03:20Z</time>
      </trkpt>
      <trkpt lat="48.81209" lon="2.18877">
        <ele>106</ele>
        <time>2026-06-01T10:03:21Z</time>
      </trkpt>
      <trkpt lat="48.81224" lon="2.18896">
        <ele>106</ele>
        <time>2026-06-01T10:03:25Z</time>
      </trkpt>
      <trkpt lat="48.81232" lon="2.18912">
        <ele>106</ele>
        <time>2026-06-01T10:03:28Z</time>
      </trkpt>
      <trkpt lat="48.81247" lon="2.18928">
        <ele>105</ele>
        <time>2026-06-01T10:03:33Z</time>
      </trkpt>
      <trkpt lat="48.81261" lon="2.1895">
        <ele>104</ele>
        <time>2026-06-01T10:03:37Z</time>
      </trkpt>
      <trkpt lat="48.8127" lon="2.18956">
        <ele>104</ele>
        <time>2026-06-01T10:03:40Z</time>
      </trkpt>
      <trkpt lat="48.81278" lon="2.1897">
        <ele>103</ele>
        <time>2026-06-01T10:03:42Z</time>
      </trkpt>
      <trkpt lat="48.81312" lon="2.19009">
        <ele>102</ele>
        <time>2026-06-01T10:03:52Z</time>
      </trkpt>
      <trkpt lat="48.81323" lon="2.19026">
        <ele>101</ele>
        <time>2026-06-01T10:03:56Z</time>
      </trkpt>
      <trkpt lat="48.8135" lon="2.19058">
        <ele>99</ele>
        <time>2026-06-01T10:04:04Z</time>
      </trkpt>
      <trkpt lat="48.81393" lon="2.19076">
        <ele>100</ele>
        <time>2026-06-01T10:04:14Z</time>
      </trkpt>
      <trkpt lat="48.81411" lon="2.19087">
        <ele>99</ele>
        <time>2026-06-01T10:04:19Z</time>
      </trkpt>
      <trkpt lat="48.81424" lon="2.19091">
        <ele>99</ele>
        <time>2026-06-01T10:04:22Z</time>
      </trkpt>
      <trkpt lat="48.81432" lon="2.19097">
        <ele>99</ele>
        <time>2026-06-01T10:04:24Z</time>
      </trkpt>
      <trkpt lat="48.81465" lon="2.19113">
        <ele>98</ele>
        <time>2026-06-01T10:04:32Z</time>
      </trkpt>
      <trkpt lat="48.81471" lon="2.19119">
        <ele>98</ele>
        <time>2026-06-01T10:04:34Z</time>
      </trkpt>
      <trkpt lat="48.81478" lon="2.19132">
        <ele>97</ele>
        <time>2026-06-01T10:04:37Z</time>
      </trkpt>
      <trkpt lat="48.81503" lon="2.19207">
        <ele>89</ele>
        <time>2026-06-01T10:04:49Z</time>
      </trkpt>
      <trkpt lat="48.81519" lon="2.19247">
        <ele>84</ele>
        <time>2026-06-01T10:04:57Z</time>
      </trkpt>
      <trkpt lat="48.81533" lon="2.19268">
        <ele>83</ele>
        <time>2026-06-01T10:05:01Z</time>
      </trkpt>
      <trkpt lat="48.81552" lon="2.19289">
        <ele>82</ele>
        <time>2026-06-01T10:05:07Z</time>
      </trkpt>
      <trkpt lat="48.81575" lon="2.19328">
        <ele>80</ele>
        <time>2026-06-01T10:05:15Z</time>
      </trkpt>
      <trkpt lat="48.816" lon="2.19382">
        <ele>79</ele>
        <time>2026-06-01T10:05:25Z</time>
      </trkpt>
      <trkpt lat="48.816" lon="2.19391">
        <ele>78</ele>
        <time>2026-06-01T10:05:26Z</time>
      </trkpt>
      <trkpt lat="48.81597" lon="2.19395">
        <ele>78</ele>
        <time>2026-06-01T10:05:27Z</time>
      </trkpt>
      <trkpt lat="48.81594" lon="2.19395">
        <ele>78</ele>
        <time>2026-06-01T10:05:28Z</time>
      </trkpt>
      <trkpt lat="48.8154" lon="2.19358">
        <ele>79</ele>
        <time>2026-06-01T10:05:42Z</time>
      </trkpt>
      <trkpt lat="48.81515" lon="2.19337">
        <ele>78</ele>
        <time>2026-06-01T10:05:48Z</time>
      </trkpt>
      <trkpt lat="48.81375" lon="2.19238">
        <ele>80</ele>
        <time>2026-06-01T10:06:25Z</time>
      </trkpt>
      <trkpt lat="48.81352" lon="2.19219">
        <ele>82</ele>
        <time>2026-06-01T10:06:31Z</time>
      </trkpt>
      <trkpt lat="48.81326" lon="2.19204">
        <ele>83</ele>
        <time>2026-06-01T10:06:37Z</time>
      </trkpt>
      <trkpt lat="48.81267" lon="2.19191">
        <ele>85</ele>
        <time>2026-06-01T10:06:51Z</time>
      </trkpt>
      <trkpt lat="48.81089" lon="2.19162">
        <ele>90</ele>
        <time>2026-06-01T10:07:33Z</time>
      </trkpt>
      <trkpt lat="48.81075" lon="2.19163">
        <ele>90</ele>
        <time>2026-06-01T10:07:36Z</time>
      </trkpt>
      <trkpt lat="48.81069" lon="2.19172">
        <ele>90</ele>
        <time>2026-06-01T10:07:38Z</time>
      </trkpt>
      <trkpt lat="48.81042" lon="2.19239">
        <ele>89</ele>
        <time>2026-06-01T10:07:50Z</time>
      </trkpt>
      <trkpt lat="48.81025" lon="2.19296">
        <ele>93</ele>
        <time>2026-06-01T10:08:00Z</time>
      </trkpt>
      <trkpt lat="48.81001" lon="2.19358">
        <ele>98</ele>
        <time>2026-06-01T10:08:11Z</time>
      </trkpt>
      <trkpt lat="48.80985" lon="2.19433">
        <ele>99</ele>
        <time>2026-06-01T10:08:23Z</time>
      </trkpt>
      <trkpt lat="48.80981" lon="2.19437">
        <ele>100</ele>
        <time>2026-06-01T10:08:24Z</time>
      </trkpt>
      <trkpt lat="48.80948" lon="2.19508">
        <ele>104</ele>
        <time>2026-06-01T10:08:38Z</time>
      </trkpt>
      <trkpt lat="48.80911" lon="2.19568">
        <ele>110</ele>
        <time>2026-06-01T10:08:50Z</time>
      </trkpt>
      <trkpt lat="48.80887" lon="2.19578">
        <ele>112</ele>
        <time>2026-06-01T10:08:56Z</time>
      </trkpt>
      <trkpt lat="48.80877" lon="2.19579">
        <ele>113</ele>
        <time>2026-06-01T10:08:58Z</time>
      </trkpt>
      <trkpt lat="48.80859" lon="2.19576">
        <ele>114</ele>
        <time>2026-06-01T10:09:03Z</time>
      </trkpt>
      <trkpt lat="48.80837" lon="2.19591">
        <ele>116</ele>
        <time>2026-06-01T10:09:08Z</time>
      </trkpt>
      <trkpt lat="48.80831" lon="2.19596">
        <ele>116</ele>
        <time>2026-06-01T10:09:10Z</time>
      </trkpt>
      <trkpt lat="48.8077" lon="2.19678">
        <ele>123</ele>
        <time>2026-06-01T10:09:29Z</time>
      </trkpt>
      <trkpt lat="48.80761" lon="2.19696">
        <ele>124</ele>
        <time>2026-06-01T10:09:32Z</time>
      </trkpt>
      <trkpt lat="48.80743" lon="2.19722">
        <ele>125</ele>
        <time>2026-06-01T10:09:38Z</time>
      </trkpt>
      <trkpt lat="48.80733" lon="2.19748">
        <ele>125</ele>
        <time>2026-06-01T10:09:43Z</time>
      </trkpt>
      <trkpt lat="48.80727" lon="2.19776">
        <ele>125</ele>
        <time>2026-06-01T10:09:47Z</time>
      </trkpt>
      <trkpt lat="48.80717" lon="2.19802">
        <ele>126</ele>
        <time>2026-06-01T10:09:52Z</time>
      </trkpt>
      <trkpt lat="48.80705" lon="2.19901">
        <ele>129</ele>
        <time>2026-06-01T10:10:07Z</time>
      </trkpt>
      <trkpt lat="48.80698" lon="2.19913">
        <ele>130</ele>
        <time>2026-06-01T10:10:10Z</time>
      </trkpt>
      <trkpt lat="48.80692" lon="2.19917">
        <ele>130</ele>
        <time>2026-06-01T10:10:11Z</time>
      </trkpt>
      <trkpt lat="48.80668" lon="2.19915">
        <ele>131</ele>
        <time>2026-06-01T10:10:17Z</time>
      </trkpt>
      <trkpt lat="48.80631" lon="2.19902">
        <ele>133</ele>
        <time>2026-06-01T10:10:26Z</time>
      </trkpt>
      <trkpt lat="48.80623" lon="2.19905">
        <ele>133</ele>
        <time>2026-06-01T10:10:28Z</time>
      </trkpt>
      <trkpt lat="48.80611" lon="2.19902">
        <ele>134</ele>
        <time>2026-06-01T10:10:31Z</time>
      </trkpt>
      <trkpt lat="48.8058" lon="2.19887">
        <ele>136</ele>
        <time>2026-06-01T10:10:38Z</time>
      </trkpt>
      <trkpt lat="48.80557" lon="2.19883">
        <ele>137</ele>
        <time>2026-06-01T10:10:44Z</time>
      </trkpt>
      <trkpt lat="48.8054" lon="2.19875">
        <ele>138</ele>
        <time>2026-06-01T10:10:48Z</time>
      </trkpt>
      <trkpt lat="48.80525" lon="2.19874">
        <ele>139</ele>
        <time>2026-06-01T10:10:51Z</time>
      </trkpt>
      <trkpt lat="48.80507" lon="2.19863">
        <ele>140</ele>
        <time>2026-06-01T10:10:56Z</time>
      </trkpt>
      <trkpt lat="48.80496" lon="2.19859">
        <ele>141</ele>
        <time>2026-06-01T10:10:58Z</time>
      </trkpt>
      <trkpt lat="48.80481" lon="2.19856">
        <ele>143</ele>
        <time>2026-06-01T10:11:02Z</time>
      </trkpt>
      <trkpt lat="48.80464" lon="2.19864">
        <ele>146</ele>
        <time>2026-06-01T10:11:06Z</time>
      </trkpt>
      <trkpt lat="48.80445" lon="2.1986">
        <ele>148</ele>
        <time>2026-06-01T10:11:11Z</time>
      </trkpt>
      <trkpt lat="48.80438" lon="2.19856">
        <ele>149</ele>
        <time>2026-06-01T10:11:12Z</time>
      </trkpt>
      <trkpt lat="48.8043" lon="2.19857">
        <ele>150</ele>
        <time>2026-06-01T10:11:14Z</time>
      </trkpt>
      <trkpt lat="48.80425" lon="2.19849">
        <ele>151</ele>
        <time>2026-06-01T10:11:16Z</time>
      </trkpt>
      <trkpt lat="48.80416" lon="2.1985">
        <ele>152</ele>
        <time>2026-06-01T10:11:18Z</time>
      </trkpt>
      <trkpt lat="48.80412" lon="2.19847">
        <ele>151</ele>
        <time>2026-06-01T10:11:19Z</time>
      </trkpt>
      <trkpt lat="48.8038" lon="2.19861">
        <ele>150</ele>
        <time>2026-06-01T10:11:27Z</time>
      </trkpt>
      <trkpt lat="48.80349" lon="2.19881">
        <ele>149</ele>
        <time>2026-06-01T10:11:35Z</time>
      </trkpt>
      <trkpt lat="48.80336" lon="2.19886">
        <ele>149</ele>
        <time>2026-06-01T10:11:38Z</time>
      </trkpt>
      <trkpt lat="48.80329" lon="2.19892">
        <ele>149</ele>
        <time>2026-06-01T10:11:40Z</time>
      </trkpt>
      <trkpt lat="48.80233" lon="2.19947">
        <ele>146</ele>
        <time>2026-06-01T10:12:04Z</time>
      </trkpt>
      <trkpt lat="48.80227" lon="2.19948">
        <ele>146</ele>
        <time>2026-06-01T10:12:05Z</time>
      </trkpt>
      <trkpt lat="48.80169" lon="2.19902">
        <ele>138</ele>
        <time>2026-06-01T10:12:20Z</time>
      </trkpt>
      <trkpt lat="48.80163" lon="2.19893">
        <ele>137</ele>
        <time>2026-06-01T10:12:22Z</time>
      </trkpt>
      <trkpt lat="48.80157" lon="2.19892">
        <ele>137</ele>
        <time>2026-06-01T10:12:24Z</time>
      </trkpt>
      <trkpt lat="48.80146" lon="2.1988">
        <ele>136</ele>
        <time>2026-06-01T10:12:27Z</time>
      </trkpt>
      <trkpt lat="48.80101" lon="2.19846">
        <ele>132</ele>
        <time>2026-06-01T10:12:39Z</time>
      </trkpt>
      <trkpt lat="48.8009" lon="2.19833">
        <ele>130</ele>
        <time>2026-06-01T10:12:42Z</time>
      </trkpt>
      <trkpt lat="48.80035" lon="2.19789">
        <ele>124</ele>
        <time>2026-06-01T10:12:56Z</time>
      </trkpt>
      <trkpt lat="48.8" lon="2.19747">
        <ele>117</ele>
        <time>2026-06-01T10:13:07Z</time>
      </trkpt>
      <trkpt lat="48.7999" lon="2.1975">
        <ele>116</ele>
        <time>2026-06-01T10:13:09Z</time>
      </trkpt>
      <trkpt lat="48.79965" lon="2.19765">
        <ele>116</ele>
        <time>2026-06-01T10:13:15Z</time>
      </trkpt>
      <trkpt lat="48.79925" lon="2.19796">
        <ele>116</ele>
        <time>2026-06-01T10:13:26Z</time>
      </trkpt>
      <trkpt lat="48.79913" lon="2.19802">
        <ele>116</ele>
        <time>2026-06-01T10:13:29Z</time>
      </trkpt>
      <trkpt lat="48.79906" lon="2.1981">
        <ele>116</ele>
        <time>2026-06-01T10:13:31Z</time>
      </trkpt>
      <trkpt lat="48.79898" lon="2.19812">
        <ele>116</ele>
        <time>2026-06-01T10:13:33Z</time>
      </trkpt>
      <trkpt lat="48.79875" lon="2.19836">
        <ele>118</ele>
        <time>2026-06-01T10:13:39Z</time>
      </trkpt>
      <trkpt lat="48.79865" lon="2.19835">
        <ele>117</ele>
        <time>2026-06-01T10:13:42Z</time>
      </trkpt>
      <trkpt lat="48.79859" lon="2.1983">
        <ele>117</ele>
        <time>2026-06-01T10:13:43Z</time>
      </trkpt>
      <trkpt lat="48.79761" lon="2.19659">
        <ele>113</ele>
        <time>2026-06-01T10:14:18Z</time>
      </trkpt>
      <trkpt lat="48.79754" lon="2.19655">
        <ele>114</ele>
        <time>2026-06-01T10:14:20Z</time>
      </trkpt>
      <trkpt lat="48.79746" lon="2.19662">
        <ele>114</ele>
        <time>2026-06-01T10:14:22Z</time>
      </trkpt>
      <trkpt lat="48.79644" lon="2.19809">
        <ele>116</ele>
        <time>2026-06-01T10:14:55Z</time>
      </trkpt>
      <trkpt lat="48.79638" lon="2.19813">
        <ele>117</ele>
        <time>2026-06-01T10:14:56Z</time>
      </trkpt>
      <trkpt lat="48.79632" lon="2.1981">
        <ele>117</ele>
        <time>2026-06-01T10:14:58Z</time>
      </trkpt>
      <trkpt lat="48.79626" lon="2.19802">
        <ele>117</ele>
        <time>2026-06-01T10:15:00Z</time>
      </trkpt>
      <trkpt lat="48.79604" lon="2.19767">
        <ele>117</ele>
        <time>2026-06-01T10:15:07Z</time>
      </trkpt>
      <trkpt lat="48.79595" lon="2.19737">
        <ele>118</ele>
        <time>2026-06-01T10:15:12Z</time>
      </trkpt>
      <trkpt lat="48.7958" lon="2.19725">
        <ele>119</ele>
        <time>2026-06-01T10:15:16Z</time>
      </trkpt>
      <trkpt lat="48.79543" lon="2.19663">
        <ele>122</ele>
        <time>2026-06-01T10:15:29Z</time>
      </trkpt>
      <trkpt lat="48.79537" lon="2.19666">
        <ele>123</ele>
        <time>2026-06-01T10:15:31Z</time>
      </trkpt>
      <trkpt lat="48.79507" lon="2.19714">
        <ele>124</ele>
        <time>2026-06-01T10:15:41Z</time>
      </trkpt>
      <trkpt lat="48.79502" lon="2.19715">
        <ele>125</ele>
        <time>2026-06-01T10:15:42Z</time>
      </trkpt>
      <trkpt lat="48.79476" lon="2.19705">
        <ele>129</ele>
        <time>2026-06-01T10:15:48Z</time>
      </trkpt>
      <trkpt lat="48.79396" lon="2.19653">
        <ele>136</ele>
        <time>2026-06-01T10:16:09Z</time>
      </trkpt>
      <trkpt lat="48.79365" lon="2.19637">
        <ele>135</ele>
        <time>2026-06-01T10:16:16Z</time>
      </trkpt>
      <trkpt lat="48.79352" lon="2.19627">
        <ele>135</ele>
        <time>2026-06-01T10:16:20Z</time>
      </trkpt>
      <trkpt lat="48.79336" lon="2.19619">
        <ele>135</ele>
        <time>2026-06-01T10:16:24Z</time>
      </trkpt>
      <trkpt lat="48.79323" lon="2.19609">
        <ele>136</ele>
        <time>2026-06-01T10:16:27Z</time>
      </trkpt>
      <trkpt lat="48.79316" lon="2.196">
        <ele>136</ele>
        <time>2026-06-01T10:16:29Z</time>
      </trkpt>
      <trkpt lat="48.79309" lon="2.19583">
        <ele>137</ele>
        <time>2026-06-01T10:16:32Z</time>
      </trkpt>
      <trkpt lat="48.79313" lon="2.19569">
        <ele>136</ele>
        <time>2026-06-01T10:16:35Z</time>
      </trkpt>
      <trkpt lat="48.79318" lon="2.19566">
        <ele>135</ele>
        <time>2026-06-01T10:16:36Z</time>
      </trkpt>
      <trkpt lat="48.79397" lon="2.19465">
        <ele>128</ele>
        <time>2026-06-01T10:17:00Z</time>
      </trkpt>
      <trkpt lat="48.79404" lon="2.19451">
        <ele>128</ele>
        <time>2026-06-01T10:17:03Z</time>
      </trkpt>
      <trkpt lat="48.79432" lon="2.19415">
        <ele>127</ele>
        <time>2026-06-01T10:17:11Z</time>
      </trkpt>
      <trkpt lat="48.7948" lon="2.19358">
        <ele>124</ele>
        <time>2026-06-01T10:17:25Z</time>
      </trkpt>
      <trkpt lat="48.79565" lon="2.19245">
        <ele>123</ele>
        <time>2026-06-01T10:17:52Z</time>
      </trkpt>
      <trkpt lat="48.79579" lon="2.19223">
        <ele>124</ele>
        <time>2026-06-01T10:17:57Z</time>
      </trkpt>
      <trkpt lat="48.79644" lon="2.19147">
        <ele>127</ele>
        <time>2026-06-01T10:18:16Z</time>
      </trkpt>
      <trkpt lat="48.79643" lon="2.19143">
        <ele>127</ele>
        <time>2026-06-01T10:18:16Z</time>
      </trkpt>
      <trkpt lat="48.79637" lon="2.19153">
        <ele>127</ele>
        <time>2026-06-01T10:18:18Z</time>
      </trkpt>
      <trkpt lat="48.79626" lon="2.1915">
        <ele>127</ele>
        <time>2026-06-01T10:18:21Z</time>
      </trkpt>
      <trkpt lat="48.79579" lon="2.19115">
        <ele>128</ele>
        <time>2026-06-01T10:18:33Z</time>
      </trkpt>
      <trkpt lat="48.79511" lon="2.19069">
        <ele>132</ele>
        <time>2026-06-01T10:18:51Z</time>
      </trkpt>
      <trkpt lat="48.79504" lon="2.19062">
        <ele>132</ele>
        <time>2026-06-01T10:18:53Z</time>
      </trkpt>
      <trkpt lat="48.79465" lon="2.19039">
        <ele>133</ele>
        <time>2026-06-01T10:19:02Z</time>
      </trkpt>
      <trkpt lat="48.79416" lon="2.18997">
        <ele>134</ele>
        <time>2026-06-01T10:19:16Z</time>
      </trkpt>
      <trkpt lat="48.79415" lon="2.18988">
        <ele>133</ele>
        <time>2026-06-01T10:19:17Z</time>
      </trkpt>
      <trkpt lat="48.79418" lon="2.18963">
        <ele>132</ele>
        <time>2026-06-01T10:19:21Z</time>
      </trkpt>
      <trkpt lat="48.7943" lon="2.18908">
        <ele>128</ele>
        <time>2026-06-01T10:19:30Z</time>
      </trkpt>
      <trkpt lat="48.79437" lon="2.18861">
        <ele>124</ele>
        <time>2026-06-01T10:19:37Z</time>
      </trkpt>
      <trkpt lat="48.79431" lon="2.18852">
        <ele>123</ele>
        <time>2026-06-01T10:19:39Z</time>
      </trkpt>
      <trkpt lat="48.79431" lon="2.18848">
        <ele>123</ele>
        <time>2026-06-01T10:19:40Z</time>
      </trkpt>
      <trkpt lat="48.79437" lon="2.18831">
        <ele>121</ele>
        <time>2026-06-01T10:19:43Z</time>
      </trkpt>
      <trkpt lat="48.79461" lon="2.187">
        <ele>122</ele>
        <time>2026-06-01T10:20:04Z</time>
      </trkpt>
      <trkpt lat="48.79469" lon="2.18692">
        <ele>122</ele>
        <time>2026-06-01T10:20:06Z</time>
      </trkpt>
      <trkpt lat="48.79528" lon="2.18685">
        <ele>117</ele>
        <time>2026-06-01T10:20:20Z</time>
      </trkpt>
      <trkpt lat="48.79608" lon="2.18683">
        <ele>109</ele>
        <time>2026-06-01T10:20:38Z</time>
      </trkpt>
      <trkpt lat="48.79635" lon="2.18678">
        <ele>107</ele>
        <time>2026-06-01T10:20:45Z</time>
      </trkpt>
      <trkpt lat="48.7964" lon="2.18675">
        <ele>107</ele>
        <time>2026-06-01T10:20:46Z</time>
      </trkpt>
      <trkpt lat="48.79679" lon="2.18674">
        <ele>105</ele>
        <time>2026-06-01T10:20:55Z</time>
      </trkpt>
      <trkpt lat="48.79683" lon="2.18667">
        <ele>105</ele>
        <time>2026-06-01T10:20:56Z</time>
      </trkpt>
      <trkpt lat="48.79686" lon="2.18674">
        <ele>105</ele>
        <time>2026-06-01T10:20:58Z</time>
      </trkpt>
      <trkpt lat="48.79727" lon="2.18672">
        <ele>104</ele>
        <time>2026-06-01T10:21:07Z</time>
      </trkpt>
      <trkpt lat="48.7973" lon="2.18661">
        <ele>104</ele>
        <time>2026-06-01T10:21:09Z</time>
      </trkpt>
      <trkpt lat="48.79728" lon="2.18564">
        <ele>105</ele>
        <time>2026-06-01T10:21:24Z</time>
      </trkpt>
      <trkpt lat="48.7973" lon="2.18561">
        <ele>105</ele>
        <time>2026-06-01T10:21:25Z</time>
      </trkpt>
      <trkpt lat="48.7974" lon="2.18559">
        <ele>104</ele>
        <time>2026-06-01T10:21:27Z</time>
      </trkpt>
      <trkpt lat="48.79767" lon="2.18558">
        <ele>104</ele>
        <time>2026-06-01T10:21:33Z</time>
      </trkpt>
      <trkpt lat="48.79773" lon="2.1856">
        <ele>104</ele>
        <time>2026-06-01T10:21:35Z</time>
      </trkpt>
      <trkpt lat="48.79761" lon="2.18558">
        <ele>104</ele>
        <time>2026-06-01T10:21:38Z</time>
      </trkpt>
      <trkpt lat="48.79744" lon="2.1856">
        <ele>104</ele>
        <time>2026-06-01T10:21:42Z</time>
      </trkpt>
      <trkpt lat="48.79729" lon="2.18556">
        <ele>105</ele>
        <time>2026-06-01T10:21:45Z</time>
      </trkpt>
      <trkpt lat="48.79698" lon="2.18557">
        <ele>105</ele>
        <time>2026-06-01T10:21:52Z</time>
      </trkpt>
      <trkpt lat="48.79693" lon="2.18555">
        <ele>105</ele>
        <time>2026-06-01T10:21:54Z</time>
      </trkpt>
      <trkpt lat="48.79663" lon="2.18441">
        <ele>108</ele>
        <time>2026-06-01T10:22:13Z</time>
      </trkpt>
      <trkpt lat="48.79619" lon="2.18256">
        <ele>115</ele>
        <time>2026-06-01T10:22:43Z</time>
      </trkpt>
      <trkpt lat="48.79583" lon="2.18199">
        <ele>117</ele>
        <time>2026-06-01T10:22:55Z</time>
      </trkpt>
      <trkpt lat="48.79567" lon="2.18181">
        <ele>120</ele>
        <time>2026-06-01T10:23:00Z</time>
      </trkpt>
      <trkpt lat="48.79558" lon="2.18156">
        <ele>122</ele>
        <time>2026-06-01T10:23:04Z</time>
      </trkpt>
      <trkpt lat="48.79559" lon="2.18142">
        <ele>123</ele>
        <time>2026-06-01T10:23:06Z</time>
      </trkpt>
      <trkpt lat="48.79563" lon="2.18132">
        <ele>123</ele>
        <time>2026-06-01T10:23:08Z</time>
      </trkpt>
      <trkpt lat="48.79587" lon="2.18104">
        <ele>122</ele>
        <time>2026-06-01T10:23:15Z</time>
      </trkpt>
      <trkpt lat="48.79601" lon="2.18079">
        <ele>124</ele>
        <time>2026-06-01T10:23:20Z</time>
      </trkpt>
      <trkpt lat="48.79608" lon="2.17987">
        <ele>129</ele>
        <time>2026-06-01T10:23:34Z</time>
      </trkpt>
      <trkpt lat="48.79623" lon="2.17917">
        <ele>131</ele>
        <time>2026-06-01T10:23:46Z</time>
      </trkpt>
      <trkpt lat="48.79624" lon="2.17897">
        <ele>132</ele>
        <time>2026-06-01T10:23:49Z</time>
      </trkpt>
      <trkpt lat="48.79636" lon="2.17835">
        <ele>134</ele>
        <time>2026-06-01T10:23:59Z</time>
      </trkpt>
      <trkpt lat="48.79636" lon="2.17816">
        <ele>135</ele>
        <time>2026-06-01T10:24:02Z</time>
      </trkpt>
      <trkpt lat="48.79688" lon="2.17548">
        <ele>135</ele>
        <time>2026-06-01T10:24:45Z</time>
      </trkpt>
      <trkpt lat="48.79688" lon="2.17533">
        <ele>136</ele>
        <time>2026-06-01T10:24:47Z</time>
      </trkpt>
      <trkpt lat="48.79691" lon="2.17526">
        <ele>136</ele>
        <time>2026-06-01T10:24:48Z</time>
      </trkpt>
      <trkpt lat="48.79696" lon="2.17523">
        <ele>135</ele>
        <time>2026-06-01T10:24:49Z</time>
      </trkpt>
      <trkpt lat="48.79706" lon="2.17523">
        <ele>134</ele>
        <time>2026-06-01T10:24:52Z</time>
      </trkpt>
      <trkpt lat="48.79812" lon="2.17546">
        <ele>121</ele>
        <time>2026-06-01T10:25:17Z</time>
      </trkpt>
      <trkpt lat="48.79818" lon="2.17544">
        <ele>120</ele>
        <time>2026-06-01T10:25:18Z</time>
      </trkpt>
      <trkpt lat="48.79821" lon="2.17532">
        <ele>120</ele>
        <time>2026-06-01T10:25:20Z</time>
      </trkpt>
      <trkpt lat="48.79818" lon="2.17486">
        <ele>119</ele>
        <time>2026-06-01T10:25:27Z</time>
      </trkpt>
      <trkpt lat="48.79821" lon="2.17432">
        <ele>120</ele>
        <time>2026-06-01T10:25:36Z</time>
      </trkpt>
      <trkpt lat="48.79821" lon="2.17359">
        <ele>121</ele>
        <time>2026-06-01T10:25:47Z</time>
      </trkpt>
      <trkpt lat="48.79823" lon="2.17346">
        <ele>121</ele>
        <time>2026-06-01T10:25:49Z</time>
      </trkpt>
      <trkpt lat="48.79827" lon="2.17342">
        <ele>121</ele>
        <time>2026-06-01T10:25:50Z</time>
      </trkpt>
      <trkpt lat="48.79834" lon="2.17342">
        <ele>120</ele>
        <time>2026-06-01T10:25:52Z</time>
      </trkpt>
      <trkpt lat="48.79869" lon="2.1733">
        <ele>119</ele>
        <time>2026-06-01T10:26:00Z</time>
      </trkpt>
      <trkpt lat="48.79912" lon="2.17218">
        <ele>120</ele>
        <time>2026-06-01T10:26:20Z</time>
      </trkpt>
      <trkpt lat="48.79921" lon="2.17201">
        <ele>120</ele>
        <time>2026-06-01T10:26:23Z</time>
      </trkpt>
      <trkpt lat="48.79924" lon="2.17187">
        <ele>120</ele>
        <time>2026-06-01T10:26:26Z</time>
      </trkpt>
      <trkpt lat="48.79929" lon="2.17178">
        <ele>120</ele>
        <time>2026-06-01T10:26:27Z</time>
      </trkpt>
      <trkpt lat="48.79936" lon="2.17175">
        <ele>120</ele>
        <time>2026-06-01T10:26:29Z</time>
      </trkpt>
      <trkpt lat="48.7994" lon="2.17163">
        <ele>121</ele>
        <time>2026-06-01T10:26:31Z</time>
      </trkpt>
      <trkpt lat="48.79952" lon="2.17148">
        <ele>121</ele>
        <time>2026-06-01T10:26:35Z</time>
      </trkpt>
      <trkpt lat="48.79982" lon="2.17131">
        <ele>121</ele>
        <time>2026-06-01T10:26:42Z</time>
      </trkpt>
      <trkpt lat="48.80028" lon="2.17117">
        <ele>120</ele>
        <time>2026-06-01T10:26:53Z</time>
      </trkpt>
      <trkpt lat="48.80059" lon="2.17113">
        <ele>118</ele>
        <time>2026-06-01T10:27:01Z</time>
      </trkpt>
      <trkpt lat="48.80095" lon="2.17103">
        <ele>116</ele>
        <time>2026-06-01T10:27:09Z</time>
      </trkpt>
      <trkpt lat="48.80125" lon="2.17101">
        <ele>115</ele>
        <time>2026-06-01T10:27:16Z</time>
      </trkpt>
      <trkpt lat="48.80191" lon="2.17086">
        <ele>114</ele>
        <time>2026-06-01T10:27:32Z</time>
      </trkpt>
      <trkpt lat="48.80272" lon="2.17077">
        <ele>112</ele>
        <time>2026-06-01T10:27:51Z</time>
      </trkpt>
      <trkpt lat="48.80351" lon="2.17053">
        <ele>107</ele>
        <time>2026-06-01T10:28:09Z</time>
      </trkpt>
      <trkpt lat="48.80367" lon="2.17041">
        <ele>106</ele>
        <time>2026-06-01T10:28:14Z</time>
      </trkpt>
      <trkpt lat="48.80379" lon="2.17026">
        <ele>105</ele>
        <time>2026-06-01T10:28:17Z</time>
      </trkpt>
      <trkpt lat="48.80397" lon="2.16993">
        <ele>104</ele>
        <time>2026-06-01T10:28:24Z</time>
      </trkpt>
      <trkpt lat="48.80406" lon="2.16982">
        <ele>104</ele>
        <time>2026-06-01T10:28:27Z</time>
      </trkpt>
      <trkpt lat="48.80411" lon="2.1698">
        <ele>104</ele>
        <time>2026-06-01T10:28:28Z</time>
      </trkpt>
      <trkpt lat="48.80424" lon="2.16963">
        <ele>104</ele>
        <time>2026-06-01T10:28:32Z</time>
      </trkpt>
      <trkpt lat="48.80476" lon="2.16942">
        <ele>105</ele>
        <time>2026-06-01T10:28:44Z</time>
      </trkpt>
      <trkpt lat="48.80515" lon="2.16944">
        <ele>107</ele>
        <time>2026-06-01T10:28:53Z</time>
      </trkpt>
      <trkpt lat="48.8054" lon="2.16937">
        <ele>109</ele>
        <time>2026-06-01T10:28:59Z</time>
      </trkpt>
      <trkpt lat="48.80563" lon="2.16921">
        <ele>111</ele>
        <time>2026-06-01T10:29:05Z</time>
      </trkpt>
      <trkpt lat="48.80574" lon="2.16909">
        <ele>112</ele>
        <time>2026-06-01T10:29:08Z</time>
      </trkpt>
      <trkpt lat="48.80599" lon="2.16889">
        <ele>114</ele>
        <time>2026-06-01T10:29:15Z</time>
      </trkpt>
      <trkpt lat="48.80622" lon="2.16864">
        <ele>116</ele>
        <time>2026-06-01T10:29:22Z</time>
      </trkpt>
      <trkpt lat="48.80685" lon="2.16826">
        <ele>119</ele>
        <time>2026-06-01T10:29:37Z</time>
      </trkpt>
      <trkpt lat="48.80713" lon="2.16814">
        <ele>121</ele>
        <time>2026-06-01T10:29:44Z</time>
      </trkpt>
      <trkpt lat="48.80741" lon="2.16794">
        <ele>123</ele>
        <time>2026-06-01T10:29:51Z</time>
      </trkpt>
      <trkpt lat="48.8079" lon="2.16772">
        <ele>127</ele>
        <time>2026-06-01T10:30:03Z</time>
      </trkpt>
      <trkpt lat="48.80816" lon="2.16757">
        <ele>130</ele>
        <time>2026-06-01T10:30:10Z</time>
      </trkpt>
      <trkpt lat="48.80822" lon="2.16764">
        <ele>130</ele>
        <time>2026-06-01T10:30:12Z</time>
      </trkpt>
      <trkpt lat="48.80833" lon="2.1682">
        <ele>128</ele>
        <time>2026-06-01T10:30:21Z</time>
      </trkpt>
      <trkpt lat="48.8084" lon="2.16842">
        <ele>127</ele>
        <time>2026-06-01T10:30:24Z</time>
      </trkpt>
      <trkpt lat="48.8084" lon="2.16914">
        <ele>127</ele>
        <time>2026-06-01T10:30:36Z</time>
      </trkpt>
      <trkpt lat="48.80854" lon="2.17015">
        <ele>131</ele>
        <time>2026-06-01T10:30:51Z</time>
      </trkpt>
      <trkpt lat="48.80856" lon="2.1706">
        <ele>133</ele>
        <time>2026-06-01T10:30:58Z</time>
      </trkpt>
      <trkpt lat="48.80855" lon="2.17118">
        <ele>135</ele>
        <time>2026-06-01T10:31:07Z</time>
      </trkpt>
      <trkpt lat="48.80845" lon="2.17257">
        <ele>132</ele>
        <time>2026-06-01T10:31:29Z</time>
      </trkpt>
      <trkpt lat="48.8085" lon="2.17317">
        <ele>132</ele>
        <time>2026-06-01T10:31:38Z</time>
      </trkpt>
      <trkpt lat="48.80861" lon="2.17387">
        <ele>135</ele>
        <time>2026-06-01T10:31:49Z</time>
      </trkpt>
      <trkpt lat="48.80865" lon="2.17392">
        <ele>136</ele>
        <time>2026-06-01T10:31:50Z</time>
      </trkpt>
      <trkpt lat="48.80874" lon="2.17397">
        <ele>137</ele>
        <time>2026-06-01T10:31:53Z</time>
      </trkpt>
      <trkpt lat="48.80872" lon="2.17407">
        <ele>137</ele>
        <time>2026-06-01T10:31:54Z</time>
      </trkpt>
      <trkpt lat="48.80876" lon="2.17412">
        <ele>137</ele>
        <time>2026-06-01T10:31:55Z</time>
      </trkpt>
      <trkpt lat="48.80878" lon="2.17425">
        <ele>138</ele>
        <time>2026-06-01T10:31:57Z</time>
      </trkpt>
      <trkpt lat="48.80887" lon="2.17428">
        <ele>139</ele>
        <time>2026-06-01T10:32:00Z</time>
      </trkpt>
      <trkpt lat="48.80889" lon="2.17445">
        <ele>139</ele>
        <time>2026-06-01T10:32:02Z</time>
      </trkpt>
      <trkpt lat="48.80895" lon="2.17462">
        <ele>140</ele>
        <time>2026-06-01T10:32:05Z</time>
      </trkpt>
      <trkpt lat="48.80907" lon="2.17488">
        <ele>142</ele>
        <time>2026-06-01T10:32:10Z</time>
      </trkpt>
      <trkpt lat="48.80923" lon="2.17515">
        <ele>145</ele>
        <time>2026-06-01T10:32:16Z</time>
      </trkpt>
      <trkpt lat="48.80933" lon="2.17572">
        <ele>148</ele>
        <time>2026-06-01T10:32:25Z</time>
      </trkpt>
      <trkpt lat="48.80942" lon="2.17599">
        <ele>149</ele>
        <time>2026-06-01T10:32:29Z</time>
      </trkpt>
      <trkpt lat="48.80953" lon="2.17623">
        <ele>151</ele>
        <time>2026-06-01T10:32:34Z</time>
      </trkpt>
      <trkpt lat="48.80958" lon="2.17628">
        <ele>152</ele>
        <time>2026-06-01T10:32:35Z</time>
      </trkpt>
      <trkpt lat="48.80971" lon="2.17536">
        <ele>154</ele>
        <time>2026-06-01T10:32:50Z</time>
      </trkpt>
      <trkpt lat="48.80985" lon="2.17489">
        <ele>157</ele>
        <time>2026-06-01T10:32:58Z</time>
      </trkpt>
      <trkpt lat="48.81004" lon="2.17449">
        <ele>159</ele>
        <time>2026-06-01T10:33:05Z</time>
      </trkpt>
      <trkpt lat="48.81033" lon="2.17397">
        <ele>163</ele>
        <time>2026-06-01T10:33:16Z</time>
      </trkpt>
      <trkpt lat="48.81054" lon="2.17349">
        <ele>167</ele>
        <time>2026-06-01T10:33:25Z</time>
      </trkpt>
      <trkpt lat="48.81058" lon="2.17344">
        <ele>168</ele>
        <time>2026-06-01T10:33:26Z</time>
      </trkpt>
      <trkpt lat="48.81062" lon="2.17345">
        <ele>169</ele>
        <time>2026-06-01T10:33:27Z</time>
      </trkpt>
      <trkpt lat="48.81056" lon="2.17381">
        <ele>167</ele>
        <time>2026-06-01T10:33:32Z</time>
      </trkpt>
      <trkpt lat="48.81032" lon="2.1745">
        <ele>163</ele>
        <time>2026-06-01T10:33:44Z</time>
      </trkpt>
      <trkpt lat="48.81012" lon="2.17517">
        <ele>161</ele>
        <time>2026-06-01T10:33:56Z</time>
      </trkpt>
      <trkpt lat="48.81007" lon="2.17546">
        <ele>161</ele>
        <time>2026-06-01T10:34:00Z</time>
      </trkpt>
      <trkpt lat="48.8101" lon="2.17563">
        <ele>161</ele>
        <time>2026-06-01T10:34:03Z</time>
      </trkpt>
      <trkpt lat="48.81023" lon="2.17597">
        <ele>162</ele>
        <time>2026-06-01T10:34:09Z</time>
      </trkpt>
      <trkpt lat="48.81038" lon="2.17627">
        <ele>162</ele>
        <time>2026-06-01T10:34:15Z</time>
      </trkpt>
      <trkpt lat="48.81045" lon="2.17635">
        <ele>163</ele>
        <time>2026-06-01T10:34:17Z</time>
      </trkpt>
      <trkpt lat="48.81054" lon="2.17638">
        <ele>164</ele>
        <time>2026-06-01T10:34:19Z</time>
      </trkpt>
      <trkpt lat="48.81077" lon="2.17638">
        <ele>167</ele>
        <time>2026-06-01T10:34:25Z</time>
      </trkpt>
      <trkpt lat="48.81094" lon="2.17632">
        <ele>168</ele>
        <time>2026-06-01T10:34:29Z</time>
      </trkpt>
      <trkpt lat="48.81106" lon="2.17621">
        <ele>169</ele>
        <time>2026-06-01T10:34:32Z</time>
      </trkpt>
      <trkpt lat="48.81176" lon="2.17525">
        <ele>174</ele>
        <time>2026-06-01T10:34:54Z</time>
      </trkpt>
      <trkpt lat="48.81199" lon="2.17489">
        <ele>174</ele>
        <time>2026-06-01T10:35:02Z</time>
      </trkpt>
      <trkpt lat="48.81218" lon="2.17468">
        <ele>174</ele>
        <time>2026-06-01T10:35:07Z</time>
      </trkpt>
      <trkpt lat="48.81263" lon="2.17402">
        <ele>172</ele>
        <time>2026-06-01T10:35:22Z</time>
      </trkpt>
      <trkpt lat="48.81268" lon="2.1739">
        <ele>171</ele>
        <time>2026-06-01T10:35:24Z</time>
      </trkpt>
      <trkpt lat="48.81267" lon="2.17368">
        <ele>171</ele>
        <time>2026-06-01T10:35:27Z</time>
      </trkpt>
      <trkpt lat="48.81245" lon="2.17305">
        <ele>173</ele>
        <time>2026-06-01T10:35:38Z</time>
      </trkpt>
      <trkpt lat="48.81221" lon="2.17217">
        <ele>171</ele>
        <time>2026-06-01T10:35:53Z</time>
      </trkpt>
      <trkpt lat="48.81197" lon="2.17075">
        <ele>168</ele>
        <time>2026-06-01T10:36:15Z</time>
      </trkpt>
      <trkpt lat="48.812" lon="2.17061">
        <ele>168</ele>
        <time>2026-06-01T10:36:18Z</time>
      </trkpt>
      <trkpt lat="48.8122" lon="2.1702">
        <ele>168</ele>
        <time>2026-06-01T10:36:26Z</time>
      </trkpt>
      <trkpt lat="48.81226" lon="2.16993">
        <ele>168</ele>
        <time>2026-06-01T10:36:30Z</time>
      </trkpt>
      <trkpt lat="48.81229" lon="2.16949">
        <ele>170</ele>
        <time>2026-06-01T10:36:37Z</time>
      </trkpt>
      <trkpt lat="48.81232" lon="2.16646">
        <ele>171</ele>
        <time>2026-06-01T10:37:23Z</time>
      </trkpt>
      <trkpt lat="48.81234" lon="2.16634">
        <ele>171</ele>
        <time>2026-06-01T10:37:25Z</time>
      </trkpt>
      <trkpt lat="48.81241" lon="2.16621">
        <ele>170</ele>
        <time>2026-06-01T10:37:28Z</time>
      </trkpt>
      <trkpt lat="48.81249" lon="2.16593">
        <ele>169</ele>
        <time>2026-06-01T10:37:33Z</time>
      </trkpt>
      <trkpt lat="48.81256" lon="2.16581">
        <ele>169</ele>
        <time>2026-06-01T10:37:35Z</time>
      </trkpt>
      <trkpt lat="48.81268" lon="2.16575">
        <ele>168</ele>
        <time>2026-06-01T10:37:38Z</time>
      </trkpt>
      <trkpt lat="48.81287" lon="2.16575">
        <ele>166</ele>
        <time>2026-06-01T10:37:42Z</time>
      </trkpt>
      <trkpt lat="48.81308" lon="2.1658">
        <ele>164</ele>
        <time>2026-06-01T10:37:47Z</time>
      </trkpt>
      <trkpt lat="48.81349" lon="2.16596">
        <ele>160</ele>
        <time>2026-06-01T10:37:57Z</time>
      </trkpt>
      <trkpt lat="48.81389" lon="2.16633">
        <ele>158</ele>
        <time>2026-06-01T10:38:08Z</time>
      </trkpt>
      <trkpt lat="48.81392" lon="2.16633">
        <ele>158</ele>
        <time>2026-06-01T10:38:09Z</time>
      </trkpt>
      <trkpt lat="48.81397" lon="2.16624">
        <ele>158</ele>
        <time>2026-06-01T10:38:11Z</time>
      </trkpt>
      <trkpt lat="48.81425" lon="2.16513">
        <ele>156</ele>
        <time>2026-06-01T10:38:29Z</time>
      </trkpt>
      <trkpt lat="48.81442" lon="2.16428">
        <ele>154</ele>
        <time>2026-06-01T10:38:43Z</time>
      </trkpt>
      <trkpt lat="48.81453" lon="2.16407">
        <ele>153</ele>
        <time>2026-06-01T10:38:47Z</time>
      </trkpt>
      <trkpt lat="48.8151" lon="2.16345">
        <ele>151</ele>
        <time>2026-06-01T10:39:03Z</time>
      </trkpt>
      <trkpt lat="48.81576" lon="2.16264">
        <ele>151</ele>
        <time>2026-06-01T10:39:23Z</time>
      </trkpt>
      <trkpt lat="48.81608" lon="2.16236">
        <ele>150</ele>
        <time>2026-06-01T10:39:32Z</time>
      </trkpt>
      <trkpt lat="48.81624" lon="2.16232">
        <ele>149</ele>
        <time>2026-06-01T10:39:35Z</time>
      </trkpt>
      <trkpt lat="48.81682" lon="2.16244">
        <ele>145</ele>
        <time>2026-06-01T10:39:49Z</time>
      </trkpt>
      <trkpt lat="48.81697" lon="2.16242">
        <ele>145</ele>
        <time>2026-06-01T10:39:53Z</time>
      </trkpt>
      <trkpt lat="48.81701" lon="2.16239">
        <ele>145</ele>
        <time>2026-06-01T10:39:54Z</time>
      </trkpt>
      <trkpt lat="48.8171" lon="2.16238">
        <ele>144</ele>
        <time>2026-06-01T10:39:56Z</time>
      </trkpt>
      <trkpt lat="48.81715" lon="2.16234">
        <ele>144</ele>
        <time>2026-06-01T10:39:57Z</time>
      </trkpt>
      <trkpt lat="48.81715" lon="2.16226">
        <ele>145</ele>
        <time>2026-06-01T10:39:58Z</time>
      </trkpt>
      <trkpt lat="48.81709" lon="2.16206">
        <ele>146</ele>
        <time>2026-06-01T10:40:02Z</time>
      </trkpt>
      <trkpt lat="48.81714" lon="2.16166">
        <ele>147</ele>
        <time>2026-06-01T10:40:08Z</time>
      </trkpt>
      <trkpt lat="48.81731" lon="2.16075">
        <ele>149</ele>
        <time>2026-06-01T10:40:22Z</time>
      </trkpt>
      <trkpt lat="48.81734" lon="2.16042">
        <ele>149</ele>
        <time>2026-06-01T10:40:28Z</time>
      </trkpt>
      <trkpt lat="48.81781" lon="2.15763">
        <ele>154</ele>
        <time>2026-06-01T10:41:12Z</time>
      </trkpt>
      <trkpt lat="48.81788" lon="2.15704">
        <ele>154</ele>
        <time>2026-06-01T10:41:21Z</time>
      </trkpt>
      <trkpt lat="48.81815" lon="2.15548">
        <ele>153</ele>
        <time>2026-06-01T10:41:46Z</time>
      </trkpt>
      <trkpt lat="48.81824" lon="2.15483">
        <ele>153</ele>
        <time>2026-06-01T10:41:56Z</time>
      </trkpt>
      <trkpt lat="48.81838" lon="2.15413">
        <ele>157</ele>
        <time>2026-06-01T10:42:07Z</time>
      </trkpt>
      <trkpt lat="48.81848" lon="2.15333">
        <ele>164</ele>
        <time>2026-06-01T10:42:20Z</time>
      </trkpt>
      <trkpt lat="48.81855" lon="2.15302">
        <ele>166</ele>
        <time>2026-06-01T10:42:25Z</time>
      </trkpt>
      <trkpt lat="48.81875" lon="2.15177">
        <ele>175</ele>
        <time>2026-06-01T10:42:45Z</time>
      </trkpt>
      <trkpt lat="48.81882" lon="2.15105">
        <ele>177</ele>
        <time>2026-06-01T10:42:56Z</time>
      </trkpt>
      <trkpt lat="48.81887" lon="2.1509">
        <ele>177</ele>
        <time>2026-06-01T10:42:58Z</time>
      </trkpt>
      <trkpt lat="48.81888" lon="2.15075">
        <ele>178</ele>
        <time>2026-06-01T10:43:01Z</time>
      </trkpt>
      <trkpt lat="48.81892" lon="2.15072">
        <ele>178</ele>
        <time>2026-06-01T10:43:02Z</time>
      </trkpt>
      <trkpt lat="48.81898" lon="2.15075">
        <ele>177</ele>
        <time>2026-06-01T10:43:03Z</time>
      </trkpt>
      <trkpt lat="48.81907" lon="2.15074">
        <ele>177</ele>
        <time>2026-06-01T10:43:05Z</time>
      </trkpt>
      <trkpt lat="48.81917" lon="2.15068">
        <ele>177</ele>
        <time>2026-06-01T10:43:08Z</time>
      </trkpt>
      <trkpt lat="48.81921" lon="2.15043">
        <ele>178</ele>
        <time>2026-06-01T10:43:12Z</time>
      </trkpt>
      <trkpt lat="48.81916" lon="2.15021">
        <ele>179</ele>
        <time>2026-06-01T10:43:15Z</time>
      </trkpt>
      <trkpt lat="48.8192" lon="2.15007">
        <ele>179</ele>
        <time>2026-06-01T10:43:18Z</time>
      </trkpt>
      <trkpt lat="48.81926" lon="2.15">
        <ele>178</ele>
        <time>2026-06-01T10:43:20Z</time>
      </trkpt>
      <trkpt lat="48.81935" lon="2.14997">
        <ele>178</ele>
        <time>2026-06-01T10:43:22Z</time>
      </trkpt>
      <trkpt lat="48.8198" lon="2.14992">
        <ele>175</ele>
        <time>2026-06-01T10:43:32Z</time>
      </trkpt>
      <trkpt lat="48.82009" lon="2.14985">
        <ele>172</ele>
        <time>2026-06-01T10:43:39Z</time>
      </trkpt>
      <trkpt lat="48.82076" lon="2.14985">
        <ele>168</ele>
        <time>2026-06-01T10:43:55Z</time>
      </trkpt>
      <trkpt lat="48.82103" lon="2.14978">
        <ele>166</ele>
        <time>2026-06-01T10:44:01Z</time>
      </trkpt>
      <trkpt lat="48.82143" lon="2.14977">
        <ele>163</ele>
        <time>2026-06-01T10:44:10Z</time>
      </trkpt>
      <trkpt lat="48.82151" lon="2.14974">
        <ele>163</ele>
        <time>2026-06-01T10:44:12Z</time>
      </trkpt>
      <trkpt lat="48.82172" lon="2.14932">
        <ele>158</ele>
        <time>2026-06-01T10:44:21Z</time>
      </trkpt>
      <trkpt lat="48.82233" lon="2.14772">
        <ele>150</ele>
        <time>2026-06-01T10:44:49Z</time>
      </trkpt>
      <trkpt lat="48.82238" lon="2.14761">
        <ele>150</ele>
        <time>2026-06-01T10:44:51Z</time>
      </trkpt>
      <trkpt lat="48.82251" lon="2.14753">
        <ele>149</ele>
        <time>2026-06-01T10:44:54Z</time>
      </trkpt>
      <trkpt lat="48.82288" lon="2.14748">
        <ele>151</ele>
        <time>2026-06-01T10:45:03Z</time>
      </trkpt>
      <trkpt lat="48.82303" lon="2.14749">
        <ele>152</ele>
        <time>2026-06-01T10:45:06Z</time>
      </trkpt>
      <trkpt lat="48.8232" lon="2.14743">
        <ele>152</ele>
        <time>2026-06-01T10:45:11Z</time>
      </trkpt>
      <trkpt lat="48.82355" lon="2.14741">
        <ele>155</ele>
        <time>2026-06-01T10:45:19Z</time>
      </trkpt>
      <trkpt lat="48.82367" lon="2.14737">
        <ele>156</ele>
        <time>2026-06-01T10:45:22Z</time>
      </trkpt>
      <trkpt lat="48.82435" lon="2.14735">
        <ele>162</ele>
        <time>2026-06-01T10:45:37Z</time>
      </trkpt>
      <trkpt lat="48.82475" lon="2.14731">
        <ele>166</ele>
        <time>2026-06-01T10:45:47Z</time>
      </trkpt>
      <trkpt lat="48.82488" lon="2.14727">
        <ele>167</ele>
        <time>2026-06-01T10:45:50Z</time>
      </trkpt>
      <trkpt lat="48.82498" lon="2.14728">
        <ele>168</ele>
        <time>2026-06-01T10:45:52Z</time>
      </trkpt>
      <trkpt lat="48.82536" lon="2.14723">
        <ele>167</ele>
        <time>2026-06-01T10:46:01Z</time>
      </trkpt>
      <trkpt lat="48.82572" lon="2.14723">
        <ele>167</ele>
        <time>2026-06-01T10:46:10Z</time>
      </trkpt>
      <trkpt lat="48.82578" lon="2.14721">
        <ele>166</ele>
        <time>2026-06-01T10:46:11Z</time>
      </trkpt>
      <trkpt lat="48.82582" lon="2.14713">
        <ele>165</ele>
        <time>2026-06-01T10:46:13Z</time>
      </trkpt>
      <trkpt lat="48.82581" lon="2.14657">
        <ele>160</ele>
        <time>2026-06-01T10:46:21Z</time>
      </trkpt>
      <trkpt lat="48.82578" lon="2.14627">
        <ele>158</ele>
        <time>2026-06-01T10:46:26Z</time>
      </trkpt>
      <trkpt lat="48.82577" lon="2.1453">
        <ele>150</ele>
        <time>2026-06-01T10:46:41Z</time>
      </trkpt>
      <trkpt lat="48.82567" lon="2.14368">
        <ele>143</ele>
        <time>2026-06-01T10:47:06Z</time>
      </trkpt>
      <trkpt lat="48.82569" lon="2.14334">
        <ele>142</ele>
        <time>2026-06-01T10:47:11Z</time>
      </trkpt>
      <trkpt lat="48.82565" lon="2.14307">
        <ele>141</ele>
        <time>2026-06-01T10:47:15Z</time>
      </trkpt>
      <trkpt lat="48.82572" lon="2.14288">
        <ele>141</ele>
        <time>2026-06-01T10:47:19Z</time>
      </trkpt>
      <trkpt lat="48.82624" lon="2.14293">
        <ele>145</ele>
        <time>2026-06-01T10:47:31Z</time>
      </trkpt>
      <trkpt lat="48.82661" lon="2.14284">
        <ele>148</ele>
        <time>2026-06-01T10:47:40Z</time>
      </trkpt>
      <trkpt lat="48.82687" lon="2.14285">
        <ele>150</ele>
        <time>2026-06-01T10:47:46Z</time>
      </trkpt>
      <trkpt lat="48.82719" lon="2.1428">
        <ele>151</ele>
        <time>2026-06-01T10:47:53Z</time>
      </trkpt>
      <trkpt lat="48.82767" lon="2.14288">
        <ele>155</ele>
        <time>2026-06-01T10:48:04Z</time>
      </trkpt>
      <trkpt lat="48.82784" lon="2.1428">
        <ele>157</ele>
        <time>2026-06-01T10:48:09Z</time>
      </trkpt>
      <trkpt lat="48.82807" lon="2.14275">
        <ele>158</ele>
        <time>2026-06-01T10:48:14Z</time>
      </trkpt>
      <trkpt lat="48.82854" lon="2.14257">
        <ele>162</ele>
        <time>2026-06-01T10:48:25Z</time>
      </trkpt>
      <trkpt lat="48.82901" lon="2.14232">
        <ele>163</ele>
        <time>2026-06-01T10:48:37Z</time>
      </trkpt>
      <trkpt lat="48.82914" lon="2.14223">
        <ele>163</ele>
        <time>2026-06-01T10:48:40Z</time>
      </trkpt>
      <trkpt lat="48.82925" lon="2.14205">
        <ele>163</ele>
        <time>2026-06-01T10:48:44Z</time>
      </trkpt>
      <trkpt lat="48.82932" lon="2.14199">
        <ele>163</ele>
        <time>2026-06-01T10:48:46Z</time>
      </trkpt>
      <trkpt lat="48.82977" lon="2.14212">
        <ele>168</ele>
        <time>2026-06-01T10:48:57Z</time>
      </trkpt>
      <trkpt lat="48.8299" lon="2.14221">
        <ele>169</ele>
        <time>2026-06-01T10:49:00Z</time>
      </trkpt>
      <trkpt lat="48.83035" lon="2.1422">
        <ele>173</ele>
        <time>2026-06-01T10:49:10Z</time>
      </trkpt>
      <trkpt lat="48.83069" lon="2.14228">
        <ele>176</ele>
        <time>2026-06-01T10:49:18Z</time>
      </trkpt>
      <trkpt lat="48.83127" lon="2.14246">
        <ele>178</ele>
        <time>2026-06-01T10:49:32Z</time>
      </trkpt>
      <trkpt lat="48.8315" lon="2.14248">
        <ele>178</ele>
        <time>2026-06-01T10:49:38Z</time>
      </trkpt>
      <trkpt lat="48.83168" lon="2.14255">
        <ele>178</ele>
        <time>2026-06-01T10:49:42Z</time>
      </trkpt>
      <trkpt lat="48.83181" lon="2.14274">
        <ele>179</ele>
        <time>2026-06-01T10:49:46Z</time>
      </trkpt>
      <trkpt lat="48.83194" lon="2.14272">
        <ele>179</ele>
        <time>2026-06-01T10:49:49Z</time>
      </trkpt>
      <trkpt lat="48.83208" lon="2.14273">
        <ele>180</ele>
        <time>2026-06-01T10:49:53Z</time>
      </trkpt>
      <trkpt lat="48.83253" lon="2.14281">
        <ele>181</ele>
        <time>2026-06-01T10:50:03Z</time>
      </trkpt>
      <trkpt lat="48.83326" lon="2.14287">
        <ele>182</ele>
        <time>2026-06-01T10:50:20Z</time>
      </trkpt>
      <trkpt lat="48.83374" lon="2.14296">
        <ele>182</ele>
        <time>2026-06-01T10:50:32Z</time>
      </trkpt>
      <trkpt lat="48.83426" lon="2.14294">
        <ele>182</ele>
        <time>2026-06-01T10:50:44Z</time>
      </trkpt>
      <trkpt lat="48.83525" lon="2.14305">
        <ele>180</ele>
        <time>2026-06-01T10:51:07Z</time>
      </trkpt>
      <trkpt lat="48.83638" lon="2.1431">
        <ele>174</ele>
        <time>2026-06-01T10:51:33Z</time>
      </trkpt>
      <trkpt lat="48.83677" lon="2.14319">
        <ele>172</ele>
        <time>2026-06-01T10:51:42Z</time>
      </trkpt>
      <trkpt lat="48.83685" lon="2.14318">
        <ele>172</ele>
        <time>2026-06-01T10:51:44Z</time>
      </trkpt>
      <trkpt lat="48.83691" lon="2.14314">
        <ele>172</ele>
        <time>2026-06-01T10:51:46Z</time>
      </trkpt>
      <trkpt lat="48.83712" lon="2.14312">
        <ele>172</ele>
        <time>2026-06-01T10:51:51Z</time>
      </trkpt>
      <trkpt lat="48.83829" lon="2.14322">
        <ele>169</ele>
        <time>2026-06-01T10:52:18Z</time>
      </trkpt>
      <trkpt lat="48.83844" lon="2.14315">
        <ele>168</ele>
        <time>2026-06-01T10:52:22Z</time>
      </trkpt>
      <trkpt lat="48.83856" lon="2.14316">
        <ele>166</ele>
        <time>2026-06-01T10:52:25Z</time>
      </trkpt>
      <trkpt lat="48.83851" lon="2.14319">
        <ele>167</ele>
        <time>2026-06-01T10:52:26Z</time>
      </trkpt>
      <trkpt lat="48.83846" lon="2.14317">
        <ele>168</ele>
        <time>2026-06-01T10:52:27Z</time>
      </trkpt>
      <trkpt lat="48.8384" lon="2.14319">
        <ele>168</ele>
        <time>2026-06-01T10:52:29Z</time>
      </trkpt>
      <trkpt lat="48.83836" lon="2.14333">
        <ele>169</ele>
        <time>2026-06-01T10:52:31Z</time>
      </trkpt>
      <trkpt lat="48.83817" lon="2.14508">
        <ele>171</ele>
        <time>2026-06-01T10:52:58Z</time>
      </trkpt>
      <trkpt lat="48.83819" lon="2.14538">
        <ele>171</ele>
        <time>2026-06-01T10:53:03Z</time>
      </trkpt>
      <trkpt lat="48.83813" lon="2.14604">
        <ele>170</ele>
        <time>2026-06-01T10:53:13Z</time>
      </trkpt>
      <trkpt lat="48.83842" lon="2.14992">
        <ele>153</ele>
        <time>2026-06-01T10:54:13Z</time>
      </trkpt>
      <trkpt lat="48.8385" lon="2.14998">
        <ele>154</ele>
        <time>2026-06-01T10:54:15Z</time>
      </trkpt>
      <trkpt lat="48.83914" lon="2.14964">
        <ele>161</ele>
        <time>2026-06-01T10:54:31Z</time>
      </trkpt>
      <trkpt lat="48.8393" lon="2.14959">
        <ele>162</ele>
        <time>2026-06-01T10:54:35Z</time>
      </trkpt>
      <trkpt lat="48.84011" lon="2.14923">
        <ele>169</ele>
        <time>2026-06-01T10:54:54Z</time>
      </trkpt>
      <trkpt lat="48.84033" lon="2.1491">
        <ele>170</ele>
        <time>2026-06-01T10:55:00Z</time>
      </trkpt>
      <trkpt lat="48.84039" lon="2.14911">
        <ele>170</ele>
        <time>2026-06-01T10:55:01Z</time>
      </trkpt>
      <trkpt lat="48.84043" lon="2.14921">
        <ele>171</ele>
        <time>2026-06-01T10:55:03Z</time>
      </trkpt>
      <trkpt lat="48.84035" lon="2.14991">
        <ele>171</ele>
        <time>2026-06-01T10:55:14Z</time>
      </trkpt>
      <trkpt lat="48.84033" lon="2.15033">
        <ele>171</ele>
        <time>2026-06-01T10:55:21Z</time>
      </trkpt>
      <trkpt lat="48.84035" lon="2.15075">
        <ele>171</ele>
        <time>2026-06-01T10:55:27Z</time>
      </trkpt>
      <trkpt lat="48.84043" lon="2.15161">
        <ele>172</ele>
        <time>2026-06-01T10:55:40Z</time>
      </trkpt>
      <trkpt lat="48.84057" lon="2.15264">
        <ele>171</ele>
        <time>2026-06-01T10:55:57Z</time>
      </trkpt>
      <trkpt lat="48.8406" lon="2.15274">
        <ele>171</ele>
        <time>2026-06-01T10:55:58Z</time>
      </trkpt>
      <trkpt lat="48.84066" lon="2.15283">
        <ele>171</ele>
        <time>2026-06-01T10:56:00Z</time>
      </trkpt>
      <trkpt lat="48.84127" lon="2.15277">
        <ele>174</ele>
        <time>2026-06-01T10:56:14Z</time>
      </trkpt>
      <trkpt lat="48.84203" lon="2.15278">
        <ele>174</ele>
        <time>2026-06-01T10:56:32Z</time>
      </trkpt>
      <trkpt lat="48.84217" lon="2.1528">
        <ele>174</ele>
        <time>2026-06-01T10:56:36Z</time>
      </trkpt>
      <trkpt lat="48.84239" lon="2.15276">
        <ele>173</ele>
        <time>2026-06-01T10:56:41Z</time>
      </trkpt>
      <trkpt lat="48.84309" lon="2.15276">
        <ele>172</ele>
        <time>2026-06-01T10:56:57Z</time>
      </trkpt>
      <trkpt lat="48.84338" lon="2.15273">
        <ele>172</ele>
        <time>2026-06-01T10:57:04Z</time>
      </trkpt>
      <trkpt lat="48.84376" lon="2.15275">
        <ele>172</ele>
        <time>2026-06-01T10:57:13Z</time>
      </trkpt>
      <trkpt lat="48.84415" lon="2.15274">
        <ele>172</ele>
        <time>2026-06-01T10:57:22Z</time>
      </trkpt>
      <trkpt lat="48.84425" lon="2.15276">
        <ele>172</ele>
        <time>2026-06-01T10:57:24Z</time>
      </trkpt>
      <trkpt lat="48.84456" lon="2.15309">
        <ele>171</ele>
        <time>2026-06-01T10:57:33Z</time>
      </trkpt>
      <trkpt lat="48.84469" lon="2.15356">
        <ele>171</ele>
        <time>2026-06-01T10:57:41Z</time>
      </trkpt>
      <trkpt lat="48.84512" lon="2.15469">
        <ele>169</ele>
        <time>2026-06-01T10:58:01Z</time>
      </trkpt>
      <trkpt lat="48.84521" lon="2.15499">
        <ele>169</ele>
        <time>2026-06-01T10:58:06Z</time>
      </trkpt>
      <trkpt lat="48.84544" lon="2.15538">
        <ele>168</ele>
        <time>2026-06-01T10:58:14Z</time>
      </trkpt>
      <trkpt lat="48.84563" lon="2.15559">
        <ele>168</ele>
        <time>2026-06-01T10:58:20Z</time>
      </trkpt>
      <trkpt lat="48.84573" lon="2.15565">
        <ele>168</ele>
        <time>2026-06-01T10:58:22Z</time>
      </trkpt>
      <trkpt lat="48.84607" lon="2.15572">
        <ele>168</ele>
        <time>2026-06-01T10:58:30Z</time>
      </trkpt>
      <trkpt lat="48.84679" lon="2.15599">
        <ele>167</ele>
        <time>2026-06-01T10:58:47Z</time>
      </trkpt>
      <trkpt lat="48.84682" lon="2.15609">
        <ele>167</ele>
        <time>2026-06-01T10:58:49Z</time>
      </trkpt>
      <trkpt lat="48.84683" lon="2.15634">
        <ele>166</ele>
        <time>2026-06-01T10:58:53Z</time>
      </trkpt>
      <trkpt lat="48.84681" lon="2.1575">
        <ele>166</ele>
        <time>2026-06-01T10:59:11Z</time>
      </trkpt>
      <trkpt lat="48.84683" lon="2.15827">
        <ele>167</ele>
        <time>2026-06-01T10:59:23Z</time>
      </trkpt>
      <trkpt lat="48.84682" lon="2.15844">
        <ele>167</ele>
        <time>2026-06-01T10:59:25Z</time>
      </trkpt>
      <trkpt lat="48.84673" lon="2.15872">
        <ele>166</ele>
        <time>2026-06-01T10:59:30Z</time>
      </trkpt>
      <trkpt lat="48.8468" lon="2.15882">
        <ele>166</ele>
        <time>2026-06-01T10:59:32Z</time>
      </trkpt>
      <trkpt lat="48.84685" lon="2.15883">
        <ele>166</ele>
        <time>2026-06-01T10:59:33Z</time>
      </trkpt>
      <trkpt lat="48.84696" lon="2.15874">
        <ele>166</ele>
        <time>2026-06-01T10:59:36Z</time>
      </trkpt>
      <trkpt lat="48.84712" lon="2.1587">
        <ele>166</ele>
        <time>2026-06-01T10:59:40Z</time>
      </trkpt>
      <trkpt lat="48.84744" lon="2.15848">
        <ele>165</ele>
        <time>2026-06-01T10:59:48Z</time>
      </trkpt>
      <trkpt lat="48.84751" lon="2.1585">
        <ele>165</ele>
        <time>2026-06-01T10:59:50Z</time>
      </trkpt>
      <trkpt lat="48.84754" lon="2.15854">
        <ele>165</ele>
        <time>2026-06-01T10:59:51Z</time>
      </trkpt>
      <trkpt lat="48.84755" lon="2.15968">
        <ele>166</ele>
        <time>2026-06-01T11:00:08Z</time>
      </trkpt>
      <trkpt lat="48.84757" lon="2.1599">
        <ele>167</ele>
        <time>2026-06-01T11:00:12Z</time>
      </trkpt>
      <trkpt lat="48.84755" lon="2.16007">
        <ele>167</ele>
        <time>2026-06-01T11:00:14Z</time>
      </trkpt>
      <trkpt lat="48.8476" lon="2.16047">
        <ele>167</ele>
        <time>2026-06-01T11:00:21Z</time>
      </trkpt>
      <trkpt lat="48.84791" lon="2.16209">
        <ele>169</ele>
        <time>2026-06-01T11:00:47Z</time>
      </trkpt>
      <trkpt lat="48.84798" lon="2.16226">
        <ele>168</ele>
        <time>2026-06-01T11:00:50Z</time>
      </trkpt>
      <trkpt lat="48.84797" lon="2.16249">
        <ele>168</ele>
        <time>2026-06-01T11:00:53Z</time>
      </trkpt>
      <trkpt lat="48.848" lon="2.16265">
        <ele>168</ele>
        <time>2026-06-01T11:00:56Z</time>
      </trkpt>
      <trkpt lat="48.84851" lon="2.16495">
        <ele>173</ele>
        <time>2026-06-01T11:01:33Z</time>
      </trkpt>
      <trkpt lat="48.84853" lon="2.16516">
        <ele>173</ele>
        <time>2026-06-01T11:01:36Z</time>
      </trkpt>
      <trkpt lat="48.84859" lon="2.16534">
        <ele>173</ele>
        <time>2026-06-01T11:01:40Z</time>
      </trkpt>
      <trkpt lat="48.84865" lon="2.16542">
        <ele>172</ele>
        <time>2026-06-01T11:01:41Z</time>
      </trkpt>
      <trkpt lat="48.84872" lon="2.16542">
        <ele>172</ele>
        <time>2026-06-01T11:01:43Z</time>
      </trkpt>
      <trkpt lat="48.84914" lon="2.16518">
        <ele>168</ele>
        <time>2026-06-01T11:01:53Z</time>
      </trkpt>
      <trkpt lat="48.84925" lon="2.16515">
        <ele>167</ele>
        <time>2026-06-01T11:01:56Z</time>
      </trkpt>
      <trkpt lat="48.85028" lon="2.16461">
        <ele>152</ele>
        <time>2026-06-01T11:02:22Z</time>
      </trkpt>
      <trkpt lat="48.85048" lon="2.16454">
        <ele>150</ele>
        <time>2026-06-01T11:02:26Z</time>
      </trkpt>
      <trkpt lat="48.85079" lon="2.16436">
        <ele>146</ele>
        <time>2026-06-01T11:02:34Z</time>
      </trkpt>
      <trkpt lat="48.8515" lon="2.16401">
        <ele>144</ele>
        <time>2026-06-01T11:02:52Z</time>
      </trkpt>
      <trkpt lat="48.85179" lon="2.16381">
        <ele>142</ele>
        <time>2026-06-01T11:02:59Z</time>
      </trkpt>
      <trkpt lat="48.85198" lon="2.16377">
        <ele>140</ele>
        <time>2026-06-01T11:03:03Z</time>
      </trkpt>
      <trkpt lat="48.85223" lon="2.16379">
        <ele>138</ele>
        <time>2026-06-01T11:03:09Z</time>
      </trkpt>
      <trkpt lat="48.85238" lon="2.16377">
        <ele>137</ele>
        <time>2026-06-01T11:03:13Z</time>
      </trkpt>
      <trkpt lat="48.85266" lon="2.16356">
        <ele>133</ele>
        <time>2026-06-01T11:03:20Z</time>
      </trkpt>
      <trkpt lat="48.85277" lon="2.16344">
        <ele>132</ele>
        <time>2026-06-01T11:03:23Z</time>
      </trkpt>
      <trkpt lat="48.85304" lon="2.16335">
        <ele>129</ele>
        <time>2026-06-01T11:03:30Z</time>
      </trkpt>
      <trkpt lat="48.8532" lon="2.16338">
        <ele>128</ele>
        <time>2026-06-01T11:03:33Z</time>
      </trkpt>
      <trkpt lat="48.85344" lon="2.16348">
        <ele>127</ele>
        <time>2026-06-01T11:03:39Z</time>
      </trkpt>
      <trkpt lat="48.85373" lon="2.16349">
        <ele>125</ele>
        <time>2026-06-01T11:03:46Z</time>
      </trkpt>
      <trkpt lat="48.85389" lon="2.1634">
        <ele>124</ele>
        <time>2026-06-01T11:03:50Z</time>
      </trkpt>
      <trkpt lat="48.8542" lon="2.16315">
        <ele>125</ele>
        <time>2026-06-01T11:03:58Z</time>
      </trkpt>
      <trkpt lat="48.85433" lon="2.16311">
        <ele>126</ele>
        <time>2026-06-01T11:04:01Z</time>
      </trkpt>
      <trkpt lat="48.85456" lon="2.16317">
        <ele>127</ele>
        <time>2026-06-01T11:04:07Z</time>
      </trkpt>
      <trkpt lat="48.85521" lon="2.1635">
        <ele>126</ele>
        <time>2026-06-01T11:04:23Z</time>
      </trkpt>
      <trkpt lat="48.85545" lon="2.16369">
        <ele>125</ele>
        <time>2026-06-01T11:04:29Z</time>
      </trkpt>
      <trkpt lat="48.85556" lon="2.16393">
        <ele>123</ele>
        <time>2026-06-01T11:04:34Z</time>
      </trkpt>
      <trkpt lat="48.85568" lon="2.16406">
        <ele>123</ele>
        <time>2026-06-01T11:04:37Z</time>
      </trkpt>
      <trkpt lat="48.85588" lon="2.16435">
        <ele>121</ele>
        <time>2026-06-01T11:04:44Z</time>
      </trkpt>
      <trkpt lat="48.85626" lon="2.16509">
        <ele>118</ele>
        <time>2026-06-01T11:04:58Z</time>
      </trkpt>
      <trkpt lat="48.85654" lon="2.16534">
        <ele>116</ele>
        <time>2026-06-01T11:05:06Z</time>
      </trkpt>
      <trkpt lat="48.85673" lon="2.16542">
        <ele>115</ele>
        <time>2026-06-01T11:05:10Z</time>
      </trkpt>
      <trkpt lat="48.85688" lon="2.16555">
        <ele>114</ele>
        <time>2026-06-01T11:05:14Z</time>
      </trkpt>
      <trkpt lat="48.85705" lon="2.16562">
        <ele>114</ele>
        <time>2026-06-01T11:05:18Z</time>
      </trkpt>
      <trkpt lat="48.85727" lon="2.16566">
        <ele>112</ele>
        <time>2026-06-01T11:05:23Z</time>
      </trkpt>
      <trkpt lat="48.8578" lon="2.16561">
        <ele>111</ele>
        <time>2026-06-01T11:05:36Z</time>
      </trkpt>
      <trkpt lat="48.85829" lon="2.16551">
        <ele>110</ele>
        <time>2026-06-01T11:05:47Z</time>
      </trkpt>
      <trkpt lat="48.85846" lon="2.16552">
        <ele>109</ele>
        <time>2026-06-01T11:05:51Z</time>
      </trkpt>
      <trkpt lat="48.85916" lon="2.16547">
        <ele>106</ele>
        <time>2026-06-01T11:06:08Z</time>
      </trkpt>
      <trkpt lat="48.85957" lon="2.16529">
        <ele>102</ele>
        <time>2026-06-01T11:06:18Z</time>
      </trkpt>
      <trkpt lat="48.85982" lon="2.16496">
        <ele>98</ele>
        <time>2026-06-01T11:06:25Z</time>
      </trkpt>
      <trkpt lat="48.86005" lon="2.16477">
        <ele>96</ele>
        <time>2026-06-01T11:06:32Z</time>
      </trkpt>
      <trkpt lat="48.86026" lon="2.1645">
        <ele>94</ele>
        <time>2026-06-01T11:06:38Z</time>
      </trkpt>
      <trkpt lat="48.86033" lon="2.1642">
        <ele>94</ele>
        <time>2026-06-01T11:06:43Z</time>
      </trkpt>
      <trkpt lat="48.86052" lon="2.16376">
        <ele>95</ele>
        <time>2026-06-01T11:06:51Z</time>
      </trkpt>
      <trkpt lat="48.86052" lon="2.16352">
        <ele>96</ele>
        <time>2026-06-01T11:06:55Z</time>
      </trkpt>
      <trkpt lat="48.86062" lon="2.16337">
        <ele>97</ele>
        <time>2026-06-01T11:06:58Z</time>
      </trkpt>
      <trkpt lat="48.8607" lon="2.16309">
        <ele>98</ele>
        <time>2026-06-01T11:07:03Z</time>
      </trkpt>
      <trkpt lat="48.86084" lon="2.16291">
        <ele>98</ele>
        <time>2026-06-01T11:07:07Z</time>
      </trkpt>
      <trkpt lat="48.8611" lon="2.1627">
        <ele>98</ele>
        <time>2026-06-01T11:07:14Z</time>
      </trkpt>
      <trkpt lat="48.86175" lon="2.16237">
        <ele>96</ele>
        <time>2026-06-01T11:07:30Z</time>
      </trkpt>
      <trkpt lat="48.86188" lon="2.16226">
        <ele>96</ele>
        <time>2026-06-01T11:07:33Z</time>
      </trkpt>
      <trkpt lat="48.86231" lon="2.16208">
        <ele>94</ele>
        <time>2026-06-01T11:07:44Z</time>
      </trkpt>
      <trkpt lat="48.86252" lon="2.16192">
        <ele>93</ele>
        <time>2026-06-01T11:07:49Z</time>
      </trkpt>
      <trkpt lat="48.86287" lon="2.16155">
        <ele>92</ele>
        <time>2026-06-01T11:07:59Z</time>
      </trkpt>
      <trkpt lat="48.86287" lon="2.16145">
        <ele>93</ele>
        <time>2026-06-01T11:08:01Z</time>
      </trkpt>
      <trkpt lat="48.86295" lon="2.16124">
        <ele>93</ele>
        <time>2026-06-01T11:08:04Z</time>
      </trkpt>
      <trkpt lat="48.86306" lon="2.16105">
        <ele>94</ele>
        <time>2026-06-01T11:08:08Z</time>
      </trkpt>
      <trkpt lat="48.86363" lon="2.16029">
        <ele>95</ele>
        <time>2026-06-01T11:08:26Z</time>
      </trkpt>
      <trkpt lat="48.86379" lon="2.16004">
        <ele>96</ele>
        <time>2026-06-01T11:08:31Z</time>
      </trkpt>
      <trkpt lat="48.86384" lon="2.16001">
        <ele>96</ele>
        <time>2026-06-01T11:08:33Z</time>
      </trkpt>
      <trkpt lat="48.86408" lon="2.16009">
        <ele>95</ele>
        <time>2026-06-01T11:08:38Z</time>
      </trkpt>
      <trkpt lat="48.86426" lon="2.16024">
        <ele>94</ele>
        <time>2026-06-01T11:08:43Z</time>
      </trkpt>
      <trkpt lat="48.86442" lon="2.16042">
        <ele>90</ele>
        <time>2026-06-01T11:08:48Z</time>
      </trkpt>
      <trkpt lat="48.86452" lon="2.16044">
        <ele>89</ele>
        <time>2026-06-01T11:08:50Z</time>
      </trkpt>
      <trkpt lat="48.86465" lon="2.16053">
        <ele>87</ele>
        <time>2026-06-01T11:08:53Z</time>
      </trkpt>
      <trkpt lat="48.86475" lon="2.16053">
        <ele>85</ele>
        <time>2026-06-01T11:08:56Z</time>
      </trkpt>
      <trkpt lat="48.86488" lon="2.16045">
        <ele>85</ele>
        <time>2026-06-01T11:08:59Z</time>
      </trkpt>
      <trkpt lat="48.86493" lon="2.16045">
        <ele>84</ele>
        <time>2026-06-01T11:09:00Z</time>
      </trkpt>
      <trkpt lat="48.86505" lon="2.16058">
        <ele>81</ele>
        <time>2026-06-01T11:09:04Z</time>
      </trkpt>
      <trkpt lat="48.86519" lon="2.16084">
        <ele>76</ele>
        <time>2026-06-01T11:09:09Z</time>
      </trkpt>
      <trkpt lat="48.86525" lon="2.16102">
        <ele>74</ele>
        <time>2026-06-01T11:09:12Z</time>
      </trkpt>
      <trkpt lat="48.86547" lon="2.16139">
        <ele>69</ele>
        <time>2026-06-01T11:09:20Z</time>
      </trkpt>
      <trkpt lat="48.86555" lon="2.16147">
        <ele>68</ele>
        <time>2026-06-01T11:09:22Z</time>
      </trkpt>
      <trkpt lat="48.86563" lon="2.16151">
        <ele>67</ele>
        <time>2026-06-01T11:09:24Z</time>
      </trkpt>
      <trkpt lat="48.86578" lon="2.16136">
        <ele>66</ele>
        <time>2026-06-01T11:09:28Z</time>
      </trkpt>
      <trkpt lat="48.86611" lon="2.16117">
        <ele>65</ele>
        <time>2026-06-01T11:09:36Z</time>
      </trkpt>
      <trkpt lat="48.86618" lon="2.16109">
        <ele>65</ele>
        <time>2026-06-01T11:09:38Z</time>
      </trkpt>
      <trkpt lat="48.86629" lon="2.16102">
        <ele>66</ele>
        <time>2026-06-01T11:09:41Z</time>
      </trkpt>
      <trkpt lat="48.86682" lon="2.16051">
        <ele>68</ele>
        <time>2026-06-01T11:09:56Z</time>
      </trkpt>
      <trkpt lat="48.86699" lon="2.16045">
        <ele>68</ele>
        <time>2026-06-01T11:10:00Z</time>
      </trkpt>
      <trkpt lat="48.86728" lon="2.16079">
        <ele>62</ele>
        <time>2026-06-01T11:10:08Z</time>
      </trkpt>
      <trkpt lat="48.86762" lon="2.16126">
        <ele>55</ele>
        <time>2026-06-01T11:10:19Z</time>
      </trkpt>
      <trkpt lat="48.86775" lon="2.16147">
        <ele>52</ele>
        <time>2026-06-01T11:10:23Z</time>
      </trkpt>
      <trkpt lat="48.86787" lon="2.16176">
        <ele>48</ele>
        <time>2026-06-01T11:10:29Z</time>
      </trkpt>
      <trkpt lat="48.86807" lon="2.16202">
        <ele>45</ele>
        <time>2026-06-01T11:10:35Z</time>
      </trkpt>
      <trkpt lat="48.86817" lon="2.16211">
        <ele>44</ele>
        <time>2026-06-01T11:10:38Z</time>
      </trkpt>
      <trkpt lat="48.86847" lon="2.16227">
        <ele>42</ele>
        <time>2026-06-01T11:10:45Z</time>
      </trkpt>
      <trkpt lat="48.86867" lon="2.16232">
        <ele>41</ele>
        <time>2026-06-01T11:10:50Z</time>
      </trkpt>
      <trkpt lat="48.86875" lon="2.16231">
        <ele>40</ele>
        <time>2026-06-01T11:10:52Z</time>
      </trkpt>
      <trkpt lat="48.86885" lon="2.16221">
        <ele>39</ele>
        <time>2026-06-01T11:10:54Z</time>
      </trkpt>
      <trkpt lat="48.8689" lon="2.1621">
        <ele>38</ele>
        <time>2026-06-01T11:10:56Z</time>
      </trkpt>
      <trkpt lat="48.8691" lon="2.16056">
        <ele>36</ele>
        <time>2026-06-01T11:11:21Z</time>
      </trkpt>
      <trkpt lat="48.86919" lon="2.16035">
        <ele>34</ele>
        <time>2026-06-01T11:11:24Z</time>
      </trkpt>
      <trkpt lat="48.86922" lon="2.16014">
        <ele>33</ele>
        <time>2026-06-01T11:11:28Z</time>
      </trkpt>
      <trkpt lat="48.86924" lon="2.15964">
        <ele>28</ele>
        <time>2026-06-01T11:11:35Z</time>
      </trkpt>
      <trkpt lat="48.86922" lon="2.15926">
        <ele>23</ele>
        <time>2026-06-01T11:11:41Z</time>
      </trkpt>
      <trkpt lat="48.86938" lon="2.15881">
        <ele>23</ele>
        <time>2026-06-01T11:11:49Z</time>
      </trkpt>
      <trkpt lat="48.86945" lon="2.15868">
        <ele>23</ele>
        <time>2026-06-01T11:11:52Z</time>
      </trkpt>
      <trkpt lat="48.86949" lon="2.15863">
        <ele>23</ele>
        <time>2026-06-01T11:11:53Z</time>
      </trkpt>
      <trkpt lat="48.8696" lon="2.15857">
        <ele>22</ele>
        <time>2026-06-01T11:11:56Z</time>
      </trkpt>
      <trkpt lat="48.86971" lon="2.15857">
        <ele>22</ele>
        <time>2026-06-01T11:11:58Z</time>
      </trkpt>
      <trkpt lat="48.86986" lon="2.1587">
        <ele>22</ele>
        <time>2026-06-01T11:12:02Z</time>
      </trkpt>
      <trkpt lat="48.87003" lon="2.15903">
        <ele>23</ele>
        <time>2026-06-01T11:12:09Z</time>
      </trkpt>
      <trkpt lat="48.87021" lon="2.15921">
        <ele>25</ele>
        <time>2026-06-01T11:12:14Z</time>
      </trkpt>
      <trkpt lat="48.87052" lon="2.15936">
        <ele>26</ele>
        <time>2026-06-01T11:12:21Z</time>
      </trkpt>
      <trkpt lat="48.87074" lon="2.15933">
        <ele>26</ele>
        <time>2026-06-01T11:12:26Z</time>
      </trkpt>
      <trkpt lat="48.87085" lon="2.15928">
        <ele>26</ele>
        <time>2026-06-01T11:12:29Z</time>
      </trkpt>
      <trkpt lat="48.871" lon="2.15917">
        <ele>24</ele>
        <time>2026-06-01T11:12:33Z</time>
      </trkpt>
      <trkpt lat="48.87146" lon="2.15864">
        <ele>21</ele>
        <time>2026-06-01T11:12:47Z</time>
      </trkpt>
      <trkpt lat="48.8719" lon="2.15823">
        <ele>22</ele>
        <time>2026-06-01T11:12:59Z</time>
      </trkpt>
      <trkpt lat="48.87265" lon="2.15787">
        <ele>26</ele>
        <time>2026-06-01T11:13:17Z</time>
      </trkpt>
      <trkpt lat="48.87273" lon="2.15778">
        <ele>26</ele>
        <time>2026-06-01T11:13:19Z</time>
      </trkpt>
      <trkpt lat="48.87279" lon="2.15766">
        <ele>26</ele>
        <time>2026-06-01T11:13:22Z</time>
      </trkpt>
      <trkpt lat="48.87287" lon="2.15744">
        <ele>26</ele>
        <time>2026-06-01T11:13:25Z</time>
      </trkpt>
      <trkpt lat="48.8729" lon="2.15728">
        <ele>26</ele>
        <time>2026-06-01T11:13:28Z</time>
      </trkpt>
      <trkpt lat="48.87293" lon="2.15694">
        <ele>26</ele>
        <time>2026-06-01T11:13:33Z</time>
      </trkpt>
      <trkpt lat="48.87286" lon="2.15634">
        <ele>27</ele>
        <time>2026-06-01T11:13:43Z</time>
      </trkpt>
      <trkpt lat="48.87287" lon="2.15612">
        <ele>26</ele>
        <time>2026-06-01T11:13:46Z</time>
      </trkpt>
      <trkpt lat="48.87288" lon="2.15606">
        <ele>26</ele>
        <time>2026-06-01T11:13:47Z</time>
      </trkpt>
      <trkpt lat="48.87298" lon="2.15596">
        <ele>26</ele>
        <time>2026-06-01T11:13:50Z</time>
      </trkpt>
      <trkpt lat="48.873" lon="2.15591">
        <ele>26</ele>
        <time>2026-06-01T11:13:51Z</time>
      </trkpt>
      <trkpt lat="48.87298" lon="2.15571">
        <ele>26</ele>
        <time>2026-06-01T11:13:54Z</time>
      </trkpt>
      <trkpt lat="48.87301" lon="2.15557">
        <ele>25</ele>
        <time>2026-06-01T11:13:56Z</time>
      </trkpt>
      <trkpt lat="48.87329" lon="2.15536">
        <ele>25</ele>
        <time>2026-06-01T11:14:03Z</time>
      </trkpt>
      <trkpt lat="48.87409" lon="2.15441">
        <ele>26</ele>
        <time>2026-06-01T11:14:27Z</time>
      </trkpt>
      <trkpt lat="48.87417" lon="2.15433">
        <ele>26</ele>
        <time>2026-06-01T11:14:29Z</time>
      </trkpt>
      <trkpt lat="48.87423" lon="2.15431">
        <ele>26</ele>
        <time>2026-06-01T11:14:31Z</time>
      </trkpt>
      <trkpt lat="48.87518" lon="2.15496">
        <ele>26</ele>
        <time>2026-06-01T11:14:55Z</time>
      </trkpt>
      <trkpt lat="48.87528" lon="2.15507">
        <ele>27</ele>
        <time>2026-06-01T11:14:58Z</time>
      </trkpt>
      <trkpt lat="48.87557" lon="2.15527">
        <ele>27</ele>
        <time>2026-06-01T11:15:05Z</time>
      </trkpt>
      <trkpt lat="48.87573" lon="2.15542">
        <ele>27</ele>
        <time>2026-06-01T11:15:10Z</time>
      </trkpt>
      <trkpt lat="48.87609" lon="2.15565">
        <ele>27</ele>
        <time>2026-06-01T11:15:19Z</time>
      </trkpt>
      <trkpt lat="48.87741" lon="2.15661">
        <ele>25</ele>
        <time>2026-06-01T11:15:53Z</time>
      </trkpt>
      <trkpt lat="48.87771" lon="2.15678">
        <ele>26</ele>
        <time>2026-06-01T11:16:01Z</time>
      </trkpt>
      <trkpt lat="48.87799" lon="2.15698">
        <ele>27</ele>
        <time>2026-06-01T11:16:08Z</time>
      </trkpt>
      <trkpt lat="48.87829" lon="2.15725">
        <ele>26</ele>
        <time>2026-06-01T11:16:16Z</time>
      </trkpt>
      <trkpt lat="48.87896" lon="2.15763">
        <ele>25</ele>
        <time>2026-06-01T11:16:33Z</time>
      </trkpt>
      <trkpt lat="48.87983" lon="2.15826">
        <ele>28</ele>
        <time>2026-06-01T11:16:55Z</time>
      </trkpt>
      <trkpt lat="48.88003" lon="2.1585">
        <ele>29</ele>
        <time>2026-06-01T11:17:01Z</time>
      </trkpt>
      <trkpt lat="48.8802" lon="2.15875">
        <ele>29</ele>
        <time>2026-06-01T11:17:07Z</time>
      </trkpt>
      <trkpt lat="48.88031" lon="2.15896">
        <ele>29</ele>
        <time>2026-06-01T11:17:11Z</time>
      </trkpt>
      <trkpt lat="48.88094" lon="2.16072">
        <ele>26</ele>
        <time>2026-06-01T11:17:41Z</time>
      </trkpt>
      <trkpt lat="48.88098" lon="2.16085">
        <ele>26</ele>
        <time>2026-06-01T11:17:44Z</time>
      </trkpt>
      <trkpt lat="48.88099" lon="2.16103">
        <ele>25</ele>
        <time>2026-06-01T11:17:46Z</time>
      </trkpt>
      <trkpt lat="48.88121" lon="2.16184">
        <ele>24</ele>
        <time>2026-06-01T11:18:00Z</time>
      </trkpt>
      <trkpt lat="48.88144" lon="2.16239">
        <ele>25</ele>
        <time>2026-06-01T11:18:10Z</time>
      </trkpt>
      <trkpt lat="48.88202" lon="2.16325">
        <ele>26</ele>
        <time>2026-06-01T11:18:29Z</time>
      </trkpt>
      <trkpt lat="48.88233" lon="2.16361">
        <ele>27</ele>
        <time>2026-06-01T11:18:38Z</time>
      </trkpt>
      <trkpt lat="48.88269" lon="2.16391">
        <ele>27</ele>
        <time>2026-06-01T11:18:48Z</time>
      </trkpt>
      <trkpt lat="48.88303" lon="2.16413">
        <ele>26</ele>
        <time>2026-06-01T11:18:56Z</time>
      </trkpt>
      <trkpt lat="48.88334" lon="2.16428">
        <ele>25</ele>
        <time>2026-06-01T11:19:04Z</time>
      </trkpt>
      <trkpt lat="48.88387" lon="2.16443">
        <ele>26</ele>
        <time>2026-06-01T11:19:16Z</time>
      </trkpt>
      <trkpt lat="48.88429" lon="2.16448">
        <ele>27</ele>
        <time>2026-06-01T11:19:26Z</time>
      </trkpt>
      <trkpt lat="48.88475" lon="2.1644">
        <ele>26</ele>
        <time>2026-06-01T11:19:37Z</time>
      </trkpt>
      <trkpt lat="48.88526" lon="2.16422">
        <ele>26</ele>
        <time>2026-06-01T11:19:49Z</time>
      </trkpt>
      <trkpt lat="48.88539" lon="2.16421">
        <ele>26</ele>
        <time>2026-06-01T11:19:52Z</time>
      </trkpt>
      <trkpt lat="48.88552" lon="2.16411">
        <ele>26</ele>
        <time>2026-06-01T11:19:56Z</time>
      </trkpt>
      <trkpt lat="48.88567" lon="2.16394">
        <ele>25</ele>
        <time>2026-06-01T11:20:00Z</time>
      </trkpt>
      <trkpt lat="48.88572" lon="2.16392">
        <ele>24</ele>
        <time>2026-06-01T11:20:01Z</time>
      </trkpt>
      <trkpt lat="48.88581" lon="2.16394">
        <ele>24</ele>
        <time>2026-06-01T11:20:03Z</time>
      </trkpt>
      <trkpt lat="48.88594" lon="2.16402">
        <ele>25</ele>
        <time>2026-06-01T11:20:07Z</time>
      </trkpt>
      <trkpt lat="48.88622" lon="2.16393">
        <ele>26</ele>
        <time>2026-06-01T11:20:13Z</time>
      </trkpt>
      <trkpt lat="48.8864" lon="2.16393">
        <ele>26</ele>
        <time>2026-06-01T11:20:18Z</time>
      </trkpt>
      <trkpt lat="48.88723" lon="2.16382">
        <ele>25</ele>
        <time>2026-06-01T11:20:37Z</time>
      </trkpt>
      <trkpt lat="48.88755" lon="2.16383">
        <ele>25</ele>
        <time>2026-06-01T11:20:44Z</time>
      </trkpt>
      <trkpt lat="48.88776" lon="2.16389">
        <ele>25</ele>
        <time>2026-06-01T11:20:49Z</time>
      </trkpt>
      <trkpt lat="48.88779" lon="2.16395">
        <ele>25</ele>
        <time>2026-06-01T11:20:51Z</time>
      </trkpt>
      <trkpt lat="48.88778" lon="2.16416">
        <ele>26</ele>
        <time>2026-06-01T11:20:54Z</time>
      </trkpt>
      <trkpt lat="48.88772" lon="2.16433">
        <ele>26</ele>
        <time>2026-06-01T11:20:57Z</time>
      </trkpt>
      <trkpt lat="48.88762" lon="2.1648">
        <ele>27</ele>
        <time>2026-06-01T11:21:04Z</time>
      </trkpt>
      <trkpt lat="48.88762" lon="2.16488">
        <ele>27</ele>
        <time>2026-06-01T11:21:06Z</time>
      </trkpt>
      <trkpt lat="48.88766" lon="2.16489">
        <ele>28</ele>
        <time>2026-06-01T11:21:07Z</time>
      </trkpt>
      <trkpt lat="48.88788" lon="2.16452">
        <ele>29</ele>
        <time>2026-06-01T11:21:14Z</time>
      </trkpt>
      <trkpt lat="48.88797" lon="2.16417">
        <ele>27</ele>
        <time>2026-06-01T11:21:20Z</time>
      </trkpt>
      <trkpt lat="48.88825" lon="2.16265">
        <ele>20</ele>
        <time>2026-06-01T11:21:44Z</time>
      </trkpt>
      <trkpt lat="48.88822" lon="2.16245">
        <ele>20</ele>
        <time>2026-06-01T11:21:47Z</time>
      </trkpt>
      <trkpt lat="48.88837" lon="2.1619">
        <ele>21</ele>
        <time>2026-06-01T11:21:57Z</time>
      </trkpt>
      <trkpt lat="48.88874" lon="2.15985">
        <ele>31</ele>
        <time>2026-06-01T11:22:29Z</time>
      </trkpt>
      <trkpt lat="48.88876" lon="2.15967">
        <ele>32</ele>
        <time>2026-06-01T11:22:32Z</time>
      </trkpt>
      <trkpt lat="48.88874" lon="2.15955">
        <ele>32</ele>
        <time>2026-06-01T11:22:34Z</time>
      </trkpt>
      <trkpt lat="48.88871" lon="2.15952">
        <ele>32</ele>
        <time>2026-06-01T11:22:35Z</time>
      </trkpt>
      <trkpt lat="48.88865" lon="2.15954">
        <ele>32</ele>
        <time>2026-06-01T11:22:36Z</time>
      </trkpt>
      <trkpt lat="48.88858" lon="2.15948">
        <ele>32</ele>
        <time>2026-06-01T11:22:38Z</time>
      </trkpt>
      <trkpt lat="48.8885" lon="2.15945">
        <ele>32</ele>
        <time>2026-06-01T11:22:40Z</time>
      </trkpt>
      <trkpt lat="48.88837" lon="2.15951">
        <ele>31</ele>
        <time>2026-06-01T11:22:43Z</time>
      </trkpt>
      <trkpt lat="48.88829" lon="2.15973">
        <ele>30</ele>
        <time>2026-06-01T11:22:47Z</time>
      </trkpt>
      <trkpt lat="48.88831" lon="2.15984">
        <ele>29</ele>
        <time>2026-06-01T11:22:49Z</time>
      </trkpt>
      <trkpt lat="48.88836" lon="2.15991">
        <ele>29</ele>
        <time>2026-06-01T11:22:50Z</time>
      </trkpt>
      <trkpt lat="48.88836" lon="2.15997">
        <ele>28</ele>
        <time>2026-06-01T11:22:51Z</time>
      </trkpt>
      <trkpt lat="48.88834" lon="2.15999">
        <ele>28</ele>
        <time>2026-06-01T11:22:52Z</time>
      </trkpt>
      <trkpt lat="48.88828" lon="2.15995">
        <ele>28</ele>
        <time>2026-06-01T11:22:53Z</time>
      </trkpt>
      <trkpt lat="48.88822" lon="2.16001">
        <ele>28</ele>
        <time>2026-06-01T11:22:55Z</time>
      </trkpt>
      <trkpt lat="48.88822" lon="2.16005">
        <ele>28</ele>
        <time>2026-06-01T11:22:56Z</time>
      </trkpt>
      <trkpt lat="48.88831" lon="2.16018">
        <ele>27</ele>
        <time>2026-06-01T11:22:59Z</time>
      </trkpt>
      <trkpt lat="48.88895" lon="2.16058">
        <ele>27</ele>
        <time>2026-06-01T11:23:15Z</time>
      </trkpt>
      <trkpt lat="48.88968" lon="2.16094">
        <ele>28</ele>
        <time>2026-06-01T11:23:33Z</time>
      </trkpt>
      <trkpt lat="48.88991" lon="2.16096">
        <ele>29</ele>
        <time>2026-06-01T11:23:38Z</time>
      </trkpt>
      <trkpt lat="48.89029" lon="2.16111">
        <ele>29</ele>
        <time>2026-06-01T11:23:47Z</time>
      </trkpt>
      <trkpt lat="48.89048" lon="2.16112">
        <ele>29</ele>
        <time>2026-06-01T11:23:52Z</time>
      </trkpt>
      <trkpt lat="48.89085" lon="2.16125">
        <ele>29</ele>
        <time>2026-06-01T11:24:00Z</time>
      </trkpt>
      <trkpt lat="48.89115" lon="2.16132">
        <ele>29</ele>
        <time>2026-06-01T11:24:08Z</time>
      </trkpt>
      <trkpt lat="48.89154" lon="2.16148">
        <ele>27</ele>
        <time>2026-06-01T11:24:17Z</time>
      </trkpt>
      <trkpt lat="48.89213" lon="2.16167">
        <ele>28</ele>
        <time>2026-06-01T11:24:31Z</time>
      </trkpt>
      <trkpt lat="48.89361" lon="2.16247">
        <ele>28</ele>
        <time>2026-06-01T11:25:08Z</time>
      </trkpt>
      <trkpt lat="48.89394" lon="2.16261">
        <ele>29</ele>
        <time>2026-06-01T11:25:16Z</time>
      </trkpt>
      <trkpt lat="48.89405" lon="2.16271">
        <ele>29</ele>
        <time>2026-06-01T11:25:19Z</time>
      </trkpt>
      <trkpt lat="48.89443" lon="2.1629">
        <ele>28</ele>
        <time>2026-06-01T11:25:28Z</time>
      </trkpt>
      <trkpt lat="48.89479" lon="2.16314">
        <ele>27</ele>
        <time>2026-06-01T11:25:37Z</time>
      </trkpt>
      <trkpt lat="48.89507" lon="2.16337">
        <ele>25</ele>
        <time>2026-06-01T11:25:45Z</time>
      </trkpt>
      <trkpt lat="48.89578" lon="2.16414">
        <ele>24</ele>
        <time>2026-06-01T11:26:05Z</time>
      </trkpt>
      <trkpt lat="48.89621" lon="2.16465">
        <ele>24</ele>
        <time>2026-06-01T11:26:18Z</time>
      </trkpt>
      <trkpt lat="48.89648" lon="2.16502">
        <ele>25</ele>
        <time>2026-06-01T11:26:26Z</time>
      </trkpt>
      <trkpt lat="48.89678" lon="2.1653">
        <ele>25</ele>
        <time>2026-06-01T11:26:34Z</time>
      </trkpt>
      <trkpt lat="48.89695" lon="2.16554">
        <ele>25</ele>
        <time>2026-06-01T11:26:40Z</time>
      </trkpt>
      <trkpt lat="48.89733" lon="2.16596">
        <ele>24</ele>
        <time>2026-06-01T11:26:51Z</time>
      </trkpt>
      <trkpt lat="48.89745" lon="2.16615">
        <ele>23</ele>
        <time>2026-06-01T11:26:55Z</time>
      </trkpt>
      <trkpt lat="48.89826" lon="2.16714">
        <ele>26</ele>
        <time>2026-06-01T11:27:19Z</time>
      </trkpt>
      <trkpt lat="48.89841" lon="2.16729">
        <ele>27</ele>
        <time>2026-06-01T11:27:23Z</time>
      </trkpt>
      <trkpt lat="48.89916" lon="2.16823">
        <ele>28</ele>
        <time>2026-06-01T11:27:46Z</time>
      </trkpt>
      <trkpt lat="48.89945" lon="2.16853">
        <ele>29</ele>
        <time>2026-06-01T11:27:54Z</time>
      </trkpt>
      <trkpt lat="48.89964" lon="2.1688">
        <ele>29</ele>
        <time>2026-06-01T11:28:00Z</time>
      </trkpt>
      <trkpt lat="48.90047" lon="2.16982">
        <ele>27</ele>
        <time>2026-06-01T11:28:25Z</time>
      </trkpt>
      <trkpt lat="48.90073" lon="2.17018">
        <ele>27</ele>
        <time>2026-06-01T11:28:33Z</time>
      </trkpt>
      <trkpt lat="48.90111" lon="2.17063">
        <ele>28</ele>
        <time>2026-06-01T11:28:45Z</time>
      </trkpt>
      <trkpt lat="48.90159" lon="2.17145">
        <ele>27</ele>
        <time>2026-06-01T11:29:02Z</time>
      </trkpt>
      <trkpt lat="48.90171" lon="2.17171">
        <ele>26</ele>
        <time>2026-06-01T11:29:06Z</time>
      </trkpt>
      <trkpt lat="48.90191" lon="2.17199">
        <ele>27</ele>
        <time>2026-06-01T11:29:13Z</time>
      </trkpt>
      <trkpt lat="48.90213" lon="2.17243">
        <ele>27</ele>
        <time>2026-06-01T11:29:21Z</time>
      </trkpt>
      <trkpt lat="48.90234" lon="2.17273">
        <ele>27</ele>
        <time>2026-06-01T11:29:28Z</time>
      </trkpt>
      <trkpt lat="48.90248" lon="2.17301">
        <ele>27</ele>
        <time>2026-06-01T11:29:33Z</time>
      </trkpt>
      <trkpt lat="48.90266" lon="2.17329">
        <ele>28</ele>
        <time>2026-06-01T11:29:39Z</time>
      </trkpt>
      <trkpt lat="48.90292" lon="2.1738">
        <ele>28</ele>
        <time>2026-06-01T11:29:49Z</time>
      </trkpt>
      <trkpt lat="48.90325" lon="2.17428">
        <ele>28</ele>
        <time>2026-06-01T11:30:00Z</time>
      </trkpt>
      <trkpt lat="48.90344" lon="2.17491">
        <ele>27</ele>
        <time>2026-06-01T11:30:11Z</time>
      </trkpt>
      <trkpt lat="48.90388" lon="2.17599">
        <ele>29</ele>
        <time>2026-06-01T11:30:30Z</time>
      </trkpt>
      <trkpt lat="48.90405" lon="2.17663">
        <ele>25</ele>
        <time>2026-06-01T11:30:41Z</time>
      </trkpt>
      <trkpt lat="48.90441" lon="2.17774">
        <ele>22</ele>
        <time>2026-06-01T11:31:00Z</time>
      </trkpt>
      <trkpt lat="48.9045" lon="2.17795">
        <ele>22</ele>
        <time>2026-06-01T11:31:04Z</time>
      </trkpt>
      <trkpt lat="48.90496" lon="2.17948">
        <ele>23</ele>
        <time>2026-06-01T11:31:29Z</time>
      </trkpt>
      <trkpt lat="48.90502" lon="2.17962">
        <ele>22</ele>
        <time>2026-06-01T11:31:32Z</time>
      </trkpt>
      <trkpt lat="48.90526" lon="2.1805">
        <ele>20</ele>
        <time>2026-06-01T11:31:47Z</time>
      </trkpt>
      <trkpt lat="48.90541" lon="2.18077">
        <ele>20</ele>
        <time>2026-06-01T11:31:52Z</time>
      </trkpt>
      <trkpt lat="48.90543" lon="2.1809">
        <ele>20</ele>
        <time>2026-06-01T11:31:54Z</time>
      </trkpt>
      <trkpt lat="48.90555" lon="2.18122">
        <ele>22</ele>
        <time>2026-06-01T11:32:00Z</time>
      </trkpt>
      <trkpt lat="48.90571" lon="2.18187">
        <ele>24</ele>
        <time>2026-06-01T11:32:10Z</time>
      </trkpt>
      <trkpt lat="48.90583" lon="2.18253">
        <ele>26</ele>
        <time>2026-06-01T11:32:21Z</time>
      </trkpt>
      <trkpt lat="48.9059" lon="2.18323">
        <ele>27</ele>
        <time>2026-06-01T11:32:32Z</time>
      </trkpt>
      <trkpt lat="48.90591" lon="2.18441">
        <ele>30</ele>
        <time>2026-06-01T11:32:50Z</time>
      </trkpt>
      <trkpt lat="48.90589" lon="2.18499">
        <ele>31</ele>
        <time>2026-06-01T11:32:59Z</time>
      </trkpt>
      <trkpt lat="48.90584" lon="2.18532">
        <ele>28</ele>
        <time>2026-06-01T11:33:04Z</time>
      </trkpt>
      <trkpt lat="48.90586" lon="2.18569">
        <ele>24</ele>
        <time>2026-06-01T11:33:10Z</time>
      </trkpt>
      <trkpt lat="48.90614" lon="2.1873">
        <ele>32</ele>
        <time>2026-06-01T11:33:35Z</time>
      </trkpt>
      <trkpt lat="48.90632" lon="2.1881">
        <ele>29</ele>
        <time>2026-06-01T11:33:48Z</time>
      </trkpt>
      <trkpt lat="48.90651" lon="2.1888">
        <ele>27</ele>
        <time>2026-06-01T11:34:00Z</time>
      </trkpt>
      <trkpt lat="48.90695" lon="2.1899">
        <ele>26</ele>
        <time>2026-06-01T11:34:20Z</time>
      </trkpt>
      <trkpt lat="48.90738" lon="2.19085">
        <ele>23</ele>
        <time>2026-06-01T11:34:37Z</time>
      </trkpt>
      <trkpt lat="48.90769" lon="2.1915">
        <ele>28</ele>
        <time>2026-06-01T11:34:50Z</time>
      </trkpt>
      <trkpt lat="48.90785" lon="2.19172">
        <ele>29</ele>
        <time>2026-06-01T11:34:55Z</time>
      </trkpt>
      <trkpt lat="48.9079" lon="2.19194">
        <ele>28</ele>
        <time>2026-06-01T11:34:58Z</time>
      </trkpt>
      <trkpt lat="48.90797" lon="2.1921">
        <ele>26</ele>
        <time>2026-06-01T11:35:01Z</time>
      </trkpt>
      <trkpt lat="48.90819" lon="2.19248">
        <ele>22</ele>
        <time>2026-06-01T11:35:09Z</time>
      </trkpt>
      <trkpt lat="48.90859" lon="2.19333">
        <ele>19</ele>
        <time>2026-06-01T11:35:25Z</time>
      </trkpt>
      <trkpt lat="48.90916" lon="2.19498">
        <ele>25</ele>
        <time>2026-06-01T11:35:54Z</time>
      </trkpt>
      <trkpt lat="48.90932" lon="2.19525">
        <ele>24</ele>
        <time>2026-06-01T11:35:59Z</time>
      </trkpt>
      <trkpt lat="48.90949" lon="2.19569">
        <ele>24</ele>
        <time>2026-06-01T11:36:07Z</time>
      </trkpt>
      <trkpt lat="48.90981" lon="2.19672">
        <ele>24</ele>
        <time>2026-06-01T11:36:25Z</time>
      </trkpt>
      <trkpt lat="48.90996" lon="2.19704">
        <ele>26</ele>
        <time>2026-06-01T11:36:31Z</time>
      </trkpt>
      <trkpt lat="48.91004" lon="2.19741">
        <ele>26</ele>
        <time>2026-06-01T11:36:37Z</time>
      </trkpt>
      <trkpt lat="48.91038" lon="2.19823">
        <ele>26</ele>
        <time>2026-06-01T11:36:51Z</time>
      </trkpt>
      <trkpt lat="48.91051" lon="2.19867">
        <ele>25</ele>
        <time>2026-06-01T11:36:59Z</time>
      </trkpt>
      <trkpt lat="48.9109" lon="2.19971">
        <ele>27</ele>
        <time>2026-06-01T11:37:17Z</time>
      </trkpt>
      <trkpt lat="48.91094" lon="2.19975">
        <ele>27</ele>
        <time>2026-06-01T11:37:18Z</time>
      </trkpt>
      <trkpt lat="48.91107" lon="2.2001">
        <ele>29</ele>
        <time>2026-06-01T11:37:24Z</time>
      </trkpt>
      <trkpt lat="48.91147" lon="2.20099">
        <ele>24</ele>
        <time>2026-06-01T11:37:41Z</time>
      </trkpt>
      <trkpt lat="48.91179" lon="2.20159">
        <ele>24</ele>
        <time>2026-06-01T11:37:53Z</time>
      </trkpt>
      <trkpt lat="48.91196" lon="2.20202">
        <ele>27</ele>
        <time>2026-06-01T11:38:01Z</time>
      </trkpt>
      <trkpt lat="48.91207" lon="2.20217">
        <ele>27</ele>
        <time>2026-06-01T11:38:04Z</time>
      </trkpt>
      <trkpt lat="48.9121" lon="2.20231">
        <ele>28</ele>
        <time>2026-06-01T11:38:06Z</time>
      </trkpt>
      <trkpt lat="48.91224" lon="2.20243">
        <ele>28</ele>
        <time>2026-06-01T11:38:10Z</time>
      </trkpt>
      <trkpt lat="48.91245" lon="2.2027">
        <ele>27</ele>
        <time>2026-06-01T11:38:16Z</time>
      </trkpt>
      <trkpt lat="48.91275" lon="2.20326">
        <ele>25</ele>
        <time>2026-06-01T11:38:28Z</time>
      </trkpt>
      <trkpt lat="48.9131" lon="2.20384">
        <ele>25</ele>
        <time>2026-06-01T11:38:40Z</time>
      </trkpt>
      <trkpt lat="48.91371" lon="2.20499">
        <ele>23</ele>
        <time>2026-06-01T11:39:02Z</time>
      </trkpt>
      <trkpt lat="48.91411" lon="2.20597">
        <ele>27</ele>
        <time>2026-06-01T11:39:20Z</time>
      </trkpt>
      <trkpt lat="48.91418" lon="2.20622">
        <ele>27</ele>
        <time>2026-06-01T11:39:24Z</time>
      </trkpt>
      <trkpt lat="48.91427" lon="2.20642">
        <ele>28</ele>
        <time>2026-06-01T11:39:28Z</time>
      </trkpt>
      <trkpt lat="48.91449" lon="2.20718">
        <ele>27</ele>
        <time>2026-06-01T11:39:41Z</time>
      </trkpt>
      <trkpt lat="48.91514" lon="2.20907">
        <ele>28</ele>
        <time>2026-06-01T11:40:13Z</time>
      </trkpt>
      <trkpt lat="48.91564" lon="2.21019">
        <ele>26</ele>
        <time>2026-06-01T11:40:34Z</time>
      </trkpt>
      <trkpt lat="48.91754" lon="2.21338">
        <ele>27</ele>
        <time>2026-06-01T11:41:40Z</time>
      </trkpt>
      <trkpt lat="48.91779" lon="2.21388">
        <ele>27</ele>
        <time>2026-06-01T11:41:50Z</time>
      </trkpt>
      <trkpt lat="48.91847" lon="2.21507">
        <ele>28</ele>
        <time>2026-06-01T11:42:14Z</time>
      </trkpt>
      <trkpt lat="48.91891" lon="2.21572">
        <ele>25</ele>
        <time>2026-06-01T11:42:28Z</time>
      </trkpt>
      <trkpt lat="48.91982" lon="2.21696">
        <ele>27</ele>
        <time>2026-06-01T11:42:57Z</time>
      </trkpt>
      <trkpt lat="48.92077" lon="2.21839">
        <ele>25</ele>
        <time>2026-06-01T11:43:28Z</time>
      </trkpt>
      <trkpt lat="48.9209" lon="2.21873">
        <ele>25</ele>
        <time>2026-06-01T11:43:34Z</time>
      </trkpt>
      <trkpt lat="48.92158" lon="2.21992">
        <ele>25</ele>
        <time>2026-06-01T11:43:58Z</time>
      </trkpt>
      <trkpt lat="48.92171" lon="2.22008">
        <ele>25</ele>
        <time>2026-06-01T11:44:02Z</time>
      </trkpt>
      <trkpt lat="48.92193" lon="2.2202">
        <ele>26</ele>
        <time>2026-06-01T11:44:08Z</time>
      </trkpt>
      <trkpt lat="48.92201" lon="2.22022">
        <ele>27</ele>
        <time>2026-06-01T11:44:10Z</time>
      </trkpt>
      <trkpt lat="48.92208" lon="2.22028">
        <ele>27</ele>
        <time>2026-06-01T11:44:12Z</time>
      </trkpt>
      <trkpt lat="48.92225" lon="2.22052">
        <ele>28</ele>
        <time>2026-06-01T11:44:17Z</time>
      </trkpt>
      <trkpt lat="48.92229" lon="2.22053">
        <ele>28</ele>
        <time>2026-06-01T11:44:18Z</time>
      </trkpt>
      <trkpt lat="48.92232" lon="2.22051">
        <ele>28</ele>
        <time>2026-06-01T11:44:19Z</time>
      </trkpt>
      <trkpt lat="48.92232" lon="2.22042">
        <ele>28</ele>
        <time>2026-06-01T11:44:20Z</time>
      </trkpt>
      <trkpt lat="48.9221" lon="2.21995">
        <ele>27</ele>
        <time>2026-06-01T11:44:29Z</time>
      </trkpt>
      <trkpt lat="48.92198" lon="2.21979">
        <ele>26</ele>
        <time>2026-06-01T11:44:33Z</time>
      </trkpt>
      <trkpt lat="48.92186" lon="2.2195">
        <ele>26</ele>
        <time>2026-06-01T11:44:38Z</time>
      </trkpt>
      <trkpt lat="48.92183" lon="2.21949">
        <ele>26</ele>
        <time>2026-06-01T11:44:39Z</time>
      </trkpt>
      <trkpt lat="48.92176" lon="2.21956">
        <ele>26</ele>
        <time>2026-06-01T11:44:41Z</time>
      </trkpt>
      <trkpt lat="48.92151" lon="2.21946">
        <ele>26</ele>
        <time>2026-06-01T11:44:47Z</time>
      </trkpt>
      <trkpt lat="48.92122" lon="2.21982">
        <ele>26</ele>
        <time>2026-06-01T11:44:55Z</time>
      </trkpt>
      <trkpt lat="48.92016" lon="2.22133">
        <ele>27</ele>
        <time>2026-06-01T11:45:29Z</time>
      </trkpt>
      <trkpt lat="48.91992" lon="2.22171">
        <ele>28</ele>
        <time>2026-06-01T11:45:37Z</time>
      </trkpt>
      <trkpt lat="48.91964" lon="2.22206">
        <ele>29</ele>
        <time>2026-06-01T11:45:46Z</time>
      </trkpt>
      <trkpt lat="48.91925" lon="2.22264">
        <ele>30</ele>
        <time>2026-06-01T11:45:59Z</time>
      </trkpt>
      <trkpt lat="48.91922" lon="2.22281">
        <ele>30</ele>
        <time>2026-06-01T11:46:01Z</time>
      </trkpt>
      <trkpt lat="48.91928" lon="2.22288">
        <ele>29</ele>
        <time>2026-06-01T11:46:03Z</time>
      </trkpt>
      <trkpt lat="48.91935" lon="2.22285">
        <ele>29</ele>
        <time>2026-06-01T11:46:05Z</time>
      </trkpt>
      <trkpt lat="48.9194" lon="2.22278">
        <ele>30</ele>
        <time>2026-06-01T11:46:06Z</time>
      </trkpt>
      <trkpt lat="48.91942" lon="2.22267">
        <ele>30</ele>
        <time>2026-06-01T11:46:08Z</time>
      </trkpt>
      <trkpt lat="48.91956" lon="2.22259">
        <ele>30</ele>
        <time>2026-06-01T11:46:12Z</time>
      </trkpt>
      <trkpt lat="48.91983" lon="2.2222">
        <ele>29</ele>
        <time>2026-06-01T11:46:20Z</time>
      </trkpt>
      <trkpt lat="48.92" lon="2.22201">
        <ele>29</ele>
        <time>2026-06-01T11:46:25Z</time>
      </trkpt>
      <trkpt lat="48.9201" lon="2.22183">
        <ele>28</ele>
        <time>2026-06-01T11:46:29Z</time>
      </trkpt>
      <trkpt lat="48.92019" lon="2.22182">
        <ele>28</ele>
        <time>2026-06-01T11:46:31Z</time>
      </trkpt>
      <trkpt lat="48.92025" lon="2.22186">
        <ele>28</ele>
        <time>2026-06-01T11:46:32Z</time>
      </trkpt>
      <trkpt lat="48.92048" lon="2.22218">
        <ele>28</ele>
        <time>2026-06-01T11:46:40Z</time>
      </trkpt>
      <trkpt lat="48.92065" lon="2.22253">
        <ele>27</ele>
        <time>2026-06-01T11:46:46Z</time>
      </trkpt>
      <trkpt lat="48.92088" lon="2.22287">
        <ele>27</ele>
        <time>2026-06-01T11:46:54Z</time>
      </trkpt>
      <trkpt lat="48.92124" lon="2.22348">
        <ele>28</ele>
        <time>2026-06-01T11:47:06Z</time>
      </trkpt>
      <trkpt lat="48.92425" lon="2.2282">
        <ele>27</ele>
        <time>2026-06-01T11:48:47Z</time>
      </trkpt>
      <trkpt lat="48.92442" lon="2.22844">
        <ele>27</ele>
        <time>2026-06-01T11:48:53Z</time>
      </trkpt>
      <trkpt lat="48.92605" lon="2.23041">
        <ele>30</ele>
        <time>2026-06-01T11:49:41Z</time>
      </trkpt>
      <trkpt lat="48.9263" lon="2.23085">
        <ele>31</ele>
        <time>2026-06-01T11:49:50Z</time>
      </trkpt>
      <trkpt lat="48.92681" lon="2.23163">
        <ele>29</ele>
        <time>2026-06-01T11:50:07Z</time>
      </trkpt>
      <trkpt lat="48.92699" lon="2.23207">
        <ele>30</ele>
        <time>2026-06-01T11:50:15Z</time>
      </trkpt>
      <trkpt lat="48.92804" lon="2.23384">
        <ele>30</ele>
        <time>2026-06-01T11:50:52Z</time>
      </trkpt>
      <trkpt lat="48.92917" lon="2.23601">
        <ele>29</ele>
        <time>2026-06-01T11:51:34Z</time>
      </trkpt>
      <trkpt lat="48.92948" lon="2.23666">
        <ele>26</ele>
        <time>2026-06-01T11:51:47Z</time>
      </trkpt>
      <trkpt lat="48.92963" lon="2.23691">
        <ele>25</ele>
        <time>2026-06-01T11:51:52Z</time>
      </trkpt>
      <trkpt lat="48.9309" lon="2.23968">
        <ele>27</ele>
        <time>2026-06-01T11:52:44Z</time>
      </trkpt>
      <trkpt lat="48.93166" lon="2.24167">
        <ele>25</ele>
        <time>2026-06-01T11:53:19Z</time>
      </trkpt>
      <trkpt lat="48.93184" lon="2.24198">
        <ele>25</ele>
        <time>2026-06-01T11:53:25Z</time>
      </trkpt>
      <trkpt lat="48.93204" lon="2.24245">
        <ele>25</ele>
        <time>2026-06-01T11:53:34Z</time>
      </trkpt>
      <trkpt lat="48.93223" lon="2.24278">
        <ele>25</ele>
        <time>2026-06-01T11:53:41Z</time>
      </trkpt>
      <trkpt lat="48.93232" lon="2.24299">
        <ele>24</ele>
        <time>2026-06-01T11:53:44Z</time>
      </trkpt>
      <trkpt lat="48.93294" lon="2.24402">
        <ele>25</ele>
        <time>2026-06-01T11:54:06Z</time>
      </trkpt>
      <trkpt lat="48.93398" lon="2.24511">
        <ele>30</ele>
        <time>2026-06-01T11:54:35Z</time>
      </trkpt>
      <trkpt lat="48.93447" lon="2.24579">
        <ele>30</ele>
        <time>2026-06-01T11:54:51Z</time>
      </trkpt>
      <trkpt lat="48.93484" lon="2.24625">
        <ele>29</ele>
        <time>2026-06-01T11:55:02Z</time>
      </trkpt>
      <trkpt lat="48.93534" lon="2.24697">
        <ele>25</ele>
        <time>2026-06-01T11:55:18Z</time>
      </trkpt>
      <trkpt lat="48.93571" lon="2.24757">
        <ele>24</ele>
        <time>2026-06-01T11:55:31Z</time>
      </trkpt>
      <trkpt lat="48.93579" lon="2.24765">
        <ele>24</ele>
        <time>2026-06-01T11:55:33Z</time>
      </trkpt>
      <trkpt lat="48.93627" lon="2.2487">
        <ele>26</ele>
        <time>2026-06-01T11:55:53Z</time>
      </trkpt>
      <trkpt lat="48.93692" lon="2.24995">
        <ele>28</ele>
        <time>2026-06-01T11:56:17Z</time>
      </trkpt>
      <trkpt lat="48.93735" lon="2.25097">
        <ele>30</ele>
        <time>2026-06-01T11:56:36Z</time>
      </trkpt>
      <trkpt lat="48.93785" lon="2.25207">
        <ele>26</ele>
        <time>2026-06-01T11:56:56Z</time>
      </trkpt>
      <trkpt lat="48.93823" lon="2.25329">
        <ele>26</ele>
        <time>2026-06-01T11:57:17Z</time>
      </trkpt>
      <trkpt lat="48.93877" lon="2.25479">
        <ele>26</ele>
        <time>2026-06-01T11:57:43Z</time>
      </trkpt>
      <trkpt lat="48.93903" lon="2.25564">
        <ele>28</ele>
        <time>2026-06-01T11:57:57Z</time>
      </trkpt>
      <trkpt lat="48.93917" lon="2.25598">
        <ele>28</ele>
        <time>2026-06-01T11:58:04Z</time>
      </trkpt>
      <trkpt lat="48.93917" lon="2.25608">
        <ele>29</ele>
        <time>2026-06-01T11:58:05Z</time>
      </trkpt>
      <trkpt lat="48.93912" lon="2.25617">
        <ele>29</ele>
        <time>2026-06-01T11:58:07Z</time>
      </trkpt>
      <trkpt lat="48.93897" lon="2.25626">
        <ele>29</ele>
        <time>2026-06-01T11:58:11Z</time>
      </trkpt>
      <trkpt lat="48.93869" lon="2.25657">
        <ele>30</ele>
        <time>2026-06-01T11:58:19Z</time>
      </trkpt>
      <trkpt lat="48.93818" lon="2.25723">
        <ele>31</ele>
        <time>2026-06-01T11:58:34Z</time>
      </trkpt>
      <trkpt lat="48.93789" lon="2.25755">
        <ele>30</ele>
        <time>2026-06-01T11:58:43Z</time>
      </trkpt>
      <trkpt lat="48.93767" lon="2.25787">
        <ele>30</ele>
        <time>2026-06-01T11:58:50Z</time>
      </trkpt>
      <trkpt lat="48.93762" lon="2.25792">
        <ele>30</ele>
        <time>2026-06-01T11:58:51Z</time>
      </trkpt>
      <trkpt lat="48.93753" lon="2.25796">
        <ele>29</ele>
        <time>2026-06-01T11:58:53Z</time>
      </trkpt>
      <trkpt lat="48.93744" lon="2.25798">
        <ele>30</ele>
        <time>2026-06-01T11:58:56Z</time>
      </trkpt>
      <trkpt lat="48.93735" lon="2.25794">
        <ele>30</ele>
        <time>2026-06-01T11:58:58Z</time>
      </trkpt>
      <trkpt lat="48.93729" lon="2.25798">
        <ele>30</ele>
        <time>2026-06-01T11:58:59Z</time>
      </trkpt>
      <trkpt lat="48.93725" lon="2.25809">
        <ele>30</ele>
        <time>2026-06-01T11:59:01Z</time>
      </trkpt>
      <trkpt lat="48.93726" lon="2.25828">
        <ele>30</ele>
        <time>2026-06-01T11:59:04Z</time>
      </trkpt>
      <trkpt lat="48.93718" lon="2.25844">
        <ele>30</ele>
        <time>2026-06-01T11:59:07Z</time>
      </trkpt>
      <trkpt lat="48.93659" lon="2.25925">
        <ele>32</ele>
        <time>2026-06-01T11:59:26Z</time>
      </trkpt>
      <trkpt lat="48.93651" lon="2.25944">
        <ele>30</ele>
        <time>2026-06-01T11:59:29Z</time>
      </trkpt>
      <trkpt lat="48.93576" lon="2.26064">
        <ele>25</ele>
        <time>2026-06-01T11:59:55Z</time>
      </trkpt>
      <trkpt lat="48.93532" lon="2.2614">
        <ele>27</ele>
        <time>2026-06-01T12:00:10Z</time>
      </trkpt>
      <trkpt lat="48.93525" lon="2.26144">
        <ele>27</ele>
        <time>2026-06-01T12:00:12Z</time>
      </trkpt>
      <trkpt lat="48.93513" lon="2.26159">
        <ele>27</ele>
        <time>2026-06-01T12:00:16Z</time>
      </trkpt>
      <trkpt lat="48.93489" lon="2.2621">
        <ele>27</ele>
        <time>2026-06-01T12:00:25Z</time>
      </trkpt>
      <trkpt lat="48.93452" lon="2.2627">
        <ele>28</ele>
        <time>2026-06-01T12:00:38Z</time>
      </trkpt>
      <trkpt lat="48.93413" lon="2.26324">
        <ele>29</ele>
        <time>2026-06-01T12:00:50Z</time>
      </trkpt>
      <trkpt lat="48.93402" lon="2.26324">
        <ele>29</ele>
        <time>2026-06-01T12:00:53Z</time>
      </trkpt>
      <trkpt lat="48.93346" lon="2.26303">
        <ele>30</ele>
        <time>2026-06-01T12:01:06Z</time>
      </trkpt>
      <trkpt lat="48.93209" lon="2.26241">
        <ele>30</ele>
        <time>2026-06-01T12:01:40Z</time>
      </trkpt>
      <trkpt lat="48.93202" lon="2.26222">
        <ele>30</ele>
        <time>2026-06-01T12:01:43Z</time>
      </trkpt>
      <trkpt lat="48.93183" lon="2.26143">
        <ele>29</ele>
        <time>2026-06-01T12:01:56Z</time>
      </trkpt>
      <trkpt lat="48.93181" lon="2.26137">
        <ele>29</ele>
        <time>2026-06-01T12:01:57Z</time>
      </trkpt>
      <trkpt lat="48.93173" lon="2.26128">
        <ele>28</ele>
        <time>2026-06-01T12:01:59Z</time>
      </trkpt>
      <trkpt lat="48.93085" lon="2.26088">
        <ele>27</ele>
        <time>2026-06-01T12:02:21Z</time>
      </trkpt>
      <trkpt lat="48.93066" lon="2.26082">
        <ele>27</ele>
        <time>2026-06-01T12:02:25Z</time>
      </trkpt>
      <trkpt lat="48.93042" lon="2.26067">
        <ele>27</ele>
        <time>2026-06-01T12:02:31Z</time>
      </trkpt>
      <trkpt lat="48.93012" lon="2.26054">
        <ele>28</ele>
        <time>2026-06-01T12:02:38Z</time>
      </trkpt>
      <trkpt lat="48.92961" lon="2.26025">
        <ele>28</ele>
        <time>2026-06-01T12:02:51Z</time>
      </trkpt>
      <trkpt lat="48.92877" lon="2.25982">
        <ele>30</ele>
        <time>2026-06-01T12:03:12Z</time>
      </trkpt>
      <trkpt lat="48.9285" lon="2.25971">
        <ele>30</ele>
        <time>2026-06-01T12:03:18Z</time>
      </trkpt>
      <trkpt lat="48.92843" lon="2.25963">
        <ele>30</ele>
        <time>2026-06-01T12:03:20Z</time>
      </trkpt>
      <trkpt lat="48.92805" lon="2.25955">
        <ele>29</ele>
        <time>2026-06-01T12:03:29Z</time>
      </trkpt>
      <trkpt lat="48.92794" lon="2.25946">
        <ele>29</ele>
        <time>2026-06-01T12:03:32Z</time>
      </trkpt>
      <trkpt lat="48.9277" lon="2.25941">
        <ele>29</ele>
        <time>2026-06-01T12:03:38Z</time>
      </trkpt>
      <trkpt lat="48.92739" lon="2.2593">
        <ele>29</ele>
        <time>2026-06-01T12:03:45Z</time>
      </trkpt>
      <trkpt lat="48.92614" lon="2.25907">
        <ele>30</ele>
        <time>2026-06-01T12:04:15Z</time>
      </trkpt>
      <trkpt lat="48.92568" lon="2.25909">
        <ele>30</ele>
        <time>2026-06-01T12:04:26Z</time>
      </trkpt>
      <trkpt lat="48.92497" lon="2.25925">
        <ele>32</ele>
        <time>2026-06-01T12:04:42Z</time>
      </trkpt>
      <trkpt lat="48.92455" lon="2.25936">
        <ele>33</ele>
        <time>2026-06-01T12:04:52Z</time>
      </trkpt>
      <trkpt lat="48.92447" lon="2.2594">
        <ele>33</ele>
        <time>2026-06-01T12:04:54Z</time>
      </trkpt>
      <trkpt lat="48.92434" lon="2.25939">
        <ele>33</ele>
        <time>2026-06-01T12:04:57Z</time>
      </trkpt>
      <trkpt lat="48.92398" lon="2.25957">
        <ele>34</ele>
        <time>2026-06-01T12:05:06Z</time>
      </trkpt>
      <trkpt lat="48.92387" lon="2.25959">
        <ele>34</ele>
        <time>2026-06-01T12:05:09Z</time>
      </trkpt>
      <trkpt lat="48.92362" lon="2.25979">
        <ele>34</ele>
        <time>2026-06-01T12:05:15Z</time>
      </trkpt>
      <trkpt lat="48.92339" lon="2.2599">
        <ele>35</ele>
        <time>2026-06-01T12:05:21Z</time>
      </trkpt>
      <trkpt lat="48.92293" lon="2.26019">
        <ele>36</ele>
        <time>2026-06-01T12:05:33Z</time>
      </trkpt>
      <trkpt lat="48.92234" lon="2.26077">
        <ele>34</ele>
        <time>2026-06-01T12:05:49Z</time>
      </trkpt>
      <trkpt lat="48.92188" lon="2.26142">
        <ele>35</ele>
        <time>2026-06-01T12:06:04Z</time>
      </trkpt>
      <trkpt lat="48.92134" lon="2.2623">
        <ele>35</ele>
        <time>2026-06-01T12:06:22Z</time>
      </trkpt>
      <trkpt lat="48.92114" lon="2.26281">
        <ele>35</ele>
        <time>2026-06-01T12:06:31Z</time>
      </trkpt>
      <trkpt lat="48.92082" lon="2.26416">
        <ele>35</ele>
        <time>2026-06-01T12:06:53Z</time>
      </trkpt>
      <trkpt lat="48.9206" lon="2.2647">
        <ele>35</ele>
        <time>2026-06-01T12:07:03Z</time>
      </trkpt>
      <trkpt lat="48.91994" lon="2.26612">
        <ele>35</ele>
        <time>2026-06-01T12:07:30Z</time>
      </trkpt>
      <trkpt lat="48.91942" lon="2.26732">
        <ele>36</ele>
        <time>2026-06-01T12:07:52Z</time>
      </trkpt>
      <trkpt lat="48.91905" lon="2.26836">
        <ele>36</ele>
        <time>2026-06-01T12:08:10Z</time>
      </trkpt>
      <trkpt lat="48.91859" lon="2.26921">
        <ele>36</ele>
        <time>2026-06-01T12:08:27Z</time>
      </trkpt>
      <trkpt lat="48.91841" lon="2.26964">
        <ele>36</ele>
        <time>2026-06-01T12:08:35Z</time>
      </trkpt>
      <trkpt lat="48.91719" lon="2.27215">
        <ele>35</ele>
        <time>2026-06-01T12:09:23Z</time>
      </trkpt>
      <trkpt lat="48.91695" lon="2.27279">
        <ele>35</ele>
        <time>2026-06-01T12:09:34Z</time>
      </trkpt>
      <trkpt lat="48.91682" lon="2.27329">
        <ele>36</ele>
        <time>2026-06-01T12:09:42Z</time>
      </trkpt>
      <trkpt lat="48.91665" lon="2.27377">
        <ele>34</ele>
        <time>2026-06-01T12:09:50Z</time>
      </trkpt>
      <trkpt lat="48.91668" lon="2.27386">
        <ele>34</ele>
        <time>2026-06-01T12:09:52Z</time>
      </trkpt>
      <trkpt lat="48.91738" lon="2.27472">
        <ele>31</ele>
        <time>2026-06-01T12:10:13Z</time>
      </trkpt>
    </trkseg>
  </trk>
</gpx>